BA493 / G-EUYJ 7700 Squawk Report (17th of August, 2022)

Aircraft A320 Reg No. G-EUYJ Age 11 years old
Model A320 Jet engines 2 First flight 14-10-10
Registered 28-10-10 Rollout 10-10 Delivered 28-10-10
Construction No. 4464 Line No. N/A Series 232
ADSHEX 4063DE Airline name British Airways Owner N/A
Airfield based Heathrow~Gtr London~G First tracked N/A

Flight history for G-EUYJ

Route Flight No Date Playback
Zurich (ZRH) - Heathrow (LHR) BA717 2022-10-07 19:22:00
Heathrow (LHR) - Zurich (ZRH) BA716 2022-10-07 17:39:00
Makedonia (SKG) - Heathrow (LHR) BA2643 2022-10-07 14:55:00
Heathrow (LHR) - Makedonia (SKG) BA2642 2022-10-07 09:17:00
Dublin (DUB) - Heathrow (LHR) BA823 2022-10-06 20:34:00
Heathrow (LHR) - Dublin (DUB) BA824 2022-10-06 19:27:00
Glasgow (GLA) - Heathrow (LHR) BA1489 2022-10-06 16:11:00
Heathrow (LHR) - Glasgow (GLA) BA1484 2022-10-06 14:54:00
Linate (LIN) - Heathrow (LHR) BA565 2022-10-06 11:01:00
Heathrow (LHR) - Linate (LIN) BA564 2022-10-06 08:01:00
Zagreb (ZAG) - Heathrow (LHR) BA841 2022-10-05 21:25:00
Heathrow (LHR) - Zagreb (ZAG) BA840 2022-10-05 19:17:00
Linate (LIN) - Heathrow (LHR) BA575 2022-10-05 14:44:00
Heathrow (LHR) - Linate (LIN) BA574 2022-10-05 11:51:00
Arlanda (ARN) - Heathrow (LHR) BA771 2022-10-05 08:38:00
Heathrow (LHR) - Arlanda (ARN) BA786 2022-10-04 20:33:00
Mikonos (JMK) - Heathrow (LHR) BA651 2022-10-04 18:24:00
Heathrow (LHR) - Mikonos (JMK) BA650 2022-10-04 10:23:00
Dyce (ABZ) - Heathrow (LHR) BA1317 2022-10-04 06:14:00
Heathrow (LHR) - Dyce (ABZ) BA1316 2022-10-03 19:29:00
Time Lat Lon Altitude Heading Speed Vertical Rate
2022-08-17 12:55:59 GMT 51.468342 -0.457478 0 0 0 0
2022-08-17 12:55:48 GMT 51.468353 -0.457478 0 0 0 0
2022-08-17 12:55:35 GMT 51.468258 -0.457478 0 0 3 0
2022-08-17 12:55:32 GMT 51.468235 -0.457478 0 0 4 0
2022-08-17 12:55:30 GMT 51.468201 -0.457478 0 0 4 0
2022-08-17 12:55:27 GMT 51.468132 -0.457491 0 0 5 0
2022-08-17 12:55:17 GMT 51.467869 -0.457491 0 0 6 0
2022-08-17 12:55:11 GMT 51.467724 -0.457458 0 11 6 0
2022-08-17 12:55:04 GMT 51.467571 -0.457436 0 59 5 0
2022-08-17 12:54:56 GMT 51.467491 -0.457592 0 87 4 0
2022-08-17 12:54:52 GMT 51.467480 -0.457677 0 90 0 0
2022-08-17 12:54:17 GMT 51.467491 -0.457696 0 87 0 0
2022-08-17 12:53:42 GMT 51.467491 -0.457687 0 87 0 0
2022-08-17 12:53:27 GMT 51.467480 -0.457687 0 87 0 0
2022-08-17 12:52:59 GMT 51.467480 -0.457696 0 87 0 0
2022-08-17 12:52:52 GMT 51.467480 -0.457687 0 87 0 0
2022-08-17 12:52:50 GMT 51.467480 -0.457687 0 87 0 0
2022-08-17 12:52:47 GMT 51.467480 -0.457696 0 87 0 0
2022-08-17 12:52:46 GMT 51.467480 -0.457687 0 87 0 0
2022-08-17 12:52:41 GMT 51.467480 -0.457696 0 87 0 0
2022-08-17 12:52:38 GMT 51.467480 -0.457714 0 87 2 0
2022-08-17 12:52:32 GMT 51.467480 -0.457863 0 90 6 0
2022-08-17 12:52:21 GMT 51.467480 -0.458419 0 90 10 0
2022-08-17 12:52:04 GMT 51.467480 -0.459766 0 90 13 0
2022-08-17 12:51:59 GMT 51.467480 -0.460257 0 90 16 0
2022-08-17 12:51:44 GMT 51.467468 -0.461871 0 90 14 0
2022-08-17 12:51:41 GMT 51.467468 -0.462242 0 90 14 0
2022-08-17 12:51:39 GMT 51.467480 -0.462446 0 90 14 0
2022-08-17 12:51:24 GMT 51.467480 -0.463857 0 115 11 0
2022-08-17 12:51:21 GMT 51.467514 -0.464039 0 129 11 0
2022-08-17 12:51:17 GMT 51.467628 -0.464265 0 146 11 0
2022-08-17 12:51:09 GMT 51.467995 -0.464655 0 146 15 0
2022-08-17 12:51:06 GMT 51.468143 -0.464821 0 146 15 0
2022-08-17 12:51:00 GMT 51.468479 -0.465202 0 146 15 0
2022-08-17 12:50:57 GMT 51.468666 -0.465393 0 146 17 0
2022-08-17 12:50:56 GMT 51.468716 -0.465453 0 146 17 0
2022-08-17 12:50:44 GMT 51.469482 -0.466288 0 146 16 0
2022-08-17 12:50:32 GMT 51.470085 -0.466957 0 146 12 0
2022-08-17 12:50:30 GMT 51.470192 -0.467072 0 137 12 0
2022-08-17 12:50:28 GMT 51.470364 -0.467272 0 126 12 0
2022-08-17 12:50:26 GMT 51.470470 -0.467472 0 118 12 0
2022-08-17 12:50:23 GMT 51.470470 -0.467472 0 109 11 0
2022-08-17 12:50:20 GMT 51.470535 -0.467698 0 92 11 0
2022-08-17 12:50:18 GMT 51.470539 -0.467834 0 90 11 0
2022-08-17 12:50:15 GMT 51.470528 -0.468178 0 101 11 0
2022-08-17 12:50:11 GMT 51.470535 -0.468385 0 120 11 0
2022-08-17 12:50:08 GMT 51.470592 -0.468589 0 146 11 0
2022-08-17 12:50:07 GMT 51.470684 -0.468719 0 163 11 0
2022-08-17 12:50:02 GMT 51.470833 -0.468807 0 177 11 0
2022-08-17 12:49:59 GMT 51.470959 -0.468812 0 180 12 0
2022-08-17 12:49:56 GMT 51.471176 -0.468812 0 180 16 0
2022-08-17 12:49:52 GMT 51.471447 -0.468807 0 180 19 0
2022-08-17 12:49:51 GMT 51.471531 -0.468812 0 180 19 0
2022-08-17 12:49:50 GMT 51.471622 -0.468812 0 180 19 0
2022-08-17 12:49:48 GMT 51.471821 -0.468807 0 180 18 0
2022-08-17 12:49:46 GMT 51.471954 -0.468812 0 180 18 0
2022-08-17 12:49:45 GMT 51.472115 -0.468812 0 180 18 0
2022-08-17 12:49:43 GMT 51.472309 -0.468812 0 180 17 0
2022-08-17 12:49:41 GMT 51.472389 -0.468812 0 180 17 0
2022-08-17 12:49:39 GMT 51.472542 -0.468826 0 180 17 0
2022-08-17 12:49:38 GMT 51.472672 -0.468826 0 180 16 0
2022-08-17 12:49:35 GMT 51.472832 -0.468826 0 180 16 0
2022-08-17 12:49:33 GMT 51.472984 -0.468826 0 180 15 0
2022-08-17 12:49:32 GMT 51.473053 -0.468830 0 180 16 0
2022-08-17 12:49:30 GMT 51.473183 -0.468826 0 180 16 0
2022-08-17 12:49:29 GMT 51.473251 -0.468826 0 177 16 0
2022-08-17 12:49:27 GMT 51.473404 -0.468845 0 180 16 0
2022-08-17 12:49:25 GMT 51.473534 -0.468849 0 177 16 0
2022-08-17 12:49:24 GMT 51.473614 -0.468849 0 168 15 0
2022-08-17 12:49:21 GMT 51.473824 -0.468884 0 168 15 0
2022-08-17 12:49:20 GMT 51.473984 -0.468941 0 165 14 0
2022-08-17 12:49:17 GMT 51.474140 -0.468997 0 165 13 0
2022-08-17 12:49:16 GMT 51.474140 -0.468997 0 165 13 0
2022-08-17 12:49:15 GMT 51.474220 -0.469035 0 168 13 0
2022-08-17 12:49:13 GMT 51.474335 -0.469072 0 171 12 0
2022-08-17 12:49:11 GMT 51.474495 -0.469127 0 185 12 0
2022-08-17 12:49:09 GMT 51.474575 -0.469127 0 199 12 0
2022-08-17 12:49:07 GMT 51.474682 -0.469093 0 216 11 0
2022-08-17 12:49:01 GMT 51.474873 -0.468849 0 250 12 0
2022-08-17 12:48:59 GMT 51.474930 -0.468682 0 261 13 0
2022-08-17 12:48:55 GMT 51.474953 -0.468329 0 267 13 0
2022-08-17 12:48:52 GMT 51.474953 -0.468044 0 261 13 0
2022-08-17 12:48:50 GMT 51.474976 -0.467847 0 255 14 0
2022-08-17 12:48:48 GMT 51.475056 -0.467453 0 250 14 0
2022-08-17 12:48:46 GMT 51.475056 -0.467453 0 253 14 0
2022-08-17 12:48:42 GMT 51.475124 -0.467160 0 270 18 0
2022-08-17 12:48:36 GMT 51.475147 -0.466325 0 270 18 0
2022-08-17 12:48:34 GMT 51.475147 -0.466175 0 270 18 0
2022-08-17 12:48:33 GMT 51.475159 -0.465787 0 270 18 0
2022-08-17 12:48:31 GMT 51.475159 -0.462093 0 89 136 0
2022-08-17 12:48:01 GMT 51.475159 -0.462093 0 270 14 0
2022-08-17 12:47:50 GMT 51.475323 -0.461178 0 210 12 0
2022-08-17 12:47:47 GMT 51.475487 -0.461006 0 196 11 0
2022-08-17 12:47:43 GMT 51.475651 -0.460943 0 199 12 0
2022-08-17 12:47:42 GMT 51.475868 -0.460795 0 194 12 0
2022-08-17 12:47:39 GMT 51.475868 -0.460795 0 194 12 0
2022-08-17 12:47:37 GMT 51.475952 -0.460739 0 180 11 0
2022-08-17 12:47:35 GMT 51.476067 -0.460720 0 168 11 0
2022-08-17 12:47:33 GMT 51.476173 -0.460739 0 157 11 0
2022-08-17 12:47:30 GMT 51.476337 -0.460854 0 149 10 0
2022-08-17 12:47:28 GMT 51.476475 -0.460968 0 146 12 0
2022-08-17 12:47:26 GMT 51.476475 -0.460968 0 146 12 0
2022-08-17 12:47:18 GMT 51.476898 -0.461444 0 143 18 0
2022-08-17 12:47:11 GMT 51.477413 -0.462242 0 118 22 0
2022-08-17 12:47:06 GMT 51.477573 -0.464339 0 90 50 0
2022-08-17 12:46:59 GMT 51.477573 -0.465880 0 90 68 0
2022-08-17 12:46:55 GMT 51.477573 -0.465880 0 90 68 0
2022-08-17 12:46:54 GMT 51.477562 -0.467327 0 87 86 0
2022-08-17 12:46:53 GMT 51.477562 -0.467327 0 87 86 0
2022-08-17 12:46:51 GMT 51.477562 -0.468608 0 89 108 0
2022-08-17 12:46:49 GMT 51.477585 -0.470111 125 89 108 -64
2022-08-17 12:46:46 GMT 51.477539 -0.473006 100 89 127 -64
2022-08-17 12:46:40 GMT 51.477512 -0.482864 175 89 141 -256
2022-08-17 12:46:36 GMT 51.477512 -0.482864 175 89 140 -704
2022-08-17 12:46:34 GMT 51.477512 -0.486145 200 89 140 -704
2022-08-17 12:46:32 GMT 51.477493 -0.487258 200 89 140 -704
2022-08-17 12:46:31 GMT 51.477467 -0.490570 250 90 139 -704
2022-08-17 12:46:29 GMT 51.477493 -0.494311 300 90 138 -640
2022-08-17 12:46:25 GMT 51.477493 -0.494311 300 90 138 -576
2022-08-17 12:46:23 GMT 51.477493 -0.496686 325 89 138 -704
2022-08-17 12:46:21 GMT 51.477467 -0.499725 350 89 138 -640
2022-08-17 12:46:19 GMT 51.477467 -0.501709 350 89 139 -832
2022-08-17 12:46:17 GMT 51.477448 -0.504703 400 89 139 -768
2022-08-17 12:46:15 GMT 51.477448 -0.504703 400 89 139 -832
2022-08-17 12:46:12 GMT 51.477448 -0.507895 450 89 139 -576
2022-08-17 12:46:09 GMT 51.477417 -0.510178 475 89 138 -640
2022-08-17 12:46:08 GMT 51.477417 -0.511169 475 89 138 -704
2022-08-17 12:46:06 GMT 51.477417 -0.513153 525 89 137 -704
2022-08-17 12:46:04 GMT 51.477417 -0.514755 525 89 137 -704
2022-08-17 12:46:03 GMT 51.477402 -0.516357 550 89 137 -576
2022-08-17 12:46:01 GMT 51.477371 -0.519409 575 89 137 -768
2022-08-17 12:45:59 GMT 51.477402 -0.520514 600 90 138 -704
2022-08-17 12:45:57 GMT 51.477371 -0.524063 625 90 138 -704
2022-08-17 12:45:56 GMT 51.477356 -0.524968 625 90 139 -768
2022-08-17 12:45:53 GMT 51.477356 -0.526527 650 90 139 -768
2022-08-17 12:45:52 GMT 51.477371 -0.527496 675 89 139 -832
2022-08-17 12:45:51 GMT 51.477356 -0.529571 700 89 138 -704
2022-08-17 12:45:49 GMT 51.477371 -0.530701 700 89 138 -576
2022-08-17 12:45:48 GMT 51.477356 -0.531723 725 89 138 -640
2022-08-17 12:45:46 GMT 51.477325 -0.533676 750 89 138 -768
2022-08-17 12:45:43 GMT 51.477325 -0.537872 800 89 138 -576
2022-08-17 12:45:41 GMT 51.477310 -0.538924 800 89 138 -576
2022-08-17 12:45:38 GMT 51.477280 -0.545120 875 90 137 -768
2022-08-17 12:45:36 GMT 51.477280 -0.545120 875 89 137 -512
2022-08-17 12:45:34 GMT 51.477264 -0.546644 900 89 137 -448
2022-08-17 12:45:32 GMT 51.477264 -0.549613 925 89 136 -640
2022-08-17 12:45:30 GMT 51.477264 -0.550727 925 89 136 -640
2022-08-17 12:45:28 GMT 51.477234 -0.552826 950 89 136 -576
2022-08-17 12:45:27 GMT 51.477234 -0.553818 975 89 136 -576
2022-08-17 12:45:25 GMT 51.477234 -0.555801 1,000 89 136 -704
2022-08-17 12:45:24 GMT 51.477219 -0.558818 1,025 89 135 -576
2022-08-17 12:45:22 GMT 51.477219 -0.559783 1,025 89 135 -640
2022-08-17 12:45:20 GMT 51.477184 -0.561600 1,050 89 136 -640
2022-08-17 12:45:18 GMT 51.477184 -0.564117 1,075 89 137 -640
2022-08-17 12:45:14 GMT 51.477184 -0.566788 1,100 89 139 -704
2022-08-17 12:45:13 GMT 51.477127 -0.569804 1,150 89 140 -704
2022-08-17 12:45:10 GMT 51.477139 -0.570831 1,150 89 141 -832
2022-08-17 12:45:09 GMT 51.477139 -0.572968 1,225 89 143 -896
2022-08-17 12:45:06 GMT 51.477139 -0.575027 1,225 89 144 -960
2022-08-17 12:45:05 GMT 51.477127 -0.576708 1,250 90 147 -896
2022-08-17 12:45:04 GMT 51.477127 -0.577821 1,250 90 147 -896
2022-08-17 12:45:03 GMT 51.477127 -0.580642 1,300 90 147 -896
2022-08-17 12:45:01 GMT 51.477127 -0.580642 1,300 90 147 -896
2022-08-17 12:45:00 GMT 51.477127 -0.581682 1,325 90 148 -960
2022-08-17 12:44:58 GMT 51.477139 -0.583725 1,350 89 150 -960
2022-08-17 12:44:56 GMT 51.477139 -0.586014 1,375 89 153 -448
2022-08-17 12:44:55 GMT 51.477127 -0.587100 1,375 89 154 -448
2022-08-17 12:44:52 GMT 51.477081 -0.592816 1,400 89 159 -512
2022-08-17 12:44:48 GMT 51.477093 -0.594025 1,425 89 160 -640
2022-08-17 12:44:47 GMT 51.477081 -0.598755 1,450 89 160 -960
2022-08-17 12:44:45 GMT 51.477081 -0.598755 1,475 89 161 -1024
2022-08-17 12:44:44 GMT 51.477047 -0.599747 1,500 88 161 -960
2022-08-17 12:44:41 GMT 51.476997 -0.603409 1,550 89 161 -1024
2022-08-17 12:44:39 GMT 51.476990 -0.605807 1,575 89 161 -832
2022-08-17 12:44:37 GMT 51.476997 -0.608063 1,625 89 160 -832
2022-08-17 12:44:35 GMT 51.476952 -0.609970 1,625 89 160 -896
2022-08-17 12:44:33 GMT 51.476952 -0.612030 1,650 89 160 -832
2022-08-17 12:44:32 GMT 51.476952 -0.614014 1,675 90 160 -704
2022-08-17 12:44:30 GMT 51.476952 -0.617523 1,700 90 160 -768
2022-08-17 12:44:27 GMT 51.476944 -0.620059 1,750 89 161 -960
2022-08-17 12:44:25 GMT 51.476944 -0.622212 1,775 89 161 -896
2022-08-17 12:44:23 GMT 51.476944 -0.624068 1,800 89 161 -832
2022-08-17 12:44:19 GMT 51.476944 -0.629635 1,850 89 162 -960
2022-08-17 12:44:17 GMT 51.476898 -0.631788 1,900 89 162 -896
2022-08-17 12:44:15 GMT 51.476898 -0.634164 1,925 89 162 -768
2022-08-17 12:44:13 GMT 51.476898 -0.636465 1,925 89 162 -832
2022-08-17 12:44:10 GMT 51.476860 -0.639954 1,975 89 162 -768
2022-08-17 12:44:09 GMT 51.476852 -0.641141 1,975 89 162 -768
2022-08-17 12:44:08 GMT 51.476860 -0.642319 2,000 89 162 -768
2022-08-17 12:44:07 GMT 51.476807 -0.646560 2,025 89 163 -768
2022-08-17 12:44:05 GMT 51.476807 -0.646560 2,050 89 164 -832
2022-08-17 12:44:02 GMT 51.476761 -0.653315 2,100 89 164 -704
2022-08-17 12:43:59 GMT 51.476761 -0.653315 2,100 89 165 -704
2022-08-17 12:43:57 GMT 51.476761 -0.655988 2,150 89 165 -576
2022-08-17 12:43:55 GMT 51.476761 -0.659180 2,175 89 166 -640
2022-08-17 12:43:52 GMT 51.476719 -0.662155 2,200 89 168 -704
2022-08-17 12:43:50 GMT 51.476719 -0.664062 2,225 89 168 -704
2022-08-17 12:43:47 GMT 51.476715 -0.672541 2,350 89 168 -1024
2022-08-17 12:43:44 GMT 51.476715 -0.672541 2,325 89 168 -1088
2022-08-17 12:43:41 GMT 51.476673 -0.680313 2,425 90 168 -1088
2022-08-17 12:43:38 GMT 51.476673 -0.680313 2,425 90 168 -1088
2022-08-17 12:43:35 GMT 51.476669 -0.683454 2,475 90 166 -1024
2022-08-17 12:43:32 GMT 51.476673 -0.687256 2,525 90 166 -960
2022-08-17 12:43:30 GMT 51.476715 -0.688427 2,600 90 166 -896
2022-08-17 12:43:27 GMT 51.476715 -0.693401 2,600 90 167 -1024
2022-08-17 12:43:23 GMT 51.476719 -0.701599 2,750 90 168 -1024
2022-08-17 12:43:20 GMT 51.476719 -0.701599 2,875 89 170 -960
2022-08-17 12:43:17 GMT 51.476719 -0.704803 2,900 89 171 -960
2022-08-17 12:43:14 GMT 51.476673 -0.709305 2,825 88 174 -1024
2022-08-17 12:43:11 GMT 51.476536 -0.716858 2,900 87 176 -896
2022-08-17 12:43:08 GMT 51.476536 -0.716858 2,925 83 181 -1024
2022-08-17 12:43:05 GMT 51.476303 -0.722425 2,950 83 181 -960
2022-08-17 12:43:02 GMT 51.476166 -0.725023 3,050 77 182 -960
2022-08-17 12:42:59 GMT 51.475697 -0.729980 3,050 77 182 -960
2022-08-17 12:42:56 GMT 51.475296 -0.732521 3,075 74 182 -832
2022-08-17 12:42:53 GMT 51.474518 -0.736455 3,100 67 182 -832
2022-08-17 12:42:50 GMT 51.472576 -0.743256 3,150 63 182 -704
2022-08-17 12:42:48 GMT 51.472576 -0.743256 3,175 61 181 -640
2022-08-17 12:42:46 GMT 51.471691 -0.745773 3,225 60 180 -576
2022-08-17 12:42:43 GMT 51.470627 -0.748778 3,225 60 180 -384
2022-08-17 12:42:40 GMT 51.467827 -0.756683 3,575 60 188 -704
2022-08-17 12:42:37 GMT 51.467827 -0.756683 3,275 60 188 -704
2022-08-17 12:42:34 GMT 51.466736 -0.759690 3,325 60 187 -704
2022-08-17 12:42:31 GMT 51.465408 -0.763476 3,350 60 188 -576
2022-08-17 12:42:29 GMT 51.463028 -0.770008 3,400 58 185 -768
2022-08-17 12:42:26 GMT 51.463028 -0.770008 3,400 58 187 -640
2022-08-17 12:42:23 GMT 51.462158 -0.772309 3,400 58 186 -512
2022-08-17 12:42:21 GMT 51.461170 -0.774918 3,425 58 185 -768
2022-08-17 12:42:16 GMT 51.457306 -0.784760 3,525 57 184 -768
2022-08-17 12:42:13 GMT 51.457306 -0.784760 3,700 58 184 -768
2022-08-17 12:42:10 GMT 51.456238 -0.787582 3,625 58 185 -704
2022-08-17 12:42:06 GMT 51.454376 -0.792426 3,625 59 186 -896
2022-08-17 12:42:03 GMT 51.452930 -0.796280 3,650 59 186 -768
2022-08-17 12:42:00 GMT 51.450348 -0.803338 3,825 59 188 -832
2022-08-17 12:41:57 GMT 51.450348 -0.803338 3,725 59 189 -960
2022-08-17 12:41:54 GMT 51.448929 -0.807037 3,800 58 190 -768
2022-08-17 12:41:51 GMT 51.446648 -0.813141 3,875 58 189 -768
2022-08-17 12:41:49 GMT 51.446648 -0.813141 3,875 58 189 -768
2022-08-17 12:41:46 GMT 51.444134 -0.819778 3,950 57 187 -1088
2022-08-17 12:41:43 GMT 51.444134 -0.819778 3,975 57 187 -1088
2022-08-17 12:41:40 GMT 51.442657 -0.823529 4,100 52 184 -768
2022-08-17 12:41:38 GMT 51.441879 -0.825459 4,150 52 184 -768
2022-08-17 12:41:36 GMT 51.440968 -0.827637 4,100 55 186 -896
2022-08-17 12:41:33 GMT 51.438782 -0.832672 4,125 54 186 -960
2022-08-17 12:41:30 GMT 51.437756 -0.834961 4,200 51 184 -768
2022-08-17 12:41:28 GMT 51.436684 -0.837173 4,200 49 182 -576
2022-08-17 12:41:25 GMT 51.433567 -0.842361 4,325 43 179 -576
2022-08-17 12:41:23 GMT 51.433567 -0.842361 4,250 35 179 -640
2022-08-17 12:41:20 GMT 51.431889 -0.844345 4,250 30 179 -640
2022-08-17 12:41:15 GMT 51.428238 -0.847283 4,375 356 192 -1088
2022-08-17 12:41:12 GMT 51.426270 -0.848174 4,350 10 184 -832
2022-08-17 12:41:10 GMT 51.424118 -0.848694 4,400 357 192 -704
2022-08-17 12:41:07 GMT 51.420952 -0.848923 4,400 359 191 -640
2022-08-17 12:41:04 GMT 51.419182 -0.848846 4,425 357 192 -768
2022-08-17 12:41:01 GMT 51.415363 -0.848389 4,525 355 192 -1152
2022-08-17 12:40:58 GMT 51.410339 -0.847580 4,550 354 194 -1280
2022-08-17 12:40:55 GMT 51.410339 -0.847580 4,600 354 194 -1280
2022-08-17 12:40:52 GMT 51.408142 -0.847209 4,650 353 194 -1344
2022-08-17 12:40:50 GMT 51.403152 -0.845947 4,725 352 195 -1472
2022-08-17 12:40:47 GMT 51.403152 -0.845947 4,825 344 195 -1664
2022-08-17 12:40:44 GMT 51.400955 -0.845205 4,825 344 195 -1664
2022-08-17 12:40:42 GMT 51.399490 -0.844537 4,950 341 196 -1664
2022-08-17 12:40:40 GMT 51.398140 -0.843811 4,950 338 197 -1600
2022-08-17 12:40:38 GMT 51.393631 -0.840157 5,100 320 202 -1536
2022-08-17 12:40:35 GMT 51.393631 -0.840157 5,075 327 199 -1536
2022-08-17 12:40:32 GMT 51.391342 -0.837479 5,225 320 202 -1536
2022-08-17 12:40:29 GMT 51.389374 -0.834441 5,300 311 203 -1600
2022-08-17 12:40:27 GMT 51.388092 -0.832066 5,375 306 203 -1728
2022-08-17 12:40:24 GMT 51.386627 -0.828800 5,400 301 204 -1728
2022-08-17 12:40:22 GMT 51.385529 -0.825608 5,475 297 204 -1728
2022-08-17 12:40:20 GMT 51.384888 -0.823455 5,500 293 205 -1664
2022-08-17 12:40:18 GMT 51.384109 -0.820040 5,575 288 205 -1600
2022-08-17 12:40:16 GMT 51.383698 -0.818036 5,600 284 205 -1536
2022-08-17 12:40:14 GMT 51.383331 -0.815512 5,700 274 207 -1344
2022-08-17 12:40:12 GMT 51.382683 -0.806580 5,925 274 207 -1344
2022-08-17 12:40:09 GMT 51.382683 -0.806580 5,800 273 207 -1280
2022-08-17 12:40:07 GMT 51.382645 -0.804377 5,825 273 208 -1280
2022-08-17 12:40:05 GMT 51.382507 -0.800740 5,900 273 208 -1216
2022-08-17 12:40:03 GMT 51.382450 -0.798340 5,900 273 209 -1216
2022-08-17 12:40:01 GMT 51.382359 -0.794678 6,000 273 209 -1152
2022-08-17 12:39:58 GMT 51.382263 -0.790863 6,000 273 210 -1088
2022-08-17 12:39:55 GMT 51.382126 -0.786057 6,075 273 210 -1152
2022-08-17 12:39:53 GMT 51.381912 -0.777208 6,175 273 221 -704
2022-08-17 12:39:50 GMT 51.381912 -0.777208 6,175 272 211 -1088
2022-08-17 12:39:47 GMT 51.381821 -0.772755 6,225 273 213 -832
2022-08-17 12:39:44 GMT 51.381706 -0.766830 6,300 273 216 -640
2022-08-17 12:39:41 GMT 51.381592 -0.761620 6,300 273 216 -640
2022-08-17 12:39:38 GMT 51.381500 -0.759319 6,325 273 218 -640
2022-08-17 12:39:36 GMT 51.381454 -0.756201 6,350 273 224 -640
2022-08-17 12:39:34 GMT 51.381332 -0.751953 6,375 273 222 -704
2022-08-17 12:39:31 GMT 51.381195 -0.747223 6,425 273 222 -704
2022-08-17 12:39:28 GMT 51.381042 -0.742913 6,450 273 227 -576
2022-08-17 12:39:25 GMT 51.380905 -0.737049 6,450 273 228 -640
2022-08-17 12:39:23 GMT 51.380676 -0.728661 6,800 273 238 -896
2022-08-17 12:39:20 GMT 51.380585 -0.726137 6,725 273 238 -896
2022-08-17 12:39:16 GMT 51.380493 -0.721980 6,575 273 232 -768
2022-08-17 12:39:13 GMT 51.380264 -0.711899 6,675 273 236 -896
2022-08-17 12:39:10 GMT 51.380264 -0.711899 6,650 273 237 -896
2022-08-17 12:39:08 GMT 51.380123 -0.706635 6,700 273 238 -896
2022-08-17 12:39:05 GMT 51.379898 -0.697483 6,725 273 240 -832
2022-08-17 12:39:03 GMT 51.379898 -0.697483 6,800 273 246 -960
2022-08-17 12:39:00 GMT 51.379845 -0.695801 6,800 273 244 -896
2022-08-17 12:38:58 GMT 51.379578 -0.685087 6,850 273 245 -960
2022-08-17 12:38:55 GMT 51.379578 -0.685087 6,875 273 249 -832
2022-08-17 12:38:53 GMT 51.379532 -0.681524 6,900 273 248 -832
2022-08-17 12:38:51 GMT 51.379395 -0.676847 6,950 273 252 -832
2022-08-17 12:38:48 GMT 51.379238 -0.671234 6,975 273 254 -832
2022-08-17 12:38:45 GMT 51.379120 -0.667048 7,025 273 256 -832
2022-08-17 12:38:42 GMT 51.378960 -0.661392 7,025 273 255 -768
2022-08-17 12:38:39 GMT 51.378590 -0.649338 7,150 273 256 -1088
2022-08-17 12:38:36 GMT 51.378433 -0.644853 7,200 273 257 -1152
2022-08-17 12:38:34 GMT 51.378433 -0.644853 8,225 273 257 -1152
2022-08-17 12:38:31 GMT 51.378296 -0.640547 7,225 273 257 -1152
2022-08-17 12:38:29 GMT 51.378204 -0.636762 7,275 273 257 -1152
2022-08-17 12:38:27 GMT 51.378120 -0.633850 7,525 273 261 -1088
2022-08-17 12:38:24 GMT 51.377930 -0.626146 7,350 273 258 -896
2022-08-17 12:38:21 GMT 51.377792 -0.622138 7,400 272 260 -960
2022-08-17 12:38:19 GMT 51.377705 -0.617599 7,450 273 260 -896
2022-08-17 12:38:16 GMT 51.377609 -0.613527 7,475 272 261 -896
2022-08-17 12:38:14 GMT 51.377468 -0.608292 7,500 273 261 -1088
2022-08-17 12:38:12 GMT 51.377377 -0.603714 7,575 273 262 -1280
2022-08-17 12:38:09 GMT 51.377239 -0.597839 7,600 273 261 -1280
2022-08-17 12:38:07 GMT 51.377151 -0.593781 7,650 273 262 -1088
2022-08-17 12:38:04 GMT 51.377007 -0.587311 7,750 273 262 -1152
2022-08-17 12:38:01 GMT 51.376865 -0.582047 7,775 273 262 -1152
2022-08-17 12:37:59 GMT 51.376633 -0.574875 7,825 274 262 -1152
2022-08-17 12:37:57 GMT 51.376633 -0.574875 7,850 274 262 -1216
2022-08-17 12:37:54 GMT 51.376354 -0.567703 7,950 275 262 -1216
2022-08-17 12:37:51 GMT 51.376167 -0.562897 8,050 276 263 -1280
2022-08-17 12:37:47 GMT 51.375702 -0.554581 8,075 277 262 -1408
2022-08-17 12:37:44 GMT 51.375328 -0.549622 8,475 278 263 -1344
2022-08-17 12:37:41 GMT 51.374908 -0.543897 8,200 278 262 -1408
2022-08-17 12:37:38 GMT 51.374443 -0.538406 8,275 278 262 -1472
2022-08-17 12:37:35 GMT 51.373947 -0.532763 8,325 278 261 -1664
2022-08-17 12:37:33 GMT 51.373581 -0.528383 8,400 278 261 -1728
2022-08-17 12:37:30 GMT 51.373093 -0.522842 8,550 278 260 -1920
2022-08-17 12:37:27 GMT 51.372665 -0.517694 8,625 278 260 -1856
2022-08-17 12:37:24 GMT 51.372116 -0.511310 8,675 279 259 -1856
2022-08-17 12:37:22 GMT 51.371742 -0.507584 8,725 279 259 -1856
2022-08-17 12:37:20 GMT 51.371513 -0.504684 8,775 279 260 -1792
2022-08-17 12:37:18 GMT 51.371140 -0.501175 8,825 280 260 -1600
2022-08-17 12:37:16 GMT 51.370422 -0.494236 9,000 281 261 -1536
2022-08-17 12:37:13 GMT 51.369965 -0.490228 9,025 283 261 -1344
2022-08-17 12:37:10 GMT 51.369324 -0.485306 9,100 288 263 -1280
2022-08-17 12:37:07 GMT 51.368454 -0.479687 9,100 286 263 -1280
2022-08-17 12:37:05 GMT 51.367767 -0.475901 9,175 289 264 -1408
2022-08-17 12:37:02 GMT 51.364929 -0.465509 9,300 301 265 -1664
2022-08-17 12:36:59 GMT 51.364929 -0.465509 9,375 301 265 -1664
2022-08-17 12:36:56 GMT 51.360947 -0.456155 9,425 308 266 -1728
2022-08-17 12:36:54 GMT 51.360947 -0.456155 9,500 312 267 -1728
2022-08-17 12:36:51 GMT 51.358749 -0.452295 9,600 321 267 -1536
2022-08-17 12:36:48 GMT 51.355312 -0.447311 9,600 326 268 -1408
2022-08-17 12:36:45 GMT 51.352333 -0.443802 9,725 328 268 -1408
2022-08-17 12:36:42 GMT 51.349503 -0.441086 9,775 333 269 -1344
2022-08-17 12:36:39 GMT 51.342556 -0.436401 9,875 343 269 -1408
2022-08-17 12:36:36 GMT 51.337692 -0.434480 10,100 3 266 -1280
2022-08-17 12:36:32 GMT 51.337692 -0.434480 10,125 355 267 -1216
2022-08-17 12:36:29 GMT 51.330315 -0.433502 10,100 359 267 -1216
2022-08-17 12:36:26 GMT 51.330315 -0.433502 10,150 3 266 -1280
2022-08-17 12:36:23 GMT 51.323982 -0.434418 10,225 9 265 -1216
2022-08-17 12:36:21 GMT 51.323982 -0.434418 10,425 14 265 -1152
2022-08-17 12:36:18 GMT 51.320984 -0.435445 10,350 16 264 -1088
2022-08-17 12:36:15 GMT 51.317467 -0.437241 10,350 21 265 -1024
2022-08-17 12:36:12 GMT 51.311970 -0.441055 10,450 28 265 -704
2022-08-17 12:36:10 GMT 51.311970 -0.441055 10,450 29 269 -448
2022-08-17 12:36:07 GMT 51.308624 -0.443907 10,450 29 267 -512
2022-08-17 12:36:05 GMT 51.307571 -0.444946 10,450 29 266 -512
2022-08-17 12:36:03 GMT 51.304382 -0.447769 10,475 29 269 -448
2022-08-17 12:36:00 GMT 51.298370 -0.453260 10,500 29 271 -320
2022-08-17 12:35:57 GMT 51.298370 -0.453260 10,525 29 272 -384
2022-08-17 12:35:55 GMT 51.295578 -0.455784 10,550 29 273 -576
2022-08-17 12:35:53 GMT 51.293243 -0.457863 10,550 29 274 -576
2022-08-17 12:35:50 GMT 51.290268 -0.460535 10,750 29 276 -640
2022-08-17 12:35:47 GMT 51.287346 -0.463181 10,625 29 277 -640
2022-08-17 12:35:45 GMT 51.284508 -0.465698 10,650 29 278 -576
2022-08-17 12:35:42 GMT 51.281712 -0.468216 10,675 29 280 -640
2022-08-17 12:35:40 GMT 51.275566 -0.473709 10,700 29 285 -768
2022-08-17 12:35:37 GMT 51.275566 -0.473709 10,750 29 283 -768
2022-08-17 12:35:34 GMT 51.272919 -0.476124 10,750 29 284 -704
2022-08-17 12:35:32 GMT 51.270027 -0.478745 10,775 29 286 -768
2022-08-17 12:35:29 GMT 51.266281 -0.482136 10,825 29 292 -832
2022-08-17 12:35:27 GMT 51.264721 -0.483551 10,850 29 288 -704
2022-08-17 12:35:25 GMT 51.261974 -0.486069 10,875 29 288 -768
2022-08-17 12:35:23 GMT 51.259735 -0.488075 10,900 29 290 -832
2022-08-17 12:35:21 GMT 51.255020 -0.492381 10,950 29 291 -640
2022-08-17 12:35:19 GMT 51.255020 -0.492381 10,975 29 292 -704
2022-08-17 12:35:17 GMT 51.251404 -0.495647 11,000 29 292 -832
2022-08-17 12:35:14 GMT 51.249619 -0.497206 11,025 29 294 -1088
2022-08-17 12:35:12 GMT 51.244656 -0.501709 11,100 29 295 -1024
2022-08-17 12:35:07 GMT 51.240326 -0.505600 11,425 29 296 -1088
2022-08-17 12:35:05 GMT 51.234329 -0.510938 11,250 29 298 -1344
2022-08-17 12:35:02 GMT 51.234329 -0.510938 11,250 29 298 -1280
2022-08-17 12:34:59 GMT 51.230667 -0.514205 11,325 29 298 -1344
2022-08-17 12:34:57 GMT 51.228745 -0.515912 11,575 29 298 -1344
2022-08-17 12:34:54 GMT 51.225586 -0.518733 12,200 29 300 -1728
2022-08-17 12:34:52 GMT 51.223022 -0.521034 11,475 29 299 -1344
2022-08-17 12:34:50 GMT 51.220169 -0.523605 11,525 29 300 -1280
2022-08-17 12:34:48 GMT 51.217937 -0.525589 11,550 29 300 -1280
2022-08-17 12:34:46 GMT 51.216064 -0.527270 11,600 29 301 -1344
2022-08-17 12:34:44 GMT 51.212585 -0.530461 11,675 29 301 -1408
2022-08-17 12:34:41 GMT 51.209976 -0.532761 11,775 29 301 -1408
2022-08-17 12:34:39 GMT 51.203751 -0.538404 11,800 29 301 -1600
2022-08-17 12:34:36 GMT 51.203751 -0.538404 12,075 29 301 -1600
2022-08-17 12:34:34 GMT 51.201317 -0.540619 11,850 29 301 -1664
2022-08-17 12:34:32 GMT 51.198059 -0.543518 12,025 29 301 -1728
2022-08-17 12:34:29 GMT 51.194550 -0.546718 12,075 29 300 -1664
2022-08-17 12:34:26 GMT 51.190887 -0.549984 12,125 29 300 -1664
2022-08-17 12:34:24 GMT 51.189194 -0.551543 12,300 29 301 -1472
2022-08-17 12:34:21 GMT 51.185898 -0.554438 12,225 29 301 -1536
2022-08-17 12:34:19 GMT 51.182877 -0.557185 12,275 29 301 -1472
2022-08-17 12:34:17 GMT 51.180508 -0.559311 12,350 29 301 -1408
2022-08-17 12:34:14 GMT 51.176319 -0.563049 12,425 29 303 -1216
2022-08-17 12:34:11 GMT 51.170872 -0.568008 12,500 29 304 -1024
2022-08-17 12:34:09 GMT 51.166901 -0.571512 12,550 29 304 -960
2022-08-17 12:34:06 GMT 51.166901 -0.571512 12,550 29 305 -960
2022-08-17 12:34:04 GMT 51.164307 -0.573883 12,600 29 305 -1024
2022-08-17 12:34:02 GMT 51.162167 -0.575790 12,625 29 305 -1024
2022-08-17 12:34:00 GMT 51.159485 -0.578193 12,675 29 305 -960
2022-08-17 12:33:57 GMT 51.155884 -0.581436 12,700 29 305 -896
2022-08-17 12:33:54 GMT 51.152111 -0.584793 12,775 29 304 -896
2022-08-17 12:33:52 GMT 51.147308 -0.589105 12,800 29 304 -896
2022-08-17 12:33:50 GMT 51.145523 -0.590664 12,825 29 304 -896
2022-08-17 12:33:48 GMT 51.142708 -0.593185 12,875 29 304 -896
2022-08-17 12:33:46 GMT 51.142708 -0.593185 13,100 29 304 -1152
2022-08-17 12:33:43 GMT 51.139114 -0.596379 12,925 29 304 -896
2022-08-17 12:33:41 GMT 51.135536 -0.599594 12,950 29 304 -896
2022-08-17 12:33:39 GMT 51.133850 -0.601056 13,000 29 304 -896
2022-08-17 12:33:36 GMT 51.130554 -0.604025 13,050 29 304 -1024
2022-08-17 12:33:34 GMT 51.128586 -0.605807 13,075 29 304 -1088
2022-08-17 12:33:32 GMT 51.124878 -0.609073 13,100 29 304 -1152
2022-08-17 12:33:30 GMT 51.122406 -0.611300 13,150 29 305 -1216
2022-08-17 12:33:28 GMT 51.119751 -0.613676 13,200 29 306 -1280
2022-08-17 12:33:26 GMT 51.118469 -0.614863 13,250 29 306 -1344
2022-08-17 12:33:24 GMT 51.115448 -0.617536 13,300 29 307 -1408
2022-08-17 12:33:21 GMT 51.111282 -0.621247 13,325 29 307 -1536
2022-08-17 12:33:19 GMT 51.109451 -0.622880 13,425 29 307 -1664
2022-08-17 12:33:17 GMT 51.107117 -0.624959 13,450 29 307 -1664
2022-08-17 12:33:15 GMT 51.104599 -0.627186 13,525 29 307 -1664
2022-08-17 12:33:13 GMT 51.101601 -0.629883 13,575 29 307 -1728
2022-08-17 12:33:10 GMT 51.098145 -0.632976 13,625 29 307 -1728
2022-08-17 12:33:08 GMT 51.092560 -0.637949 13,750 29 306 -1600
2022-08-17 12:33:05 GMT 51.092560 -0.637949 13,775 29 306 -1600
2022-08-17 12:33:03 GMT 51.089493 -0.640696 13,850 29 306 -1344
2022-08-17 12:33:01 GMT 51.087112 -0.642849 13,875 29 306 -1152
2022-08-17 12:32:58 GMT 51.083447 -0.646133 13,975 29 307 -704
2022-08-17 12:32:55 GMT 51.079769 -0.649414 13,950 29 307 -640
2022-08-17 12:32:53 GMT 51.076950 -0.651979 14,000 29 308 -320
2022-08-17 12:32:51 GMT 51.074230 -0.654373 14,025 29 308 -256
2022-08-17 12:32:48 GMT 51.071110 -0.657196 14,000 29 308 -128
2022-08-17 12:32:46 GMT 51.068504 -0.659485 14,025 29 308 -64
2022-08-17 12:32:43 GMT 51.064316 -0.663188 14,025 29 309 -64
2022-08-17 12:32:40 GMT 51.058308 -0.668564 14,025 29 310 -64
2022-08-17 12:32:38 GMT 51.054932 -0.671576 14,025 29 311 0
2022-08-17 12:32:35 GMT 51.054932 -0.671576 14,025 29 312 0
2022-08-17 12:32:33 GMT 51.051636 -0.674546 14,025 29 312 0
2022-08-17 12:32:30 GMT 51.048294 -0.677515 14,000 29 314 0
2022-08-17 12:32:28 GMT 51.046436 -0.679169 14,000 29 315 0
2022-08-17 12:32:26 GMT 51.043179 -0.682068 14,000 29 317 64
2022-08-17 12:32:24 GMT 51.040421 -0.684493 14,000 29 322 0
2022-08-17 12:32:22 GMT 51.039047 -0.685755 14,000 29 319 64
2022-08-17 12:32:20 GMT 51.036301 -0.688204 14,000 29 322 0
2022-08-17 12:32:18 GMT 51.032318 -0.691768 13,975 29 326 64
2022-08-17 12:32:15 GMT 51.025726 -0.697632 13,975 29 328 0
2022-08-17 12:32:13 GMT 51.025726 -0.697632 13,975 29 330 0
2022-08-17 12:32:10 GMT 51.022156 -0.700824 13,975 29 332 -64
2022-08-17 12:32:08 GMT 51.015472 -0.706837 14,000 29 334 0
2022-08-17 12:32:05 GMT 51.015472 -0.706837 14,000 29 334 0
2022-08-17 12:32:03 GMT 51.012543 -0.709435 14,000 29 334 -64
2022-08-17 12:32:00 GMT 51.009247 -0.712404 14,000 29 334 -64
2022-08-17 12:31:57 GMT 51.005146 -0.716019 14,000 29 335 0
2022-08-17 12:31:54 GMT 50.998722 -0.721817 14,000 30 335 64
2022-08-17 12:31:52 GMT 50.998722 -0.721817 14,000 29 335 -128
2022-08-17 12:31:50 GMT 50.994717 -0.725327 14,000 29 335 0
2022-08-17 12:31:47 GMT 50.991135 -0.728531 14,000 29 335 0
2022-08-17 12:31:44 GMT 50.983017 -0.735936 14,000 30 334 64
2022-08-17 12:31:41 GMT 50.983017 -0.735936 14,000 30 334 64
2022-08-17 12:31:39 GMT 50.981033 -0.737762 14,000 30 334 64
2022-08-17 12:31:37 GMT 50.977261 -0.741348 14,000 34 334 64
2022-08-17 12:31:34 GMT 50.973907 -0.744934 14,000 34 334 64
2022-08-17 12:31:32 GMT 50.972168 -0.746773 14,000 37 333 0
2022-08-17 12:31:30 GMT 50.969009 -0.750485 14,000 40 333 -64
2022-08-17 12:31:27 GMT 50.964569 -0.756201 14,000 40 333 -64
2022-08-17 12:31:24 GMT 50.962177 -0.759430 14,000 41 334 -64
2022-08-17 12:31:22 GMT 50.960037 -0.762482 14,000 41 334 0
2022-08-17 12:31:20 GMT 50.956127 -0.768051 14,000 41 334 0
2022-08-17 12:31:17 GMT 50.952820 -0.772781 14,000 41 334 0
2022-08-17 12:31:14 GMT 50.950607 -0.775947 14,000 41 334 0
2022-08-17 12:31:11 GMT 50.945984 -0.782405 14,000 41 334 64
2022-08-17 12:31:08 GMT 50.940205 -0.790634 14,000 41 334 64
2022-08-17 12:31:05 GMT 50.940205 -0.790634 14,000 41 334 64
2022-08-17 12:31:01 GMT 50.935730 -0.797028 14,000 41 334 0
2022-08-17 12:30:58 GMT 50.931965 -0.802383 14,000 41 334 -128
2022-08-17 12:30:56 GMT 50.927265 -0.809097 14,000 41 334 -128
2022-08-17 12:30:54 GMT 50.924927 -0.812394 14,025 41 334 -384
2022-08-17 12:30:52 GMT 50.922794 -0.815506 14,025 41 334 -448
2022-08-17 12:30:50 GMT 50.922794 -0.815506 14,025 41 334 -512
2022-08-17 12:30:47 GMT 50.919754 -0.819818 14,075 41 335 -704
2022-08-17 12:30:44 GMT 50.915859 -0.825348 14,125 41 335 -1024
2022-08-17 12:30:42 GMT 50.913345 -0.828874 14,150 41 335 -1024
2022-08-17 12:30:40 GMT 50.911789 -0.831101 14,150 41 335 -1024
2022-08-17 12:30:38 GMT 50.905060 -0.840683 14,250 41 335 -1024
2022-08-17 12:30:35 GMT 50.903961 -0.842236 14,275 41 335 -960
2022-08-17 12:30:33 GMT 50.903961 -0.842236 14,275 41 334 -960
2022-08-17 12:30:31 GMT 50.901520 -0.845718 14,325 41 334 -960
2022-08-17 12:30:29 GMT 50.899052 -0.849152 14,325 41 334 -960
2022-08-17 12:30:27 GMT 50.895374 -0.854340 14,400 41 334 -896
2022-08-17 12:30:24 GMT 50.893753 -0.856711 14,425 41 334 -960
2022-08-17 12:30:22 GMT 50.891006 -0.860645 14,450 41 333 -960
2022-08-17 12:30:20 GMT 50.887756 -0.865248 14,525 41 333 -960
2022-08-17 12:30:17 GMT 50.884506 -0.869850 14,575 42 334 -1280
2022-08-17 12:30:14 GMT 50.878555 -0.878312 14,625 41 333 -1216
2022-08-17 12:30:11 GMT 50.878555 -0.878312 14,675 42 335 -1536
2022-08-17 12:30:09 GMT 50.872890 -0.886383 14,725 42 335 -1408
2022-08-17 12:30:07 GMT 50.872890 -0.886383 14,775 42 335 -1472
2022-08-17 12:30:05 GMT 50.871540 -0.888290 14,800 42 335 -1600
2022-08-17 12:30:03 GMT 50.868027 -0.893381 14,875 42 336 -1792
2022-08-17 12:30:00 GMT 50.865509 -0.896945 14,950 42 336 -1600
2022-08-17 12:29:56 GMT 50.860748 -0.903848 15,200 42 342 -1024
2022-08-17 12:29:54 GMT 50.859192 -0.906075 15,100 42 339 -1152
2022-08-17 12:29:52 GMT 50.853619 -0.914154 15,150 42 340 -1088
2022-08-17 12:29:50 GMT 50.853619 -0.914154 15,175 42 341 -1024
2022-08-17 12:29:48 GMT 50.851246 -0.917587 15,200 42 342 -1024
2022-08-17 12:29:46 GMT 50.848984 -0.920922 15,225 42 344 -1664
2022-08-17 12:29:42 GMT 50.844818 -0.926934 15,350 42 343 -2176
2022-08-17 12:29:40 GMT 50.842911 -0.929718 15,350 42 344 -1792
2022-08-17 12:29:38 GMT 50.839554 -0.934654 15,500 42 343 -2176
2022-08-17 12:29:36 GMT 50.837975 -0.936890 15,525 42 343 -2368
2022-08-17 12:29:34 GMT 50.835617 -0.940370 15,575 42 342 -2688
2022-08-17 12:29:32 GMT 50.831818 -0.945863 15,775 42 341 -2752
2022-08-17 12:29:29 GMT 50.828667 -0.950470 16,125 42 339 -1920
2022-08-17 12:29:27 GMT 50.826244 -0.953979 16,025 42 340 -2432
2022-08-17 12:29:24 GMT 50.823452 -0.958023 16,325 42 339 -2176
2022-08-17 12:29:21 GMT 50.820007 -0.962982 16,175 42 339 -2240
2022-08-17 12:29:19 GMT 50.818287 -0.965500 16,300 42 339 -1920
2022-08-17 12:29:17 GMT 50.811676 -0.975037 16,400 42 339 -1920
2022-08-17 12:29:14 GMT 50.811676 -0.975037 16,425 42 339 -1920
2022-08-17 12:29:10 GMT 50.807144 -0.981495 16,550 42 340 -1856
2022-08-17 12:29:08 GMT 50.804413 -0.985413 16,625 42 340 -1856
2022-08-17 12:29:06 GMT 50.802734 -0.987778 16,650 42 340 -1856
2022-08-17 12:29:04 GMT 50.797337 -0.995560 16,775 42 341 -1856
2022-08-17 12:29:02 GMT 50.797337 -0.995560 16,850 42 341 -1920
2022-08-17 12:28:59 GMT 50.794868 -0.999069 16,925 42 341 -1920
2022-08-17 12:28:57 GMT 50.791843 -1.003494 16,950 42 341 -1920
2022-08-17 12:28:54 GMT 50.788353 -1.008606 17,125 42 341 -1984
2022-08-17 12:28:51 GMT 50.782951 -1.016464 17,175 42 341 -1984
2022-08-17 12:28:49 GMT 50.782951 -1.016464 17,200 42 341 -1920
2022-08-17 12:28:46 GMT 50.776203 -1.026230 17,375 42 342 -1792
2022-08-17 12:28:43 GMT 50.776203 -1.026230 17,375 42 342 -1856
2022-08-17 12:28:41 GMT 50.773174 -1.030655 17,425 42 342 -1792
2022-08-17 12:28:39 GMT 50.771641 -1.032867 17,500 42 342 -1792
2022-08-17 12:28:37 GMT 50.768646 -1.037243 17,675 42 344 -1664
2022-08-17 12:28:34 GMT 50.765213 -1.042217 17,625 42 343 -1664
2022-08-17 12:28:31 GMT 50.762100 -1.046745 17,725 42 344 -1664
2022-08-17 12:28:29 GMT 50.759628 -1.050308 17,750 42 346 -1664
2022-08-17 12:28:27 GMT 50.756790 -1.054539 17,850 42 346 -1536
2022-08-17 12:28:24 GMT 50.753265 -1.059587 17,925 42 347 -1408
2022-08-17 12:28:21 GMT 50.745621 -1.070796 18,000 42 348 -1216
2022-08-17 12:28:18 GMT 50.745621 -1.070796 18,075 42 350 -1216
2022-08-17 12:28:16 GMT 50.744385 -1.072652 18,075 42 351 -1216
2022-08-17 12:28:14 GMT 50.737427 -1.082821 18,175 42 354 -1472
2022-08-17 12:28:11 GMT 50.737427 -1.082821 18,225 42 354 -1472
2022-08-17 12:28:08 GMT 50.734585 -1.086884 18,250 42 354 -1472
2022-08-17 12:28:06 GMT 50.732758 -1.089502 18,300 41 354 -1728
2022-08-17 12:28:04 GMT 50.729324 -1.094253 18,400 38 355 -2176
2022-08-17 12:28:02 GMT 50.727928 -1.096115 18,425 40 355 -2048
2022-08-17 12:28:00 GMT 50.725342 -1.099598 18,500 39 355 -2112
2022-08-17 12:27:58 GMT 50.722618 -1.103058 18,575 38 355 -2176
2022-08-17 12:27:56 GMT 50.719482 -1.106947 18,775 37 355 -2240
2022-08-17 12:27:53 GMT 50.711819 -1.115952 20,475 34 369 -1536
2022-08-17 12:27:50 GMT 50.711819 -1.115952 18,875 35 354 -2112
2022-08-17 12:27:48 GMT 50.709961 -1.118007 18,950 35 355 -1920
2022-08-17 12:27:46 GMT 50.705910 -1.122513 19,550 35 355 -1728
2022-08-17 12:27:44 GMT 50.703068 -1.125641 19,075 35 355 -1600
2022-08-17 12:27:42 GMT 50.701950 -1.126938 19,100 35 355 -1536
2022-08-17 12:27:40 GMT 50.698563 -1.130627 19,150 35 355 -1344
2022-08-17 12:27:36 GMT 50.692921 -1.136856 19,250 35 355 -1024
2022-08-17 12:27:33 GMT 50.689270 -1.140945 19,275 35 355 -896
2022-08-17 12:27:31 GMT 50.683144 -1.147690 19,325 35 355 -704
2022-08-17 12:27:29 GMT 50.683144 -1.147690 19,350 35 355 -768
2022-08-17 12:27:26 GMT 50.679558 -1.151657 19,400 35 355 -832
2022-08-17 12:27:24 GMT 50.676361 -1.155272 19,425 35 355 -960
2022-08-17 12:27:22 GMT 50.674438 -1.157303 19,475 35 354 -960
2022-08-17 12:27:19 GMT 50.670319 -1.161949 19,500 35 354 -960
2022-08-17 12:27:17 GMT 50.668350 -1.164117 19,525 35 354 -960
2022-08-17 12:27:15 GMT 50.660706 -1.172568 19,600 35 353 -960
2022-08-17 12:27:13 GMT 50.660706 -1.172568 19,625 35 353 -960
2022-08-17 12:27:10 GMT 50.653564 -1.180452 19,700 35 352 -960
2022-08-17 12:27:07 GMT 50.653564 -1.180452 19,700 35 352 -960
2022-08-17 12:27:05 GMT 50.650726 -1.183632 19,750 35 352 -960
2022-08-17 12:27:02 GMT 50.647530 -1.187192 19,775 35 352 -960
2022-08-17 12:27:00 GMT 50.644135 -1.190977 19,800 35 352 -960
2022-08-17 12:26:58 GMT 50.641247 -1.194169 19,850 35 352 -960
2022-08-17 12:26:55 GMT 50.638687 -1.196990 19,875 35 352 -960
2022-08-17 12:26:53 GMT 50.634979 -1.201051 19,925 35 352 -960
2022-08-17 12:26:50 GMT 50.631844 -1.204562 19,975 35 351 -896
2022-08-17 12:26:48 GMT 50.628708 -1.207990 20,000 35 351 -896
2022-08-17 12:26:45 GMT 50.624908 -1.212208 20,025 35 350 -896
2022-08-17 12:26:43 GMT 50.621979 -1.215435 20,075 35 350 -896
2022-08-17 12:26:41 GMT 50.619087 -1.218592 20,125 35 350 -896
2022-08-17 12:26:38 GMT 50.615040 -1.223046 20,175 35 350 -960
2022-08-17 12:26:35 GMT 50.611633 -1.226855 20,175 35 350 -960
2022-08-17 12:26:33 GMT 50.609360 -1.229355 20,200 35 350 -960
2022-08-17 12:26:31 GMT 50.605270 -1.233866 20,275 35 351 -960
2022-08-17 12:26:28 GMT 50.601974 -1.237480 20,300 35 351 -960
2022-08-17 12:26:25 GMT 50.597954 -1.241975 20,350 35 352 -960
2022-08-17 12:26:22 GMT 50.594090 -1.246206 20,400 35 353 -960
2022-08-17 12:26:19 GMT 50.590530 -1.250201 20,425 35 353 -960
2022-08-17 12:26:17 GMT 50.588455 -1.252441 20,450 34 353 -960
2022-08-17 12:26:15 GMT 50.584717 -1.256561 20,500 35 354 -960
2022-08-17 12:26:12 GMT 50.578171 -1.263789 20,550 34 356 -960
2022-08-17 12:26:10 GMT 50.578171 -1.263789 20,575 34 356 -960
2022-08-17 12:26:08 GMT 50.575516 -1.266680 20,625 34 357 -960
2022-08-17 12:26:06 GMT 50.573364 -1.269065 20,650 34 357 -960
2022-08-17 12:26:04 GMT 50.570023 -1.272679 20,675 34 358 -960
2022-08-17 12:26:02 GMT 50.567505 -1.275498 20,725 34 359 -896
2022-08-17 12:25:59 GMT 50.563385 -1.279980 20,750 34 359 -960
2022-08-17 12:25:57 GMT 50.560574 -1.283099 20,800 34 361 -960
2022-08-17 12:25:55 GMT 50.553169 -1.291190 20,850 34 362 -960
2022-08-17 12:25:52 GMT 50.553169 -1.291190 20,900 35 362 -896
2022-08-17 12:25:49 GMT 50.549561 -1.295158 20,925 34 363 -896
2022-08-17 12:25:47 GMT 50.547211 -1.297723 20,950 35 363 -896
2022-08-17 12:25:44 GMT 50.538895 -1.306867 21,025 34 364 -896
2022-08-17 12:25:41 GMT 50.534039 -1.312198 21,075 34 366 -1024
2022-08-17 12:25:38 GMT 50.534039 -1.312198 21,100 35 366 -1152
2022-08-17 12:25:35 GMT 50.530655 -1.315974 21,150 35 367 -1216
2022-08-17 12:25:33 GMT 50.526993 -1.319950 21,175 35 368 -1280
2022-08-17 12:25:30 GMT 50.524494 -1.322739 21,775 34 369 -1536
2022-08-17 12:25:28 GMT 50.519989 -1.327683 21,325 35 370 -1728
2022-08-17 12:25:24 GMT 50.514496 -1.333755 21,475 35 371 -1984
2022-08-17 12:25:21 GMT 50.511703 -1.336790 21,500 35 371 -2112
2022-08-17 12:25:19 GMT 50.507408 -1.341520 21,625 34 370 -2304
2022-08-17 12:25:17 GMT 50.504429 -1.344786 21,700 34 370 -2368
2022-08-17 12:25:15 GMT 50.502182 -1.347271 21,775 34 370 -2368
2022-08-17 12:25:12 GMT 50.497818 -1.351986 21,900 34 370 -2304
2022-08-17 12:25:10 GMT 50.492046 -1.358296 22,000 34 370 -2304
2022-08-17 12:25:08 GMT 50.492046 -1.358296 22,050 34 370 -2112
2022-08-17 12:25:05 GMT 50.489254 -1.361340 22,200 34 370 -2112
2022-08-17 12:25:03 GMT 50.485931 -1.364907 22,275 34 370 -2048
2022-08-17 12:25:01 GMT 50.482544 -1.368593 22,250 34 370 -1984
2022-08-17 12:24:58 GMT 50.475567 -1.376260 22,400 34 370 -1920
2022-08-17 12:24:56 GMT 50.475567 -1.376260 22,675 34 371 -1920
2022-08-17 12:24:53 GMT 50.471378 -1.380863 22,550 34 372 -1856
2022-08-17 12:24:51 GMT 50.467896 -1.384566 22,625 34 372 -1920
2022-08-17 12:24:48 GMT 50.464920 -1.387891 22,675 34 372 -1920
2022-08-17 12:24:46 GMT 50.462067 -1.390958 22,725 34 372 -1984
2022-08-17 12:24:44 GMT 50.458202 -1.395264 22,825 34 374 -1856
2022-08-17 12:24:42 GMT 50.455582 -1.398083 22,925 34 375 -1728
2022-08-17 12:24:40 GMT 50.453979 -1.399817 22,950 34 376 -2048
2022-08-17 12:24:37 GMT 50.448715 -1.405527 23,150 34 376 -2304
2022-08-17 12:24:34 GMT 50.445282 -1.409286 23,100 34 376 -1984
2022-08-17 12:24:32 GMT 50.441353 -1.413599 23,200 34 376 -2048
2022-08-17 12:24:30 GMT 50.438511 -1.416642 23,225 34 376 -2240
2022-08-17 12:24:27 GMT 50.430862 -1.424970 23,525 34 376 -2304
2022-08-17 12:24:22 GMT 50.424919 -1.431489 23,650 34 376 -2304
2022-08-17 12:24:20 GMT 50.424919 -1.431489 23,650 34 376 -2176
2022-08-17 12:24:18 GMT 50.421432 -1.435234 23,725 34 376 -2240
2022-08-17 12:24:16 GMT 50.416031 -1.441088 23,825 34 376 -2240
2022-08-17 12:24:14 GMT 50.416031 -1.441088 23,925 34 376 -2048
2022-08-17 12:24:11 GMT 50.410858 -1.446706 24,100 34 378 -1728
2022-08-17 12:24:07 GMT 50.405972 -1.452051 24,100 34 377 -1728
2022-08-17 12:24:05 GMT 50.403168 -1.455110 24,175 34 378 -1728
2022-08-17 12:24:03 GMT 50.400291 -1.458287 24,225 34 378 -1728
2022-08-17 12:24:01 GMT 50.392410 -1.466892 24,300 34 379 -1856
2022-08-17 12:23:59 GMT 50.392410 -1.466892 24,400 34 379 -2048
2022-08-17 12:23:56 GMT 50.389755 -1.469783 24,450 34 380 -2176
2022-08-17 12:23:54 GMT 50.387535 -1.472168 24,525 34 380 -2112
2022-08-17 12:23:52 GMT 50.385208 -1.474766 24,600 34 380 -2112
2022-08-17 12:23:50 GMT 50.380043 -1.480333 24,700 34 380 -2176
2022-08-17 12:23:47 GMT 50.377155 -1.483525 24,750 34 380 -2112
2022-08-17 12:23:44 GMT 50.372635 -1.488431 24,825 34 380 -2176
2022-08-17 12:23:42 GMT 50.370392 -1.490888 24,925 34 381 -2176
2022-08-17 12:23:40 GMT 50.365952 -1.495658 25,075 30 382 -2560
2022-08-17 12:23:37 GMT 50.362400 -1.499485 25,125 34 381 -2304
2022-08-17 12:23:34 GMT 50.358025 -1.504088 25,250 33 381 -2432
2022-08-17 12:23:32 GMT 50.355194 -1.507006 25,300 32 381 -2496
2022-08-17 12:23:30 GMT 50.352219 -1.509970 25,425 31 382 -2496
2022-08-17 12:23:27 GMT 50.347733 -1.514162 25,525 30 382 -2496
2022-08-17 12:23:24 GMT 50.342148 -1.519004 25,675 28 382 -2368
2022-08-17 12:23:21 GMT 50.338612 -1.521978 25,725 27 383 -2368
2022-08-17 12:23:19 GMT 50.333023 -1.526283 25,925 24 384 -2112
2022-08-17 12:23:17 GMT 50.329578 -1.528807 25,950 24 384 -2112
2022-08-17 12:23:15 GMT 50.329578 -1.528807 25,975 23 386 -2112
2022-08-17 12:23:13 GMT 50.326412 -1.531034 26,050 23 385 -2048
2022-08-17 12:23:11 GMT 50.316696 -1.537146 26,275 20 388 -1856
2022-08-17 12:23:08 GMT 50.316696 -1.537146 26,300 19 388 -1856
2022-08-17 12:23:05 GMT 50.311615 -1.540037 26,325 18 389 -1728
2022-08-17 12:23:02 GMT 50.306301 -1.542763 26,450 17 391 -1728
2022-08-17 12:22:59 GMT 50.302551 -1.544663 26,525 17 393 -1600
2022-08-17 12:22:56 GMT 50.295551 -1.548033 26,625 17 394 -1728
2022-08-17 12:22:53 GMT 50.292107 -1.549740 26,625 17 394 -1728
2022-08-17 12:22:51 GMT 50.288269 -1.551674 26,725 17 395 -2048
2022-08-17 12:22:49 GMT 50.284702 -1.553378 26,775 17 395 -2048
2022-08-17 12:22:47 GMT 50.276779 -1.557240 26,875 17 395 -1856
2022-08-17 12:22:45 GMT 50.276779 -1.557240 27,000 17 399 -1536
2022-08-17 12:22:42 GMT 50.273018 -1.559094 27,000 17 396 -1728
2022-08-17 12:22:40 GMT 50.268688 -1.561246 27,025 17 396 -1664
2022-08-17 12:22:37 GMT 50.263641 -1.563673 27,225 17 398 -1600
2022-08-17 12:22:34 GMT 50.258331 -1.566275 27,225 17 399 -1536
2022-08-17 12:22:32 GMT 50.254715 -1.568009 27,300 17 401 -1472
2022-08-17 12:22:30 GMT 50.251141 -1.569709 27,325 17 402 -1472
2022-08-17 12:22:27 GMT 50.245880 -1.572307 27,375 17 403 -1472
2022-08-17 12:22:23 GMT 50.239563 -1.575309 27,475 17 404 -1728
2022-08-17 12:22:21 GMT 50.235306 -1.577405 27,550 17 405 -1920
2022-08-17 12:22:19 GMT 50.228329 -1.580769 27,800 17 406 -1984
2022-08-17 12:22:14 GMT 50.218918 -1.585356 27,925 17 406 -2112
2022-08-17 12:22:12 GMT 50.218918 -1.585356 27,850 17 406 -2112
2022-08-17 12:22:09 GMT 50.207008 -1.591162 28,000 17 408 -2112
2022-08-17 12:22:06 GMT 50.207008 -1.591162 28,100 17 407 -2048
2022-08-17 12:22:03 GMT 50.203537 -1.592801 28,150 17 408 -2112
2022-08-17 12:22:01 GMT 50.200539 -1.594280 28,225 17 408 -2112
2022-08-17 12:21:59 GMT 50.196022 -1.596432 28,300 17 408 -2048
2022-08-17 12:21:57 GMT 50.192322 -1.598222 28,450 17 408 -1984
2022-08-17 12:21:55 GMT 50.189270 -1.599698 28,450 17 409 -1984
2022-08-17 12:21:53 GMT 50.183407 -1.602519 28,600 17 410 -1984
2022-08-17 12:21:50 GMT 50.179497 -1.604449 28,650 17 411 -2112
2022-08-17 12:21:47 GMT 50.174049 -1.607047 28,700 17 410 -2048
2022-08-17 12:21:43 GMT 50.166695 -1.610611 28,850 17 411 -2112
2022-08-17 12:21:40 GMT 50.160416 -1.613617 29,100 17 412 -2048
2022-08-17 12:21:36 GMT 50.149109 -1.619038 29,150 17 413 -2048
2022-08-17 12:21:33 GMT 50.149109 -1.619038 29,175 17 414 -1984
2022-08-17 12:21:31 GMT 50.145676 -1.620700 29,225 17 413 -2112
2022-08-17 12:21:29 GMT 50.138435 -1.624195 30,300 17 417 -2048
2022-08-17 12:21:27 GMT 50.138435 -1.624195 29,400 17 414 -1984
2022-08-17 12:21:25 GMT 50.134621 -1.626051 29,450 17 414 -1984
2022-08-17 12:21:23 GMT 50.129639 -1.628426 29,525 17 415 -1984
2022-08-17 12:21:20 GMT 50.123245 -1.631542 29,850 17 416 -1920
2022-08-17 12:21:17 GMT 50.118256 -1.633927 29,800 17 416 -1984
2022-08-17 12:21:14 GMT 50.114277 -1.635849 30,000 17 419 -1920
2022-08-17 12:21:11 GMT 50.109200 -1.638299 29,900 17 417 -2048
2022-08-17 12:21:09 GMT 50.104546 -1.640526 30,000 17 419 -1920
2022-08-17 12:21:07 GMT 50.102005 -1.641733 30,025 17 419 -1856
2022-08-17 12:21:05 GMT 50.096306 -1.644535 30,125 17 420 -1920
2022-08-17 12:21:02 GMT 50.092583 -1.646316 30,200 17 420 -1984
2022-08-17 12:21:00 GMT 50.083317 -1.650844 30,350 17 422 -1856
2022-08-17 12:20:58 GMT 50.078709 -1.653071 30,475 17 422 -1856
2022-08-17 12:20:55 GMT 50.078709 -1.653071 30,575 17 422 -1856
2022-08-17 12:20:52 GMT 50.073303 -1.655683 30,550 17 423 -1792
2022-08-17 12:20:49 GMT 50.061722 -1.661248 30,625 17 423 -1984
2022-08-17 12:20:46 GMT 50.061722 -1.661248 30,700 16 424 -2048
2022-08-17 12:20:44 GMT 50.057995 -1.663018 30,775 16 425 -2176
2022-08-17 12:20:42 GMT 50.054970 -1.664429 30,850 16 425 -2240
2022-08-17 12:20:40 GMT 50.050644 -1.666380 30,925 15 426 -2304
2022-08-17 12:20:38 GMT 50.040165 -1.670813 31,075 15 426 -2368
2022-08-17 12:20:35 GMT 50.040165 -1.670813 31,200 14 427 -2624
2022-08-17 12:20:32 GMT 50.029449 -1.674981 31,300 14 427 -2624
2022-08-17 12:20:29 GMT 50.026016 -1.676210 31,475 12 427 -2752
2022-08-17 12:20:25 GMT 50.023079 -1.677271 31,675 12 427 -2752
2022-08-17 12:20:23 GMT 50.014515 -1.680166 31,725 11 428 -2880
2022-08-17 12:20:21 GMT 50.014515 -1.680166 31,775 11 427 -2880
2022-08-17 12:20:19 GMT 50.011368 -1.681197 32,125 10 426 -3200
2022-08-17 12:20:17 GMT 50.005554 -1.682932 32,025 10 427 -3136
2022-08-17 12:20:14 GMT 50.001015 -1.684249 32,225 9 427 -3136
2022-08-17 12:20:12 GMT 49.996822 -1.685436 32,225 9 427 -3136
2022-08-17 12:20:09 GMT 49.991238 -1.686847 32,325 9 426 -3200
2022-08-17 12:20:07 GMT 49.987610 -1.687775 32,500 8 425 -3264
2022-08-17 12:20:05 GMT 49.984116 -1.688628 32,650 8 425 -3328
2022-08-17 12:20:02 GMT 49.975525 -1.690521 32,875 7 423 -3328
2022-08-17 12:19:59 GMT 49.971825 -1.691226 32,950 7 423 -3264
2022-08-17 12:19:57 GMT 49.967960 -1.691969 33,050 6 422 -3264
2022-08-17 12:19:55 GMT 49.963863 -1.692711 33,200 5 422 -3136
2022-08-17 12:19:53 GMT 49.955952 -1.694047 33,350 5 422 -3072
2022-08-17 12:19:51 GMT 49.955952 -1.694047 33,375 5 421 -3008
2022-08-17 12:19:49 GMT 49.952637 -1.694497 33,425 5 421 -2944
2022-08-17 12:19:47 GMT 49.947556 -1.695219 33,675 4 421 -2944
2022-08-17 12:19:44 GMT 49.942612 -1.695798 33,775 3 421 -3008
2022-08-17 12:19:41 GMT 49.936352 -1.696497 33,875 3 420 -3008
2022-08-17 12:19:39 GMT 49.932442 -1.696794 33,975 3 420 -2816
2022-08-17 12:19:35 GMT 49.924530 -1.697460 34,175 2 420 -2496
2022-08-17 12:19:33 GMT 49.920666 -1.697833 34,250 2 420 -2304
2022-08-17 12:19:31 GMT 49.916748 -1.698110 34,825 3 428 -1728
2022-08-17 12:19:28 GMT 49.912720 -1.698472 34,375 3 421 -1856
2022-08-17 12:19:26 GMT 49.904419 -1.699169 34,550 3 434 -896
2022-08-17 12:19:21 GMT 49.897385 -1.699773 34,600 3 424 -1408
2022-08-17 12:19:18 GMT 49.891567 -1.700283 34,675 3 426 -1344
2022-08-17 12:19:16 GMT 49.887497 -1.700640 34,725 3 427 -1408
2022-08-17 12:19:13 GMT 49.878250 -1.701435 34,975 3 431 -1408
2022-08-17 12:19:11 GMT 49.878250 -1.701435 34,850 3 428 -2048
2022-08-17 12:19:09 GMT 49.870762 -1.702139 34,925 3 429 -2240
2022-08-17 12:19:07 GMT 49.870762 -1.702139 35,125 3 429 -2240
2022-08-17 12:19:04 GMT 49.865360 -1.702584 35,050 3 430 -1984
2022-08-17 12:19:01 GMT 49.852184 -1.703697 35,200 3 436 -960
2022-08-17 12:18:56 GMT 49.843048 -1.704543 35,275 3 436 -960
2022-08-17 12:18:53 GMT 49.843048 -1.704543 35,275 3 436 -960
2022-08-17 12:18:51 GMT 49.837521 -1.705034 35,325 3 439 -768
2022-08-17 12:18:49 GMT 49.835194 -1.705256 35,350 3 440 -640
2022-08-17 12:18:47 GMT 49.830826 -1.705627 35,450 3 440 -640
2022-08-17 12:18:45 GMT 49.826908 -1.705999 35,375 3 442 -640
2022-08-17 12:18:43 GMT 49.822624 -1.706370 35,400 3 443 -832
2022-08-17 12:18:41 GMT 49.816944 -1.706889 35,450 3 447 -1408
2022-08-17 12:18:38 GMT 49.812927 -1.707290 35,700 3 450 -1792
2022-08-17 12:18:36 GMT 49.807125 -1.707780 35,550 3 452 -2048
2022-08-17 12:18:34 GMT 49.802608 -1.708151 35,800 3 450 -1792
2022-08-17 12:18:31 GMT 49.796555 -1.708671 35,700 3 450 -1856
2022-08-17 12:18:29 GMT 49.793159 -1.708968 35,825 3 451 -1920
2022-08-17 12:18:26 GMT 49.786129 -1.709562 35,925 3 452 -2176
2022-08-17 12:18:23 GMT 49.780869 -1.710007 36,225 3 453 -1856
2022-08-17 12:18:20 GMT 49.775654 -1.710453 36,025 3 452 -2112
2022-08-17 12:18:18 GMT 49.768951 -1.711046 36,100 3 452 -2048
2022-08-17 12:18:15 GMT 49.763947 -1.711482 36,425 3 453 -1856
2022-08-17 12:18:12 GMT 49.751354 -1.712531 36,375 3 453 -1856
2022-08-17 12:18:09 GMT 49.748199 -1.712783 36,450 3 453 -1984
2022-08-17 12:18:05 GMT 49.742569 -1.713289 36,675 3 453 -1472
2022-08-17 12:18:02 GMT 49.737202 -1.713719 36,625 3 453 -1728
2022-08-17 12:18:00 GMT 49.733917 -1.714012 36,775 3 453 -1472
2022-08-17 12:17:58 GMT 49.728962 -1.714387 36,775 3 454 -1280
2022-08-17 12:17:56 GMT 49.719978 -1.715129 36,825 3 454 -960
2022-08-17 12:17:54 GMT 49.719978 -1.715129 36,825 3 454 -960
2022-08-17 12:17:52 GMT 49.711552 -1.715871 36,875 3 454 -832
2022-08-17 12:17:48 GMT 49.708374 -1.716108 36,900 3 454 -1088
2022-08-17 12:17:46 GMT 49.703979 -1.716469 36,950 3 454 -1088
2022-08-17 12:17:43 GMT 49.697029 -1.717059 37,250 3 453 -1088
2022-08-17 12:17:40 GMT 49.685108 -1.718098 37,125 3 452 -1216
2022-08-17 12:17:37 GMT 49.685108 -1.718098 37,225 3 451 -1152
2022-08-17 12:17:35 GMT 49.681992 -1.718395 37,250 3 449 -1088
2022-08-17 12:17:32 GMT 49.674225 -1.719071 37,250 3 449 -1088
2022-08-17 12:17:30 GMT 49.670288 -1.719360 37,225 3 449 -1088
2022-08-17 12:17:28 GMT 49.666306 -1.719722 37,275 3 448 -960
2022-08-17 12:17:26 GMT 49.654907 -1.720734 37,325 3 448 -960
2022-08-17 12:17:23 GMT 49.654907 -1.720734 37,350 3 447 -960
2022-08-17 12:17:20 GMT 49.650757 -1.721068 37,400 3 443 -896
2022-08-17 12:17:17 GMT 49.642044 -1.721818 37,450 3 443 -896
2022-08-17 12:17:15 GMT 49.638977 -1.722035 37,825 2 441 -896
2022-08-17 12:17:12 GMT 49.632751 -1.722541 37,575 2 439 -896
2022-08-17 12:17:09 GMT 49.628178 -1.722923 37,575 3 438 -896
2022-08-17 12:17:07 GMT 49.622639 -1.723369 37,625 3 436 -960
2022-08-17 12:17:04 GMT 49.615723 -1.723914 37,700 3 436 -960
2022-08-17 12:17:01 GMT 49.610733 -1.724348 37,700 3 436 -960
2022-08-17 12:16:58 GMT 49.604553 -1.724998 37,750 4 434 -960
2022-08-17 12:16:56 GMT 49.598476 -1.725670 37,800 5 433 -960
2022-08-17 12:16:53 GMT 49.594116 -1.726227 37,850 5 433 -896
2022-08-17 12:16:50 GMT 49.582508 -1.728045 37,875 6 431 -448
2022-08-17 12:16:48 GMT 49.582508 -1.728045 37,900 6 432 -832
2022-08-17 12:16:45 GMT 49.578552 -1.728714 37,925 6 431 -640
2022-08-17 12:16:43 GMT 49.572548 -1.729753 37,950 6 431 -384
2022-08-17 12:16:40 GMT 49.568710 -1.730419 37,975 6 431 0
2022-08-17 12:16:37 GMT 49.560883 -1.731792 37,975 6 431 0
2022-08-17 12:16:33 GMT 49.554886 -1.732876 37,975 6 431 0
2022-08-17 12:16:30 GMT 49.548016 -1.734058 38,000 6 431 0
2022-08-17 12:16:27 GMT 49.542847 -1.734949 37,975 6 431 0
2022-08-17 12:16:24 GMT 49.537212 -1.735914 38,000 6 431 -64
2022-08-17 12:16:22 GMT 49.531395 -1.736879 38,000 6 431 -64
2022-08-17 12:16:19 GMT 49.527252 -1.737547 38,000 6 431 -64
2022-08-17 12:16:16 GMT 49.521107 -1.738586 38,000 6 431 -128
2022-08-17 12:16:13 GMT 49.515568 -1.739551 38,000 6 431 -64
2022-08-17 12:16:09 GMT 49.507370 -1.740972 38,000 6 431 -64
2022-08-17 12:16:05 GMT 49.499039 -1.742345 38,000 6 431 -64
2022-08-17 12:16:03 GMT 49.495178 -1.743040 38,025 6 431 -64
2022-08-17 12:16:00 GMT 49.489014 -1.744080 38,050 6 435 0
2022-08-17 12:15:55 GMT 49.481026 -1.745416 38,000 6 431 -64
2022-08-17 12:15:52 GMT 49.475021 -1.746455 38,025 6 431 -64
2022-08-17 12:15:49 GMT 49.467571 -1.747717 38,025 6 431 -64
2022-08-17 12:15:47 GMT 49.464546 -1.748237 38,025 6 431 0
2022-08-17 12:15:45 GMT 49.459534 -1.749067 38,025 6 431 0
2022-08-17 12:15:43 GMT 49.456863 -1.749573 38,025 6 431 0
2022-08-17 12:15:41 GMT 49.451981 -1.750368 38,025 6 431 0
2022-08-17 12:15:38 GMT 49.445553 -1.751503 38,025 6 431 0
2022-08-17 12:15:35 GMT 49.439175 -1.752542 38,025 6 432 -64
2022-08-17 12:15:32 GMT 49.433945 -1.753476 38,025 6 432 -64
2022-08-17 12:15:29 GMT 49.429276 -1.754271 38,025 6 432 -64
2022-08-17 12:15:26 GMT 49.420212 -1.755841 38,025 6 432 -128
2022-08-17 12:15:23 GMT 49.416969 -1.756367 38,050 6 433 0
2022-08-17 12:15:20 GMT 49.408127 -1.757885 38,050 6 433 0
2022-08-17 12:15:17 GMT 49.403961 -1.758587 38,050 6 432 -64
2022-08-17 12:15:15 GMT 49.401001 -1.759114 38,050 6 432 -64
2022-08-17 12:15:12 GMT 49.394718 -1.760198 38,050 6 433 0
2022-08-17 12:15:09 GMT 49.387253 -1.761475 38,050 6 433 0
2022-08-17 12:15:05 GMT 49.380753 -1.762531 38,025 6 433 0
2022-08-17 12:15:02 GMT 49.375446 -1.763450 38,050 6 433 -64
2022-08-17 12:14:59 GMT 49.367485 -1.764824 38,050 6 433 -64
2022-08-17 12:14:55 GMT 49.361385 -1.765835 38,050 6 433 0
2022-08-17 12:14:53 GMT 49.357197 -1.766558 38,050 6 433 0
2022-08-17 12:14:50 GMT 49.345001 -1.768658 38,050 6 434 0
2022-08-17 12:14:47 GMT 49.345001 -1.768658 38,050 6 434 64
2022-08-17 12:14:45 GMT 49.341183 -1.769305 38,050 6 434 0
2022-08-17 12:14:42 GMT 49.333965 -1.770534 38,050 6 435 0
2022-08-17 12:14:39 GMT 49.329636 -1.771256 38,050 6 435 0
2022-08-17 12:14:37 GMT 49.321117 -1.772702 38,050 6 435 0
2022-08-17 12:14:35 GMT 49.315811 -1.773569 38,050 6 435 0
2022-08-17 12:14:32 GMT 49.315811 -1.773569 38,050 6 435 0
2022-08-17 12:14:29 GMT 49.308876 -1.774726 38,050 6 435 0
2022-08-17 12:14:27 GMT 49.303986 -1.775560 38,050 6 435 0
2022-08-17 12:14:23 GMT 49.296352 -1.776822 38,050 6 435 0
2022-08-17 12:14:18 GMT 49.287601 -1.778340 38,050 6 435 0
2022-08-17 12:14:15 GMT 49.280434 -1.779496 38,050 6 435 0
2022-08-17 12:14:13 GMT 49.276520 -1.780219 38,050 6 435 0
2022-08-17 12:14:09 GMT 49.264252 -1.782250 38,050 6 435 0
2022-08-17 12:14:06 GMT 49.264252 -1.782250 38,050 6 435 0
2022-08-17 12:14:03 GMT 49.255573 -1.783760 38,050 6 435 64
2022-08-17 12:14:00 GMT 49.251057 -1.784483 38,025 6 436 64
2022-08-17 12:13:57 GMT 49.244541 -1.785567 38,050 6 436 64
2022-08-17 12:13:54 GMT 49.238846 -1.786546 38,025 6 436 64
2022-08-17 12:13:51 GMT 49.227081 -1.788531 38,025 6 436 64
2022-08-17 12:13:48 GMT 49.227081 -1.788531 38,025 6 436 64
2022-08-17 12:13:46 GMT 49.223267 -1.789181 38,025 6 436 64
2022-08-17 12:13:43 GMT 49.217167 -1.790193 38,025 6 436 128
2022-08-17 12:13:40 GMT 49.204643 -1.792289 38,025 6 436 64
2022-08-17 12:13:37 GMT 49.204643 -1.792289 38,025 6 435 0
2022-08-17 12:13:34 GMT 49.200623 -1.792955 38,000 6 435 0
2022-08-17 12:13:31 GMT 49.190826 -1.794645 38,000 6 436 64
2022-08-17 12:13:28 GMT 49.183365 -1.795913 38,000 6 436 64
2022-08-17 12:13:26 GMT 49.183365 -1.795913 38,000 6 436 64
2022-08-17 12:13:22 GMT 49.175133 -1.797277 38,000 6 435 0
2022-08-17 12:13:20 GMT 49.169540 -1.798237 38,000 6 435 0
2022-08-17 12:13:17 GMT 49.165054 -1.799011 38,000 6 435 64
2022-08-17 12:13:14 GMT 49.158279 -1.800138 38,000 6 435 64
2022-08-17 12:13:11 GMT 49.151714 -1.801252 37,975 6 435 128
2022-08-17 12:13:08 GMT 49.147480 -1.801975 38,000 6 435 128
2022-08-17 12:13:06 GMT 49.143356 -1.802603 37,975 6 435 64
2022-08-17 12:13:04 GMT 49.133926 -1.804223 37,975 6 435 64
2022-08-17 12:13:01 GMT 49.133926 -1.804223 37,975 6 435 64
2022-08-17 12:12:58 GMT 49.119640 -1.806600 37,975 6 435 64
2022-08-17 12:12:55 GMT 49.119640 -1.806600 37,975 6 434 0
2022-08-17 12:12:52 GMT 49.108280 -1.808552 37,975 6 434 0
2022-08-17 12:12:49 GMT 49.108280 -1.808552 37,950 6 434 64
2022-08-17 12:12:46 GMT 49.102386 -1.809505 37,975 6 434 64
2022-08-17 12:12:44 GMT 49.097015 -1.810431 37,975 6 434 0
2022-08-17 12:12:41 GMT 49.091858 -1.811336 37,975 6 433 64
2022-08-17 12:12:37 GMT 49.084026 -1.812672 37,975 6 433 0
2022-08-17 12:12:33 GMT 49.077885 -1.813684 37,950 6 433 0
2022-08-17 12:12:30 GMT 49.069736 -1.815057 37,975 6 433 -64
2022-08-17 12:12:27 GMT 49.064896 -1.815913 37,975 6 433 -64
2022-08-17 12:12:24 GMT 49.058899 -1.816899 37,975 6 433 -64
2022-08-17 12:12:21 GMT 49.054276 -1.817674 37,975 6 432 0
2022-08-17 12:12:18 GMT 49.047272 -1.818871 37,975 6 432 0
2022-08-17 12:12:15 GMT 49.041092 -1.819928 37,975 6 432 0
2022-08-17 12:12:13 GMT 49.038174 -1.820406 37,975 6 432 0
2022-08-17 12:12:10 GMT 49.031052 -1.821562 37,975 6 432 -64
2022-08-17 12:12:08 GMT 49.026993 -1.822252 37,975 6 432 0
2022-08-17 12:12:05 GMT 49.021912 -1.823097 37,975 6 432 -128
2022-08-17 12:12:03 GMT 49.017746 -1.823730 37,975 6 432 -64
2022-08-17 12:11:59 GMT 49.009460 -1.825139 37,975 6 431 -64
2022-08-17 12:11:56 GMT 49.002331 -1.826332 37,975 6 431 -64
2022-08-17 12:11:53 GMT 48.996231 -1.827393 37,975 6 431 0
2022-08-17 12:11:50 GMT 48.991516 -1.828167 37,975 6 431 0
2022-08-17 12:11:47 GMT 48.979065 -1.830210 37,975 6 430 -64
2022-08-17 12:11:43 GMT 48.979065 -1.830210 37,975 6 430 0
2022-08-17 12:11:40 GMT 48.970871 -1.831618 37,975 6 430 -64
2022-08-17 12:11:38 GMT 48.962711 -1.832982 37,975 6 430 -64
2022-08-17 12:11:35 GMT 48.962711 -1.832982 37,975 6 430 -64
2022-08-17 12:11:33 GMT 48.952797 -1.834645 38,000 6 430 0
2022-08-17 12:11:30 GMT 48.952797 -1.834645 38,000 6 430 -64
2022-08-17 12:11:28 GMT 48.947956 -1.835440 38,000 6 429 64
2022-08-17 12:11:26 GMT 48.945023 -1.835946 38,000 6 430 64
2022-08-17 12:11:23 GMT 48.936127 -1.837463 37,975 6 429 64
2022-08-17 12:11:20 GMT 48.932034 -1.838114 37,975 6 429 128
2022-08-17 12:11:18 GMT 48.920815 -1.839993 37,975 6 429 128
2022-08-17 12:11:15 GMT 48.920815 -1.839993 37,975 6 429 64
2022-08-17 12:11:12 GMT 48.916809 -1.840703 37,975 6 430 0
2022-08-17 12:11:09 GMT 48.906509 -1.842393 37,975 6 429 0
2022-08-17 12:11:07 GMT 48.906509 -1.842393 37,975 6 429 0
2022-08-17 12:11:03 GMT 48.900051 -1.843462 37,975 6 430 -64
2022-08-17 12:11:00 GMT 48.887466 -1.845562 37,975 6 429 0
2022-08-17 12:10:57 GMT 48.883575 -1.846267 37,975 6 429 0
2022-08-17 12:10:55 GMT 48.883575 -1.846267 37,975 6 429 0
2022-08-17 12:10:52 GMT 48.876778 -1.847366 37,975 6 429 0
2022-08-17 12:10:49 GMT 48.866318 -1.849154 37,975 6 429 0
2022-08-17 12:10:47 GMT 48.866318 -1.849154 37,975 6 429 0
2022-08-17 12:10:45 GMT 48.862019 -1.849823 37,000 6 429 0
2022-08-17 12:10:42 GMT 48.857086 -1.850690 37,975 6 429 0
2022-08-17 12:10:39 GMT 48.852448 -1.851478 37,975 6 429 0
2022-08-17 12:10:36 GMT 48.845959 -1.852497 37,975 6 429 0
2022-08-17 12:10:34 GMT 48.835739 -1.854225 37,975 6 430 -64
2022-08-17 12:10:31 GMT 48.835739 -1.854225 37,975 6 430 -64
2022-08-17 12:10:29 GMT 48.831619 -1.854929 37,975 6 430 -64
2022-08-17 12:10:25 GMT 48.823608 -1.856267 37,975 6 430 -64
2022-08-17 12:10:22 GMT 48.816971 -1.857323 37,975 6 429 64
2022-08-17 12:10:19 GMT 48.805740 -1.859219 37,975 6 429 64
2022-08-17 12:10:16 GMT 48.805740 -1.859219 37,975 6 429 64
2022-08-17 12:10:11 GMT 48.796326 -1.860774 37,975 6 430 64
2022-08-17 12:10:08 GMT 48.791122 -1.861677 37,975 6 430 64
2022-08-17 12:10:06 GMT 48.786163 -1.862464 37,975 6 430 64
2022-08-17 12:10:04 GMT 48.775387 -1.864279 37,975 6 430 64
2022-08-17 12:10:01 GMT 48.775387 -1.864279 37,975 6 430 0
2022-08-17 12:09:58 GMT 48.765701 -1.865915 37,975 6 430 0
2022-08-17 12:09:56 GMT 48.765701 -1.865915 37,975 6 430 0
2022-08-17 12:09:53 GMT 48.758926 -1.867042 37,975 6 430 0
2022-08-17 12:09:49 GMT 48.754906 -1.867676 37,975 6 430 64
2022-08-17 12:09:46 GMT 48.747437 -1.868943 37,975 6 430 0
2022-08-17 12:09:43 GMT 48.735493 -1.870928 37,950 6 430 0
2022-08-17 12:09:40 GMT 48.735493 -1.870928 37,950 6 430 0
2022-08-17 12:09:37 GMT 48.721115 -1.873310 37,950 6 430 0
2022-08-17 12:09:33 GMT 48.714935 -1.874296 37,950 6 431 0
2022-08-17 12:09:30 GMT 48.714935 -1.874296 37,950 6 431 0
2022-08-17 12:09:27 GMT 48.706116 -1.875699 37,950 6 431 0
2022-08-17 12:09:25 GMT 48.696533 -1.877254 37,950 6 431 0
2022-08-17 12:09:21 GMT 48.696533 -1.877254 37,950 6 431 0
2022-08-17 12:09:18 GMT 48.687286 -1.878803 37,950 6 431 0
2022-08-17 12:09:15 GMT 48.687286 -1.878803 37,950 6 431 0
2022-08-17 12:09:13 GMT 48.680607 -1.879891 37,950 6 431 0
2022-08-17 12:09:10 GMT 48.676392 -1.880564 37,950 6 431 0
2022-08-17 12:09:06 GMT 48.668243 -1.881972 37,950 6 431 64
2022-08-17 12:09:03 GMT 48.663242 -1.882782 37,950 6 431 0
2022-08-17 12:09:01 GMT 48.658035 -1.883662 37,950 6 431 -64
2022-08-17 12:08:58 GMT 48.653366 -1.884437 37,950 6 431 -64
2022-08-17 12:08:56 GMT 48.641644 -1.886396 37,950 6 431 0
2022-08-17 12:08:53 GMT 48.635311 -1.887408 37,950 6 431 0
2022-08-17 12:08:50 GMT 48.635311 -1.887408 37,950 6 431 0
2022-08-17 12:08:46 GMT 48.628052 -1.888592 37,950 6 431 0
2022-08-17 12:08:43 GMT 48.622368 -1.889576 37,950 6 431 0
2022-08-17 12:08:40 GMT 48.615601 -1.890634 37,950 6 431 -64
2022-08-17 12:08:36 GMT 48.602119 -1.892901 37,975 6 432 -64
2022-08-17 12:08:33 GMT 48.596252 -1.893841 37,975 6 432 -64
2022-08-17 12:08:30 GMT 48.596252 -1.893841 37,975 6 432 -64
2022-08-17 12:08:27 GMT 48.589642 -1.894925 37,975 6 432 -64
2022-08-17 12:08:24 GMT 48.584614 -1.895720 37,975 6 432 -64
2022-08-17 12:08:22 GMT 48.580425 -1.896370 38,000 6 433 -64
2022-08-17 12:08:19 GMT 48.574234 -1.897382 38,000 6 433 -64
2022-08-17 12:08:16 GMT 48.569580 -1.898177 38,000 6 433 -64
2022-08-17 12:08:14 GMT 48.564651 -1.898945 38,000 6 433 -64
2022-08-17 12:08:11 GMT 48.559891 -1.899719 38,000 6 434 -128
2022-08-17 12:08:08 GMT 48.547421 -1.901791 38,000 6 434 -128
2022-08-17 12:08:05 GMT 48.540207 -1.902959 38,025 6 434 -128
2022-08-17 12:08:02 GMT 48.540207 -1.902959 38,025 6 434 -128
2022-08-17 12:07:59 GMT 48.535172 -1.903733 38,025 6 434 -128
2022-08-17 12:07:56 GMT 48.529034 -1.904755 38,025 6 434 -64
2022-08-17 12:07:54 GMT 48.525959 -1.905261 38,025 6 434 0
2022-08-17 12:07:51 GMT 48.520111 -1.906198 38,025 6 435 -64
2022-08-17 12:07:48 GMT 48.510635 -1.907748 38,025 6 435 0
2022-08-17 12:07:45 GMT 48.505383 -1.908658 38,025 6 436 0
2022-08-17 12:07:41 GMT 48.494019 -1.910494 38,025 6 436 0
2022-08-17 12:07:38 GMT 48.494019 -1.910494 38,025 6 436 0
2022-08-17 12:07:36 GMT 48.488716 -1.911332 38,025 6 436 0
2022-08-17 12:07:31 GMT 48.473774 -1.913789 38,025 6 437 0
2022-08-17 12:07:28 GMT 48.473774 -1.913789 38,025 6 437 0
2022-08-17 12:07:26 GMT 48.468513 -1.914657 38,025 6 438 0
2022-08-17 12:07:22 GMT 48.458736 -1.916247 38,025 6 438 0
2022-08-17 12:07:19 GMT 48.454788 -1.916903 38,025 6 438 0
2022-08-17 12:07:16 GMT 48.447987 -1.917982 38,025 6 439 0
2022-08-17 12:07:12 GMT 48.439682 -1.919368 38,025 6 439 0
2022-08-17 12:07:09 GMT 48.432953 -1.920424 38,025 6 440 64
2022-08-17 12:07:04 GMT 48.424393 -1.921833 38,025 6 440 64
2022-08-17 12:07:01 GMT 48.419266 -1.922678 38,025 6 440 64
2022-08-17 12:06:58 GMT 48.412445 -1.923734 38,025 6 440 128
2022-08-17 12:06:55 GMT 48.404037 -1.925137 38,000 6 441 64
2022-08-17 12:06:52 GMT 48.396790 -1.926340 38,000 6 441 64
2022-08-17 12:06:50 GMT 48.396790 -1.926340 38,000 6 441 64
2022-08-17 12:06:47 GMT 48.384209 -1.928390 38,000 6 442 64
2022-08-17 12:06:44 GMT 48.384209 -1.928390 38,000 6 443 -256
2022-08-17 12:06:41 GMT 48.377838 -1.929439 38,000 6 443 -256
2022-08-17 12:06:38 GMT 48.365261 -1.931425 38,000 6 443 -192
2022-08-17 12:06:35 GMT 48.365261 -1.931425 38,025 6 443 -256
2022-08-17 12:06:31 GMT 48.358017 -1.932678 38,050 6 443 -320
2022-08-17 12:06:28 GMT 48.349274 -1.934087 38,050 6 442 0
2022-08-17 12:06:25 GMT 48.345154 -1.934791 38,050 6 442 0
2022-08-17 12:06:23 GMT 48.340073 -1.935566 38,050 6 443 0
2022-08-17 12:06:21 GMT 48.331139 -1.937063 38,050 6 443 0
2022-08-17 12:06:18 GMT 48.331139 -1.937063 38,050 6 444 0
2022-08-17 12:06:15 GMT 48.323971 -1.938220 38,050 6 443 0
2022-08-17 12:06:12 GMT 48.320244 -1.938870 38,050 6 444 0
2022-08-17 12:06:10 GMT 48.316055 -1.939521 38,050 6 444 0
2022-08-17 12:06:07 GMT 48.309769 -1.940566 38,050 6 444 0
2022-08-17 12:06:04 GMT 48.303810 -1.941544 38,050 6 444 0
2022-08-17 12:06:01 GMT 48.286774 -1.944291 38,050 6 445 0
2022-08-17 12:05:57 GMT 48.286774 -1.944291 38,050 6 445 0
2022-08-17 12:05:54 GMT 48.282715 -1.945003 38,050 6 445 0
2022-08-17 12:05:52 GMT 48.278412 -1.945707 38,050 6 445 0
2022-08-17 12:05:49 GMT 48.272095 -1.946693 38,050 6 445 0
2022-08-17 12:05:45 GMT 48.262520 -1.948266 38,050 6 445 0
2022-08-17 12:05:42 GMT 48.257446 -1.949061 38,050 6 445 -64
2022-08-17 12:05:38 GMT 48.248566 -1.950496 38,050 6 446 0
2022-08-17 12:05:34 GMT 48.235939 -1.952603 38,050 6 446 128
2022-08-17 12:05:32 GMT 48.235939 -1.952603 38,050 6 446 64
2022-08-17 12:05:27 GMT 48.227234 -1.953976 38,050 6 446 64
2022-08-17 12:05:24 GMT 48.221008 -1.955003 38,050 6 446 192
2022-08-17 12:05:21 GMT 48.215736 -1.955856 38,025 6 446 192
2022-08-17 12:05:17 GMT 48.206406 -1.957327 38,000 6 446 128
2022-08-17 12:05:14 GMT 48.200001 -1.958385 38,025 6 446 128
2022-08-17 12:05:09 GMT 48.190876 -1.959831 38,000 6 446 64
2022-08-17 12:05:06 GMT 48.184731 -1.960843 38,000 6 446 64
2022-08-17 12:05:03 GMT 48.176926 -1.962116 38,000 6 446 0
2022-08-17 12:05:01 GMT 48.173676 -1.962609 38,000 6 446 0
2022-08-17 12:04:58 GMT 48.167599 -1.963589 38,000 6 446 0
2022-08-17 12:04:55 GMT 48.161316 -1.964651 38,000 6 445 0
2022-08-17 12:04:52 GMT 48.156097 -1.965454 38,000 6 446 0
2022-08-17 12:04:50 GMT 48.150284 -1.966412 38,000 6 445 0
2022-08-17 12:04:46 GMT 48.143738 -1.967514 38,000 6 445 0
2022-08-17 12:04:43 GMT 48.129379 -1.969792 38,000 6 445 64
2022-08-17 12:04:39 GMT 48.129379 -1.969792 38,000 6 444 64
2022-08-17 12:04:36 GMT 48.116638 -1.971909 37,975 6 443 64
2022-08-17 12:04:33 GMT 48.116638 -1.971909 37,975 6 444 64
2022-08-17 12:04:29 GMT 48.109314 -1.973076 37,975 6 443 0
2022-08-17 12:04:26 GMT 48.100662 -1.974518 37,975 6 443 0
2022-08-17 12:04:23 GMT 48.095810 -1.975273 37,975 6 443 0
2022-08-17 12:04:20 GMT 48.091599 -1.975960 37,975 6 443 -64
2022-08-17 12:04:18 GMT 48.086971 -1.976694 37,975 6 443 -64
2022-08-17 12:04:16 GMT 48.075394 -1.978569 37,975 6 443 0
2022-08-17 12:04:13 GMT 48.068481 -1.979736 37,975 6 441 0
2022-08-17 12:04:10 GMT 48.068481 -1.979736 37,975 6 442 -64
2022-08-17 12:04:06 GMT 48.060974 -1.980904 37,975 6 442 0
2022-08-17 12:04:03 GMT 48.054993 -1.981905 37,975 6 442 0
2022-08-17 12:03:58 GMT 48.046890 -1.983244 37,975 6 441 64
2022-08-17 12:03:56 GMT 48.040558 -1.984229 37,975 6 441 64
2022-08-17 12:03:53 GMT 48.034275 -1.985286 37,975 6 441 64
2022-08-17 12:03:49 GMT 48.026592 -1.986483 37,975 6 440 0
2022-08-17 12:03:46 GMT 48.020874 -1.987427 37,975 6 440 64
2022-08-17 12:03:43 GMT 48.005539 -1.989899 37,975 6 440 0
2022-08-17 12:03:38 GMT 48.005539 -1.989899 37,975 6 440 64
2022-08-17 12:03:36 GMT 47.993683 -1.991765 37,950 6 440 0
2022-08-17 12:03:33 GMT 47.993683 -1.991765 37,975 6 440 0
2022-08-17 12:03:29 GMT 47.986885 -1.992892 37,975 6 440 0
2022-08-17 12:03:25 GMT 47.979202 -1.994089 37,975 6 439 0
2022-08-17 12:03:21 GMT 47.970684 -1.995497 37,950 6 439 0
2022-08-17 12:03:18 GMT 47.964249 -1.996559 37,950 6 439 0
2022-08-17 12:03:15 GMT 47.956066 -1.997892 37,950 6 439 0
2022-08-17 12:03:12 GMT 47.952904 -1.998385 37,950 6 439 0
2022-08-17 12:03:10 GMT 47.949051 -1.998962 37,950 6 439 0
2022-08-17 12:03:05 GMT 47.938110 -2.000748 37,975 6 438 -64
2022-08-17 12:03:02 GMT 47.932800 -2.001572 37,975 6 438 -64
2022-08-17 12:03:00 GMT 47.928955 -2.002190 37,975 6 438 -64
2022-08-17 12:02:56 GMT 47.920303 -2.003563 37,975 6 438 0
2022-08-17 12:02:52 GMT 47.912308 -2.004864 37,975 6 437 0
2022-08-17 12:02:47 GMT 47.902451 -2.006447 37,975 6 437 0
2022-08-17 12:02:44 GMT 47.893456 -2.007892 37,975 6 437 0
2022-08-17 12:02:41 GMT 47.890659 -2.008385 37,975 6 437 0
2022-08-17 12:02:36 GMT 47.880066 -2.010086 37,975 6 437 -64
2022-08-17 12:02:34 GMT 47.875946 -2.010704 37,975 6 437 0
2022-08-17 12:02:31 GMT 47.870728 -2.011528 37,975 6 437 -64
2022-08-17 12:02:27 GMT 47.861286 -2.013033 37,975 6 437 0
2022-08-17 12:02:25 GMT 47.857178 -2.013725 37,975 6 437 0
2022-08-17 12:02:22 GMT 47.849304 -2.014961 37,975 6 437 64
2022-08-17 12:02:17 GMT 47.842014 -2.016132 37,975 6 437 0
2022-08-17 12:02:14 GMT 47.834892 -2.017259 37,975 6 437 0
2022-08-17 12:02:11 GMT 47.829353 -2.018174 37,975 6 437 0
2022-08-17 12:02:06 GMT 47.820042 -2.019653 37,975 6 437 -64
2022-08-17 12:02:03 GMT 47.814407 -2.020498 37,975 6 437 -64
2022-08-17 12:01:59 GMT 47.806030 -2.021837 38,000 6 437 -64
2022-08-17 12:01:55 GMT 47.795090 -2.023527 38,000 6 437 0
2022-08-17 12:01:50 GMT 47.788559 -2.024574 38,000 6 437 -64
2022-08-17 12:01:47 GMT 47.782242 -2.025569 38,000 6 437 -64
2022-08-17 12:01:44 GMT 47.775585 -2.026625 38,000 6 437 -64
2022-08-17 12:01:41 GMT 47.768738 -2.027664 38,000 6 437 -64
2022-08-17 12:01:36 GMT 47.758301 -2.029312 38,000 6 437 -64
2022-08-17 12:01:34 GMT 47.755196 -2.029865 38,000 6 437 -64
2022-08-17 12:01:31 GMT 47.748211 -2.030921 38,000 6 437 -64
2022-08-17 12:01:28 GMT 47.743011 -2.031784 38,000 6 437 64
2022-08-17 12:01:24 GMT 47.734818 -2.033089 38,000 6 437 64
2022-08-17 12:01:20 GMT 47.726669 -2.034393 38,000 6 438 0
2022-08-17 12:01:14 GMT 47.716228 -2.035992 38,000 6 438 0
2022-08-17 12:01:12 GMT 47.710224 -2.036978 38,000 6 438 0
2022-08-17 12:01:09 GMT 47.706081 -2.037612 38,000 6 438 0
2022-08-17 12:01:06 GMT 47.699657 -2.038668 38,000 6 438 0
2022-08-17 12:01:04 GMT 47.691231 -2.040006 38,000 6 439 0
2022-08-17 12:01:02 GMT 47.691231 -2.040006 38,000 6 439 0
2022-08-17 12:00:59 GMT 47.684830 -2.041054 38,000 6 439 0
2022-08-17 12:00:56 GMT 47.678970 -2.042015 38,000 6 439 0
2022-08-17 12:00:53 GMT 47.665466 -2.044212 38,000 6 439 0
2022-08-17 12:00:50 GMT 47.665466 -2.044212 38,000 6 439 0
2022-08-17 12:00:47 GMT 47.660553 -2.045006 38,000 6 440 0
2022-08-17 12:00:44 GMT 47.653290 -2.046135 38,000 6 440 0
2022-08-17 12:00:38 GMT 47.642536 -2.047823 38,000 5 440 -64
2022-08-17 12:00:32 GMT 47.622116 -2.051010 38,000 5 440 -64
2022-08-17 12:00:29 GMT 47.622116 -2.051010 38,000 5 440 -64
2022-08-17 12:00:22 GMT 47.603294 -2.053950 38,000 5 440 0
2022-08-17 12:00:19 GMT 47.603294 -2.053950 38,000 5 440 0
2022-08-17 12:00:16 GMT 47.599384 -2.054584 38,025 5 440 -64
2022-08-17 12:00:12 GMT 47.589569 -2.056091 38,025 6 440 0
2022-08-17 12:00:09 GMT 47.582531 -2.057260 38,025 6 440 0
2022-08-17 12:00:06 GMT 47.571350 -2.058975 38,025 6 441 -64
2022-08-17 12:00:03 GMT 47.571350 -2.058975 38,025 6 441 -64
2022-08-17 12:00:00 GMT 47.564896 -2.060005 38,025 6 441 -64
2022-08-17 11:59:57 GMT 47.558899 -2.060966 38,025 6 441 0
2022-08-17 11:59:52 GMT 47.549286 -2.062477 38,025 5 441 -64
2022-08-17 11:59:48 GMT 47.541195 -2.063739 38,025 5 442 0
2022-08-17 11:59:41 GMT 47.527542 -2.065842 38,025 5 442 0
2022-08-17 11:59:37 GMT 47.519852 -2.067009 38,025 5 442 64
2022-08-17 11:59:33 GMT 47.509506 -2.068588 38,025 5 442 0
2022-08-17 11:59:29 GMT 47.503765 -2.069514 38,025 5 442 0
2022-08-17 11:59:27 GMT 47.488770 -2.071815 38,025 5 443 0
2022-08-17 11:59:23 GMT 47.488770 -2.071815 38,025 4 443 64
2022-08-17 11:59:18 GMT 47.479431 -2.073051 38,025 3 442 64
2022-08-17 11:59:11 GMT 47.466339 -2.074287 38,025 2 443 64
2022-08-17 11:59:08 GMT 47.460342 -2.074631 38,000 0 444 64
2022-08-17 11:59:05 GMT 47.452374 -2.074867 38,000 0 444 64
2022-08-17 11:59:02 GMT 47.447296 -2.074974 38,000 0 444 0
2022-08-17 11:58:58 GMT 47.439056 -2.074796 38,000 358 444 0
2022-08-17 11:58:54 GMT 47.431980 -2.074515 38,000 358 444 0
2022-08-17 11:58:51 GMT 47.423264 -2.073944 38,000 357 443 0
2022-08-17 11:58:47 GMT 47.416351 -2.073257 38,000 355 443 0
2022-08-17 11:58:44 GMT 47.411270 -2.072708 38,000 355 444 0
2022-08-17 11:58:40 GMT 47.403168 -2.071557 38,025 354 443 0
2022-08-17 11:58:36 GMT 47.393063 -2.070007 38,000 354 443 64
2022-08-17 11:58:30 GMT 47.383194 -2.068458 38,000 354 444 64
2022-08-17 11:58:27 GMT 47.374512 -2.067078 38,000 354 444 64
2022-08-17 11:58:25 GMT 47.362480 -2.065218 38,000 354 444 64
2022-08-17 11:58:20 GMT 47.354053 -2.063880 38,000 354 444 0
2022-08-17 11:58:16 GMT 47.354053 -2.063880 38,000 354 445 -64
2022-08-17 11:58:12 GMT 47.337250 -2.061204 38,000 354 445 0
2022-08-17 11:58:08 GMT 47.337250 -2.061204 38,000 354 444 0
2022-08-17 11:58:05 GMT 47.332306 -2.060417 38,025 354 445 0
2022-08-17 11:58:00 GMT 47.320038 -2.058426 38,000 354 445 0
2022-08-17 11:57:56 GMT 47.302288 -2.055570 38,025 354 445 0
2022-08-17 11:57:51 GMT 47.302288 -2.055570 38,000 354 445 0
2022-08-17 11:57:48 GMT 47.289532 -2.053528 38,000 354 445 -64
2022-08-17 11:57:45 GMT 47.289532 -2.053528 38,025 354 445 0
2022-08-17 11:57:40 GMT 47.279709 -2.052040 38,000 354 445 0
2022-08-17 11:57:35 GMT 47.257095 -2.048470 38,025 354 445 0
2022-08-17 11:57:29 GMT 47.257095 -2.048470 38,000 354 446 -64
2022-08-17 11:57:25 GMT 47.249218 -2.047190 38,000 354 445 0
2022-08-17 11:57:20 GMT 47.238976 -2.045640 38,000 354 446 -64
2022-08-17 11:57:16 GMT 47.230682 -2.044350 38,000 354 446 -64
2022-08-17 11:57:13 GMT 47.224319 -2.043388 38,000 354 446 -64
2022-08-17 11:57:10 GMT 47.218586 -2.042471 38,025 354 446 -64
2022-08-17 11:57:05 GMT 47.208115 -2.040848 38,025 354 446 -64
2022-08-17 11:57:02 GMT 47.201797 -2.039886 38,025 354 445 -64
2022-08-17 11:56:59 GMT 47.196941 -2.039161 38,025 354 445 -64
2022-08-17 11:56:55 GMT 47.186558 -2.037471 38,025 354 445 0
2022-08-17 11:56:51 GMT 47.179436 -2.036344 38,025 355 446 0
2022-08-17 11:56:48 GMT 47.164902 -2.034050 38,025 355 446 0
2022-08-17 11:56:44 GMT 47.164902 -2.034050 38,050 354 446 -64
2022-08-17 11:56:39 GMT 47.155506 -2.032612 38,025 355 446 0
2022-08-17 11:56:34 GMT 47.144623 -2.030960 38,025 355 446 64
2022-08-17 11:56:30 GMT 47.135880 -2.029587 38,025 355 446 64
2022-08-17 11:56:26 GMT 47.127960 -2.028419 38,000 355 447 0
2022-08-17 11:56:24 GMT 47.123852 -2.027823 38,025 355 446 64
2022-08-17 11:56:19 GMT 47.113358 -2.026222 38,025 355 446 64
2022-08-17 11:56:16 GMT 47.107422 -2.025358 38,025 355 447 64
2022-08-17 11:56:12 GMT 47.099213 -2.024094 38,025 355 447 64
2022-08-17 11:56:09 GMT 47.092896 -2.023175 38,025 355 447 64
2022-08-17 11:56:04 GMT 47.083027 -2.021696 38,025 355 447 64
2022-08-17 11:56:00 GMT 47.066895 -2.019356 38,000 355 447 64
2022-08-17 11:55:56 GMT 47.066895 -2.019356 38,000 355 447 64
2022-08-17 11:55:53 GMT 47.060715 -2.018394 38,000 355 447 0
2022-08-17 11:55:48 GMT 47.050323 -2.016884 38,000 355 447 0
2022-08-17 11:55:45 GMT 47.044666 -2.016062 38,000 355 447 64
2022-08-17 11:55:42 GMT 47.038467 -2.015167 38,000 355 447 0
2022-08-17 11:55:39 GMT 47.032196 -2.014275 38,000 355 447 0
2022-08-17 11:55:31 GMT 47.015385 -2.011836 38,025 355 447 0
2022-08-17 11:55:29 GMT 47.011230 -2.011253 38,000 355 447 0
2022-08-17 11:55:26 GMT 47.005142 -2.010361 38,000 355 446 0
2022-08-17 11:55:22 GMT 46.997772 -2.009262 38,000 355 446 0
2022-08-17 11:55:19 GMT 46.991505 -2.008385 38,000 355 446 0
2022-08-17 11:55:16 GMT 46.984726 -2.007339 38,025 355 446 0
2022-08-17 11:55:12 GMT 46.975117 -2.005920 38,025 355 446 0
2022-08-17 11:55:09 GMT 46.969856 -2.005146 38,025 355 446 0
2022-08-17 11:55:04 GMT 46.960220 -2.003737 38,025 355 446 0
2022-08-17 11:55:00 GMT 46.953232 -2.002739 38,025 355 446 0
2022-08-17 11:54:58 GMT 46.941044 -2.000991 38,000 355 446 0
2022-08-17 11:54:55 GMT 46.935223 -2.000146 38,000 355 446 0
2022-08-17 11:54:52 GMT 46.935223 -2.000146 38,000 355 446 64
2022-08-17 11:54:48 GMT 46.926891 -1.998948 38,000 355 445 64
2022-08-17 11:54:43 GMT 46.917984 -1.997658 38,000 355 446 64
2022-08-17 11:54:39 GMT 46.908371 -1.996216 38,000 355 445 64
2022-08-17 11:54:33 GMT 46.896149 -1.994431 38,000 355 445 0
2022-08-17 11:54:30 GMT 46.889877 -1.993469 38,000 355 445 0
2022-08-17 11:54:27 GMT 46.883606 -1.992577 38,000 355 445 0
2022-08-17 11:54:24 GMT 46.875217 -1.991342 38,000 355 445 0
2022-08-17 11:54:20 GMT 46.863022 -1.989487 38,000 355 445 0
2022-08-17 11:54:17 GMT 46.863022 -1.989487 38,000 355 445 0
2022-08-17 11:54:11 GMT 46.851753 -1.987839 38,000 355 445 0
2022-08-17 11:54:08 GMT 46.844513 -1.986717 38,000 355 444 0
2022-08-17 11:54:05 GMT 46.838791 -1.985846 38,000 355 444 0
2022-08-17 11:54:01 GMT 46.830597 -1.984640 37,975 354 444 0
2022-08-17 11:53:58 GMT 46.825653 -1.983903 37,975 354 444 0
2022-08-17 11:53:53 GMT 46.813862 -1.982002 37,975 354 444 0
2022-08-17 11:53:49 GMT 46.799881 -1.979817 37,975 354 444 0
2022-08-17 11:53:46 GMT 46.799881 -1.979817 37,975 354 444 0
2022-08-17 11:53:42 GMT 46.791702 -1.978500 37,975 354 444 0
2022-08-17 11:53:38 GMT 46.784626 -1.977402 37,975 354 444 0
2022-08-17 11:53:35 GMT 46.776352 -1.976065 37,975 354 444 0
2022-08-17 11:53:32 GMT 46.771267 -1.975204 37,975 354 444 0
2022-08-17 11:53:30 GMT 46.767124 -1.974586 37,975 354 444 0
2022-08-17 11:53:25 GMT 46.756325 -1.972870 38,000 355 444 0
2022-08-17 11:53:20 GMT 46.746780 -1.971565 37,975 356 444 0
2022-08-17 11:53:17 GMT 46.738358 -1.970572 37,975 356 444 0
2022-08-17 11:53:14 GMT 46.735245 -1.970237 37,975 357 443 -64
2022-08-17 11:53:12 GMT 46.730534 -1.969849 38,000 358 444 -64
2022-08-17 11:53:08 GMT 46.722385 -1.969299 38,000 358 444 -64
2022-08-17 11:53:03 GMT 46.711445 -1.968750 38,000 359 444 0
2022-08-17 11:53:00 GMT 46.706314 -1.968629 38,000 359 444 0
2022-08-17 11:52:58 GMT 46.702469 -1.968495 38,000 0 444 0
2022-08-17 11:52:55 GMT 46.696133 -1.968338 38,000 0 444 0
2022-08-17 11:52:51 GMT 46.688126 -1.968201 38,000 0 444 64
2022-08-17 11:52:47 GMT 46.680534 -1.967995 38,000 0 444 64
2022-08-17 11:52:44 GMT 46.674500 -1.967826 38,000 359 444 0
2022-08-17 11:52:41 GMT 46.667316 -1.967651 38,000 359 445 -64
2022-08-17 11:52:37 GMT 46.658794 -1.967445 38,000 359 445 -64
2022-08-17 11:52:33 GMT 46.650467 -1.967290 38,000 0 445 -64
2022-08-17 11:52:29 GMT 46.642319 -1.967089 38,000 0 445 -64
2022-08-17 11:52:25 GMT 46.634216 -1.966896 38,025 0 445 0
2022-08-17 11:52:21 GMT 46.625324 -1.966621 38,025 0 444 0
2022-08-17 11:52:19 GMT 46.622021 -1.966553 38,025 0 444 64
2022-08-17 11:52:15 GMT 46.612896 -1.966347 38,000 0 445 0
2022-08-17 11:52:11 GMT 46.604191 -1.966141 38,000 0 447 0
2022-08-17 11:52:07 GMT 46.597580 -1.966003 38,000 0 447 0
2022-08-17 11:52:04 GMT 46.592274 -1.965866 38,000 0 448 0
2022-08-17 11:52:00 GMT 46.582218 -1.965660 38,000 0 448 0
2022-08-17 11:51:57 GMT 46.576214 -1.965523 38,000 359 448 0
2022-08-17 11:51:53 GMT 46.569946 -1.965347 38,000 359 449 0
2022-08-17 11:51:50 GMT 46.555218 -1.964973 38,000 359 449 0
2022-08-17 11:51:46 GMT 46.555218 -1.964973 38,000 359 449 0
2022-08-17 11:51:43 GMT 46.548187 -1.964836 38,000 359 448 0
2022-08-17 11:51:39 GMT 46.541336 -1.964610 38,000 359 448 0
2022-08-17 11:51:37 GMT 46.534744 -1.964476 38,000 359 448 0
2022-08-17 11:51:33 GMT 46.526871 -1.964208 38,000 359 447 0
2022-08-17 11:51:29 GMT 46.517944 -1.964007 38,000 359 447 64
2022-08-17 11:51:26 GMT 46.511738 -1.963875 38,000 359 447 64
2022-08-17 11:51:20 GMT 46.499077 -1.963531 38,000 359 447 0
2022-08-17 11:51:16 GMT 46.492653 -1.963394 38,000 359 447 0
2022-08-17 11:51:12 GMT 46.480225 -1.963069 38,000 359 447 0
2022-08-17 11:51:06 GMT 46.471191 -1.962776 38,000 359 447 0
2022-08-17 11:51:01 GMT 46.461639 -1.962533 38,000 359 445 64
2022-08-17 11:50:57 GMT 46.453308 -1.962332 38,000 359 444 0
2022-08-17 11:50:53 GMT 46.444981 -1.962090 38,000 359 444 0
2022-08-17 11:50:50 GMT 46.438431 -1.961863 38,000 359 441 0
2022-08-17 11:50:45 GMT 46.426620 -1.961528 38,000 359 441 0
2022-08-17 11:50:40 GMT 46.417793 -1.961197 38,000 359 441 0
2022-08-17 11:50:36 GMT 46.409882 -1.960991 38,000 359 440 0
2022-08-17 11:50:32 GMT 46.402714 -1.960785 38,000 0 437 -64
2022-08-17 11:50:26 GMT 46.380661 -1.960591 38,000 0 437 -64
2022-08-17 11:50:22 GMT 46.380661 -1.960591 38,000 0 436 -64
2022-08-17 11:50:17 GMT 46.368683 -1.961266 38,025 3 435 -64
2022-08-17 11:50:13 GMT 46.361435 -1.962198 38,025 7 434 0
2022-08-17 11:50:06 GMT 46.348385 -1.964836 38,000 10 434 256
2022-08-17 11:50:02 GMT 46.342148 -1.966553 37,850 13 433 512
2022-08-17 11:49:55 GMT 46.328461 -1.971291 37,750 14 436 1408
2022-08-17 11:49:45 GMT 46.308445 -1.978638 37,675 14 438 1472
2022-08-17 11:49:40 GMT 46.298107 -1.982414 37,550 14 439 1600
2022-08-17 11:49:35 GMT 46.288799 -1.985847 37,200 15 444 2176
2022-08-17 11:49:31 GMT 46.280960 -1.988793 37,275 14 443 2048
2022-08-17 11:49:25 GMT 46.268692 -1.993550 36,825 15 448 2240
2022-08-17 11:49:20 GMT 46.260269 -1.996832 36,825 15 448 2240
2022-08-17 11:49:14 GMT 46.247971 -2.001709 36,600 15 454 1856
2022-08-17 11:49:11 GMT 46.238113 -2.005608 36,550 15 455 1792
2022-08-17 11:49:02 GMT 46.221954 -2.012039 36,350 15 460 1344
2022-08-17 11:48:52 GMT 46.200535 -2.020592 36,100 15 462 320
2022-08-17 11:48:43 GMT 46.183731 -2.027252 36,000 15 462 0
2022-08-17 11:48:40 GMT 46.177631 -2.029655 36,000 15 462 0
2022-08-17 11:48:32 GMT 46.161713 -2.035887 36,000 15 461 0
2022-08-17 11:48:28 GMT 46.153473 -2.039036 36,000 15 461 0
2022-08-17 11:48:20 GMT 46.120743 -2.051764 36,000 15 461 0
2022-08-17 11:48:12 GMT 46.120743 -2.051764 36,000 15 461 -64
2022-08-17 11:48:09 GMT 46.113419 -2.054577 36,000 15 461 -64
2022-08-17 11:48:03 GMT 46.098679 -2.060271 36,000 15 461 0
2022-08-17 11:48:00 GMT 46.095932 -2.061343 36,025 15 461 0
2022-08-17 11:47:52 GMT 46.077942 -2.068377 36,000 15 460 0
2022-08-17 11:47:48 GMT 46.069771 -2.071678 36,000 15 460 0
2022-08-17 11:47:42 GMT 46.057938 -2.076349 36,000 15 460 64
2022-08-17 11:47:39 GMT 46.052593 -2.078476 36,000 15 460 64
2022-08-17 11:47:31 GMT 46.036579 -2.084862 36,000 15 460 0
2022-08-17 11:47:26 GMT 46.023972 -2.089881 36,000 15 460 64
2022-08-17 11:47:19 GMT 46.010044 -2.095436 36,000 15 460 64
2022-08-17 11:47:08 GMT 45.989548 -2.103681 36,000 15 460 0
2022-08-17 11:47:05 GMT 45.983459 -2.106092 36,000 15 460 -64
2022-08-17 11:46:56 GMT 45.964844 -2.113495 36,000 15 460 -64
2022-08-17 11:46:48 GMT 45.943863 -2.121902 36,000 15 460 -64
2022-08-17 11:46:46 GMT 45.943863 -2.121902 36,000 15 460 -64
2022-08-17 11:46:40 GMT 45.925507 -2.129219 36,000 15 459 -64
2022-08-17 11:46:37 GMT 45.925507 -2.129219 36,000 15 459 0
2022-08-17 11:46:33 GMT 45.917358 -2.132419 36,000 15 459 0
2022-08-17 11:46:29 GMT 45.908478 -2.135970 36,000 15 459 0
2022-08-17 11:46:27 GMT 45.905273 -2.137243 36,000 15 459 0
2022-08-17 11:46:23 GMT 45.897106 -2.140480 36,000 15 459 0
2022-08-17 11:46:19 GMT 45.888775 -2.143845 36,000 15 459 0
2022-08-17 11:46:14 GMT 45.878174 -2.148028 36,000 15 459 64
2022-08-17 11:46:09 GMT 45.867508 -2.152248 36,000 15 459 64
2022-08-17 11:46:07 GMT 45.862564 -2.154191 36,000 6 457 -64
2022-08-17 11:46:04 GMT 45.857483 -2.156201 36,000 15 459 0
2022-08-17 11:45:59 GMT 45.847092 -2.160354 36,000 15 459 0
2022-08-17 11:45:56 GMT 45.835052 -2.165044 36,000 6 457 -64
2022-08-17 11:45:53 GMT 45.835052 -2.165044 36,000 15 459 0
2022-08-17 11:45:49 GMT 45.827560 -2.167877 36,000 14 459 0
2022-08-17 11:45:46 GMT 45.818161 -2.171274 36,000 6 457 -64
2022-08-17 11:45:42 GMT 45.813126 -2.172948 36,000 11 457 0
2022-08-17 11:45:37 GMT 45.802460 -2.175963 35,975 7 457 0
2022-08-17 11:45:33 GMT 45.794319 -2.177971 36,000 8 457 0
2022-08-17 11:45:29 GMT 45.783737 -2.179982 36,000 5 456 -64
2022-08-17 11:45:21 GMT 45.762863 -2.182595 36,000 4 456 0
2022-08-17 11:45:18 GMT 45.762863 -2.182595 36,000 4 456 0
2022-08-17 11:45:13 GMT 45.752098 -2.183739 36,000 4 456 0
2022-08-17 11:45:08 GMT 45.740250 -2.185073 36,000 4 456 0
2022-08-17 11:45:05 GMT 45.735245 -2.185593 36,000 4 456 0
2022-08-17 11:45:02 GMT 45.729473 -2.186211 36,000 4 456 0
2022-08-17 11:44:59 GMT 45.722351 -2.187016 36,000 4 456 64
2022-08-17 11:44:56 GMT 45.715836 -2.187721 36,000 4 456 0
2022-08-17 11:44:49 GMT 45.698471 -2.189575 36,000 3 456 64
2022-08-17 11:44:46 GMT 45.694611 -2.189964 36,000 3 455 0
2022-08-17 11:44:42 GMT 45.686504 -2.190605 36,000 1 455 0
2022-08-17 11:44:36 GMT 45.672913 -2.191237 36,000 0 455 0
2022-08-17 11:44:25 GMT 45.650333 -2.190742 36,000 358 454 0
2022-08-17 11:44:18 GMT 45.630341 -2.188825 35,975 355 452 64
2022-08-17 11:44:06 GMT 45.610153 -2.185341 35,975 352 451 64
2022-08-17 11:43:56 GMT 45.589462 -2.180451 35,950 350 452 64
2022-08-17 11:43:45 GMT 45.568169 -2.174881 35,950 350 450 0
2022-08-17 11:43:35 GMT 45.530415 -2.164843 35,975 350 450 0
2022-08-17 11:43:27 GMT 45.530415 -2.164843 35,950 350 451 64
2022-08-17 11:43:24 GMT 45.525101 -2.163457 35,950 350 451 64
2022-08-17 11:43:15 GMT 45.505600 -2.158290 35,975 350 450 0
2022-08-17 11:43:13 GMT 45.501205 -2.157179 35,950 350 450 0
2022-08-17 11:43:05 GMT 45.484909 -2.152863 35,950 350 450 -64
2022-08-17 11:43:02 GMT 45.478775 -2.151293 35,950 350 450 -64
2022-08-17 11:42:58 GMT 45.471313 -2.149331 35,950 350 450 -64
2022-08-17 11:42:54 GMT 45.462158 -2.146912 35,975 350 450 -64
2022-08-17 11:42:51 GMT 45.456722 -2.145483 35,975 350 450 -64
2022-08-17 11:42:48 GMT 45.450714 -2.143903 35,975 350 450 -64
2022-08-17 11:42:44 GMT 45.443481 -2.141942 35,975 350 450 -64
2022-08-17 11:42:41 GMT 45.437576 -2.140438 35,975 350 450 -64
2022-08-17 11:42:34 GMT 45.422508 -2.136439 35,975 350 451 -64
2022-08-17 11:42:31 GMT 45.415924 -2.134683 35,975 350 451 -64
2022-08-17 11:42:26 GMT 45.405376 -2.131951 36,000 350 451 0
2022-08-17 11:42:22 GMT 45.398579 -2.130142 36,000 350 451 0
2022-08-17 11:42:20 GMT 45.393738 -2.128869 36,000 350 451 -64
2022-08-17 11:42:17 GMT 45.387455 -2.127194 36,000 350 452 -64
2022-08-17 11:42:14 GMT 45.380493 -2.125331 36,000 350 452 -64
2022-08-17 11:42:11 GMT 45.375908 -2.124180 36,000 350 452 -64
2022-08-17 11:42:09 GMT 45.371475 -2.122977 36,000 350 452 -64
2022-08-17 11:42:03 GMT 45.355240 -2.118687 36,000 350 453 0
2022-08-17 11:41:58 GMT 45.349365 -2.117157 36,000 350 455 -64
2022-08-17 11:41:55 GMT 45.339832 -2.114667 36,000 350 454 -64
2022-08-17 11:41:48 GMT 45.328812 -2.111860 36,000 350 454 -64
2022-08-17 11:41:44 GMT 45.320187 -2.109576 36,025 350 455 -64
2022-08-17 11:41:41 GMT 45.313950 -2.107968 36,025 350 455 0
2022-08-17 11:41:37 GMT 45.305328 -2.105713 36,025 350 456 0
2022-08-17 11:41:33 GMT 45.295624 -2.103228 36,025 350 455 0
2022-08-17 11:41:27 GMT 45.283539 -2.100024 36,025 350 457 -64
2022-08-17 11:41:23 GMT 45.275867 -2.097987 36,025 350 456 -64
2022-08-17 11:41:14 GMT 45.257526 -2.093163 36,050 350 457 0
2022-08-17 11:41:10 GMT 45.248062 -2.090672 36,025 350 457 0
2022-08-17 11:41:06 GMT 45.232716 -2.086598 36,050 350 458 -64
2022-08-17 11:41:03 GMT 45.232716 -2.086598 36,025 350 458 0
2022-08-17 11:40:56 GMT 45.218796 -2.082981 36,050 350 458 0
2022-08-17 11:40:54 GMT 45.216614 -2.082432 36,050 350 459 -64
2022-08-17 11:40:50 GMT 45.206223 -2.079686 36,050 350 459 0
2022-08-17 11:40:45 GMT 45.195427 -2.076885 36,050 350 459 -64
2022-08-17 11:40:41 GMT 45.188118 -2.074942 36,050 350 459 0
2022-08-17 11:40:32 GMT 45.170475 -2.070253 36,050 350 460 0
2022-08-17 11:40:28 GMT 45.162460 -2.068111 36,050 350 460 0
2022-08-17 11:40:26 GMT 45.156742 -2.066636 36,050 350 461 0
2022-08-17 11:40:23 GMT 45.150421 -2.064972 36,050 350 462 0
2022-08-17 11:40:19 GMT 45.143509 -2.063206 36,050 350 462 0
2022-08-17 11:40:16 GMT 45.135838 -2.061209 36,050 350 463 128
2022-08-17 11:40:11 GMT 45.126709 -2.058825 36,050 350 463 128
2022-08-17 11:40:07 GMT 45.109680 -2.054443 36,025 350 463 0
2022-08-17 11:40:03 GMT 45.109680 -2.054443 36,025 350 464 0
2022-08-17 11:39:58 GMT 45.098053 -2.051435 36,025 350 464 0
2022-08-17 11:39:54 GMT 45.088943 -2.049081 36,025 350 464 0
2022-08-17 11:39:47 GMT 45.075974 -2.045668 36,025 350 464 0
2022-08-17 11:39:44 GMT 45.069691 -2.044060 36,025 350 464 0
2022-08-17 11:39:41 GMT 45.061356 -2.041916 36,025 350 464 64
2022-08-17 11:39:34 GMT 45.034729 -2.034949 36,025 350 464 0
2022-08-17 11:39:28 GMT 45.034729 -2.034949 36,025 350 464 0
2022-08-17 11:39:23 GMT 45.024345 -2.032270 36,025 350 464 0
2022-08-17 11:39:17 GMT 45.012337 -2.029121 36,000 350 464 64
2022-08-17 11:39:13 GMT 45.003159 -2.026781 36,025 350 464 0
2022-08-17 11:39:08 GMT 44.992504 -2.024030 36,000 350 464 64
2022-08-17 11:39:02 GMT 44.980957 -2.021027 36,000 350 464 64
2022-08-17 11:38:58 GMT 44.972256 -2.018805 36,000 350 464 0
2022-08-17 11:38:51 GMT 44.957638 -2.014986 36,000 350 463 0
2022-08-17 11:38:47 GMT 44.949188 -2.012852 36,000 350 463 64
2022-08-17 11:38:43 GMT 44.939064 -2.010230 36,000 350 463 128
2022-08-17 11:38:37 GMT 44.926849 -2.007032 35,975 350 463 64
2022-08-17 11:38:35 GMT 44.922352 -2.005876 35,975 350 463 0
2022-08-17 11:38:32 GMT 44.917969 -2.004743 35,975 350 463 0
2022-08-17 11:38:28 GMT 44.909454 -2.002526 35,975 350 462 64
2022-08-17 11:38:25 GMT 44.902039 -2.000558 35,975 350 462 0
2022-08-17 11:38:22 GMT 44.895630 -1.998909 35,975 350 462 0
2022-08-17 11:38:18 GMT 44.886833 -1.996631 35,975 350 462 0
2022-08-17 11:38:12 GMT 44.875008 -1.993550 35,975 350 462 0
2022-08-17 11:38:09 GMT 44.863415 -1.990602 35,975 350 462 0
2022-08-17 11:38:05 GMT 44.859192 -1.989506 35,975 350 461 64
2022-08-17 11:38:00 GMT 44.848709 -1.986825 35,975 350 461 64
2022-08-17 11:37:57 GMT 44.842300 -1.985125 35,975 350 461 64
2022-08-17 11:37:52 GMT 44.832363 -1.982563 35,975 350 461 64
2022-08-17 11:37:47 GMT 44.822868 -1.980152 35,975 350 461 0
2022-08-17 11:37:42 GMT 44.811722 -1.977343 35,975 350 461 -64
2022-08-17 11:37:37 GMT 44.801193 -1.974727 35,975 350 461 -64
2022-08-17 11:37:31 GMT 44.789246 -1.971654 35,975 350 461 0
2022-08-17 11:37:27 GMT 44.781017 -1.969567 35,975 350 460 0
2022-08-17 11:37:21 GMT 44.768875 -1.966422 35,975 350 460 0
2022-08-17 11:37:17 GMT 44.758713 -1.963806 35,975 350 460 0
2022-08-17 11:37:14 GMT 44.753357 -1.962433 35,975 350 460 0
2022-08-17 11:37:11 GMT 44.746307 -1.960602 35,975 350 460 0
2022-08-17 11:37:07 GMT 44.737976 -1.958444 35,975 350 460 -64
2022-08-17 11:37:00 GMT 44.723339 -1.954696 35,975 350 460 -64
2022-08-17 11:36:56 GMT 44.715660 -1.952753 35,975 350 460 0
2022-08-17 11:36:52 GMT 44.706207 -1.950274 36,000 350 460 -64
2022-08-17 11:36:49 GMT 44.701859 -1.949158 36,000 350 460 -128
2022-08-17 11:36:46 GMT 44.686340 -1.945169 36,000 350 459 -128
2022-08-17 11:36:40 GMT 44.681030 -1.943795 36,000 350 459 0
2022-08-17 11:36:31 GMT 44.663799 -1.939422 36,025 350 460 0
2022-08-17 11:36:28 GMT 44.657471 -1.937747 36,025 350 460 -64
2022-08-17 11:36:24 GMT 44.648296 -1.935402 36,025 350 460 -64
2022-08-17 11:36:21 GMT 44.641617 -1.933725 36,025 350 460 0
2022-08-17 11:36:17 GMT 44.633541 -1.931651 36,025 350 460 -128
2022-08-17 11:36:14 GMT 44.628754 -1.930455 36,025 350 460 -64
2022-08-17 11:36:11 GMT 44.620365 -1.928302 36,025 350 460 -64
2022-08-17 11:36:06 GMT 44.610405 -1.925756 36,050 350 461 64
2022-08-17 11:36:01 GMT 44.601883 -1.923588 36,050 350 460 0
2022-08-17 11:35:59 GMT 44.596710 -1.922280 36,050 350 460 0
2022-08-17 11:35:56 GMT 44.578331 -1.917583 36,025 350 461 0
2022-08-17 11:35:51 GMT 44.578331 -1.917583 36,050 350 461 -64
2022-08-17 11:35:48 GMT 44.573769 -1.916444 36,050 350 461 0
2022-08-17 11:35:44 GMT 44.564548 -1.914100 36,050 350 461 0
2022-08-17 11:35:38 GMT 44.550816 -1.910549 36,050 350 461 64
2022-08-17 11:35:35 GMT 44.546490 -1.909410 36,050 350 461 64
2022-08-17 11:35:30 GMT 44.535736 -1.906716 36,050 350 461 64
2022-08-17 11:35:22 GMT 44.517975 -1.902204 36,025 350 461 128
2022-08-17 11:35:20 GMT 44.513626 -1.901093 36,025 350 462 128
2022-08-17 11:35:16 GMT 44.505104 -1.898960 36,025 350 462 64
2022-08-17 11:35:13 GMT 44.501221 -1.897954 36,025 350 462 0
2022-08-17 11:35:07 GMT 44.486206 -1.894161 36,025 350 463 0
2022-08-17 11:35:04 GMT 44.480896 -1.892797 36,000 350 463 0
2022-08-17 11:34:59 GMT 44.462997 -1.888275 36,000 350 463 64
2022-08-17 11:34:56 GMT 44.462997 -1.888275 36,000 350 462 64
2022-08-17 11:34:52 GMT 44.438068 -1.881878 35,975 350 462 0
2022-08-17 11:34:44 GMT 44.438068 -1.881878 36,000 350 463 64
2022-08-17 11:34:42 GMT 44.435120 -1.881082 36,000 350 463 64
2022-08-17 11:34:39 GMT 44.425964 -1.878793 35,975 350 463 0
2022-08-17 11:34:35 GMT 44.418640 -1.876896 35,975 350 462 64
2022-08-17 11:34:32 GMT 44.412464 -1.875313 35,975 350 462 64
2022-08-17 11:34:28 GMT 44.405064 -1.873437 35,975 350 462 64
2022-08-17 11:34:24 GMT 44.397381 -1.871494 35,975 350 462 64
2022-08-17 11:34:21 GMT 44.390491 -1.869752 35,975 350 462 64
2022-08-17 11:34:17 GMT 44.382019 -1.867610 35,975 350 462 0
2022-08-17 11:34:14 GMT 44.375748 -1.865976 35,975 350 462 0
2022-08-17 11:34:08 GMT 44.363537 -1.862920 35,975 350 462 0
2022-08-17 11:34:05 GMT 44.355057 -1.860744 35,975 350 462 64
2022-08-17 11:33:58 GMT 44.341007 -1.857225 36,000 350 461 -64
2022-08-17 11:33:51 GMT 44.325989 -1.853485 35,975 350 461 -64
2022-08-17 11:33:48 GMT 44.319592 -1.851866 35,975 350 461 -64
2022-08-17 11:33:38 GMT 44.300041 -1.846909 35,975 350 461 -64
2022-08-17 11:33:32 GMT 44.286713 -1.843545 36,000 350 461 -64
2022-08-17 11:33:31 GMT 44.284836 -1.843087 36,000 350 461 -64
2022-08-17 11:33:29 GMT 44.278160 -1.841349 36,000 350 461 -64
2022-08-17 11:33:26 GMT 44.272751 -1.840014 36,000 350 460 -128
2022-08-17 11:33:18 GMT 44.257416 -1.836155 36,000 350 460 0
2022-08-17 11:33:15 GMT 44.252464 -1.834851 36,000 350 460 0
2022-08-17 11:33:09 GMT 44.240360 -1.831836 36,000 350 460 0
2022-08-17 11:33:06 GMT 44.231873 -1.829681 36,000 350 460 0
2022-08-17 11:33:04 GMT 44.229748 -1.829157 36,000 350 460 0
2022-08-17 11:32:58 GMT 44.215942 -1.825692 36,000 350 461 -64
2022-08-17 11:32:55 GMT 44.196350 -1.820788 36,025 350 461 -64
2022-08-17 11:32:49 GMT 44.196350 -1.820788 36,025 350 461 -64
2022-08-17 11:32:47 GMT 44.192001 -1.819643 36,025 350 461 -64
2022-08-17 11:32:45 GMT 44.187744 -1.818621 36,025 350 461 -64
2022-08-17 11:32:43 GMT 44.180820 -1.816864 36,025 350 461 -64
2022-08-17 11:32:40 GMT 44.176304 -1.815752 36,025 350 461 0
2022-08-17 11:32:36 GMT 44.170441 -1.814248 36,025 350 461 0
2022-08-17 11:32:35 GMT 44.168060 -1.813702 36,025 350 461 -64
2022-08-17 11:32:34 GMT 44.163895 -1.812680 36,025 350 461 -64
2022-08-17 11:32:32 GMT 44.161736 -1.812090 36,025 350 461 -64
2022-08-17 11:32:29 GMT 44.155357 -1.810521 36,025 350 462 0
2022-08-17 11:32:26 GMT 44.149246 -1.809039 36,025 350 462 0
2022-08-17 11:32:23 GMT 44.143021 -1.807447 36,025 350 462 0
2022-08-17 11:32:22 GMT 44.140594 -1.806868 36,025 350 462 0
2022-08-17 11:32:20 GMT 44.136688 -1.805943 36,025 350 462 0
2022-08-17 11:32:18 GMT 44.132732 -1.804962 36,025 350 462 0
2022-08-17 11:32:17 GMT 44.130432 -1.804377 36,025 350 462 0
2022-08-17 11:32:13 GMT 44.122444 -1.802412 36,025 350 462 128
2022-08-17 11:32:10 GMT 44.114670 -1.800515 36,025 351 462 64
2022-08-17 11:32:08 GMT 44.110432 -1.799469 36,000 351 462 64
2022-08-17 11:32:05 GMT 44.106430 -1.798488 36,000 351 462 64
2022-08-17 11:32:03 GMT 44.100632 -1.797095 36,000 351 462 0
2022-08-17 11:32:00 GMT 44.092667 -1.795179 36,000 351 462 64
2022-08-17 11:31:57 GMT 44.088322 -1.794172 36,000 352 463 64
2022-08-17 11:31:56 GMT 44.086132 -1.793714 36,000 352 463 64
2022-08-17 11:31:52 GMT 44.078777 -1.792276 36,000 354 464 128
2022-08-17 11:31:50 GMT 44.070282 -1.790899 36,000 355 464 128
2022-08-17 11:31:46 GMT 44.063095 -1.790069 35,975 357 465 64
2022-08-17 11:31:44 GMT 44.058838 -1.789686 35,975 358 465 0
2022-08-17 11:31:41 GMT 44.053036 -1.789267 35,975 0 467 64
2022-08-17 11:31:36 GMT 44.036648 -1.789006 35,975 0 468 64
2022-08-17 11:31:33 GMT 44.031372 -1.789175 35,975 1 468 64
2022-08-17 11:31:31 GMT 44.031372 -1.789175 35,975 1 468 64
2022-08-17 11:31:29 GMT 44.028351 -1.789302 35,975 3 468 64
2022-08-17 11:31:26 GMT 44.021667 -1.789813 35,975 5 469 0
2022-08-17 11:31:24 GMT 44.014999 -1.790510 35,975 5 469 0
2022-08-17 11:31:21 GMT 44.008621 -1.791346 35,975 6 470 64
2022-08-17 11:31:20 GMT 44.002487 -1.792304 35,975 7 470 64
2022-08-17 11:31:18 GMT 43.998550 -1.793007 35,975 7 470 64
2022-08-17 11:31:16 GMT 43.996078 -1.793518 35,975 9 471 64
2022-08-17 11:31:14 GMT 43.993881 -1.793965 35,975 9 471 64
2022-08-17 11:31:12 GMT 43.992050 -1.794368 35,975 9 470 64
2022-08-17 11:31:10 GMT 43.987610 -1.795434 35,950 11 471 0
2022-08-17 11:31:09 GMT 43.983578 -1.796461 35,950 12 471 0
2022-08-17 11:31:05 GMT 43.977295 -1.798292 35,950 12 471 0
2022-08-17 11:31:02 GMT 43.970638 -1.800385 35,950 13 471 64
2022-08-17 11:31:01 GMT 43.966415 -1.801758 35,950 14 472 64
2022-08-17 11:30:57 GMT 43.960300 -1.803916 35,950 14 472 64
2022-08-17 11:30:56 GMT 43.958302 -1.804635 35,950 15 472 64
2022-08-17 11:30:55 GMT 43.955017 -1.805910 35,950 15 472 64
2022-08-17 11:30:54 GMT 43.949890 -1.807890 35,950 16 472 64
2022-08-17 11:30:51 GMT 43.946777 -1.809167 35,950 16 472 0
2022-08-17 11:30:49 GMT 43.943298 -1.810572 35,950 16 472 0
2022-08-17 11:30:46 GMT 43.935608 -1.813830 35,950 16 472 0
2022-08-17 11:30:43 GMT 43.929886 -1.816257 35,950 16 472 0
2022-08-17 11:30:42 GMT 43.927715 -1.817126 35,950 16 472 -64
2022-08-17 11:30:38 GMT 43.919586 -1.820601 35,950 16 472 -64
2022-08-17 11:30:37 GMT 43.916428 -1.821942 35,950 16 472 -64
2022-08-17 11:30:35 GMT 43.911980 -1.823796 35,950 16 472 -128
2022-08-17 11:30:30 GMT 43.902859 -1.827654 35,975 16 472 -128
2022-08-17 11:30:29 GMT 43.900589 -1.828585 35,975 17 471 -64
2022-08-17 11:30:25 GMT 43.893269 -1.831709 35,975 17 471 -64
2022-08-17 11:30:21 GMT 43.884109 -1.835611 35,975 17 471 -128
2022-08-17 11:30:15 GMT 43.872253 -1.840593 36,000 17 471 -64
2022-08-17 11:30:12 GMT 43.863659 -1.844199 36,000 17 471 -64
2022-08-17 11:30:09 GMT 43.858887 -1.846214 36,000 17 471 -64
2022-08-17 11:30:07 GMT 43.855545 -1.847619 36,000 17 471 -64
2022-08-17 11:30:05 GMT 43.851562 -1.849344 36,000 17 471 -64
2022-08-17 11:30:00 GMT 43.840942 -1.853812 36,000 17 471 -64
2022-08-17 11:29:57 GMT 43.833206 -1.857073 36,000 17 471 -64
2022-08-17 11:29:56 GMT 43.831192 -1.857903 36,000 17 471 -64
2022-08-17 11:29:54 GMT 43.827347 -1.859564 36,025 17 471 -64
2022-08-17 11:29:51 GMT 43.820320 -1.862510 36,025 16 471 -64
2022-08-17 11:29:49 GMT 43.816967 -1.863883 36,025 16 471 0
2022-08-17 11:29:48 GMT 43.814732 -1.864864 36,025 16 471 0
2022-08-17 11:29:47 GMT 43.811802 -1.866106 36,025 16 471 0
2022-08-17 11:29:45 GMT 43.808716 -1.867356 36,025 16 471 0
2022-08-17 11:29:44 GMT 43.805511 -1.868762 36,025 16 471 0
2022-08-17 11:29:42 GMT 43.797180 -1.872211 36,025 16 471 0
2022-08-17 11:29:39 GMT 43.795029 -1.873105 36,025 16 471 0
2022-08-17 11:29:36 GMT 43.790451 -1.875085 36,025 16 471 0
2022-08-17 11:29:34 GMT 43.786377 -1.876746 36,025 16 472 0
2022-08-17 11:29:33 GMT 43.781868 -1.878662 36,025 16 472 0
2022-08-17 11:29:31 GMT 43.779774 -1.879512 36,025 16 472 -64
2022-08-17 11:29:30 GMT 43.774185 -1.881866 36,025 16 472 0
2022-08-17 11:29:27 GMT 43.766830 -1.885005 36,025 16 472 0
2022-08-17 11:29:25 GMT 43.766830 -1.885005 36,025 16 472 0
2022-08-17 11:29:22 GMT 43.761387 -1.887229 36,025 16 472 0
2022-08-17 11:29:21 GMT 43.753284 -1.890629 36,025 16 472 0
2022-08-17 11:29:18 GMT 43.753284 -1.890629 36,025 16 472 0
2022-08-17 11:29:17 GMT 43.750122 -1.892012 36,025 16 472 0
2022-08-17 11:29:15 GMT 43.746952 -1.893311 36,025 16 472 0
2022-08-17 11:29:13 GMT 43.742531 -1.895207 36,025 16 472 0
2022-08-17 11:29:12 GMT 43.737083 -1.897496 36,025 16 472 0
2022-08-17 11:29:09 GMT 43.733917 -1.898782 36,025 16 472 0
2022-08-17 11:29:08 GMT 43.731590 -1.899785 36,025 16 472 64
2022-08-17 11:29:06 GMT 43.727356 -1.901550 36,025 16 473 0
2022-08-17 11:29:04 GMT 43.722794 -1.903447 36,025 16 473 0
2022-08-17 11:29:00 GMT 43.714600 -1.906913 36,025 16 473 0
2022-08-17 11:28:58 GMT 43.710297 -1.908683 36,025 16 473 0
2022-08-17 11:28:55 GMT 43.702541 -1.911948 36,025 16 473 0
2022-08-17 11:28:54 GMT 43.702541 -1.911948 36,025 16 474 -64
2022-08-17 11:28:52 GMT 43.698349 -1.913729 36,025 16 474 -64
2022-08-17 11:28:50 GMT 43.694229 -1.915454 36,025 16 474 -64
2022-08-17 11:28:48 GMT 43.690067 -1.917180 36,025 16 474 -64
2022-08-17 11:28:46 GMT 43.685669 -1.919030 36,025 16 474 -64
2022-08-17 11:28:45 GMT 43.683701 -1.919861 36,025 16 474 -64
2022-08-17 11:28:43 GMT 43.676754 -1.922738 36,025 16 474 0
2022-08-17 11:28:41 GMT 43.674610 -1.923654 36,025 16 474 0
2022-08-17 11:28:38 GMT 43.667130 -1.926759 36,025 16 474 -64
2022-08-17 11:28:36 GMT 43.662689 -1.928612 36,025 16 475 -64
2022-08-17 11:28:30 GMT 43.651566 -1.933274 36,025 16 475 0
2022-08-17 11:28:20 GMT 43.629688 -1.942226 36,025 16 474 0
2022-08-17 11:28:10 GMT 43.608398 -1.950967 36,025 16 475 64
2022-08-17 11:27:59 GMT 43.586952 -1.959621 36,000 16 475 64
2022-08-17 11:27:57 GMT 43.581833 -1.961714 36,000 16 475 128
2022-08-17 11:27:49 GMT 43.565865 -1.968188 36,000 16 476 0
2022-08-17 11:27:46 GMT 43.559719 -1.970673 36,000 16 476 0
2022-08-17 11:27:41 GMT 43.541977 -1.977795 36,000 16 477 0
2022-08-17 11:27:38 GMT 43.541977 -1.977795 36,000 16 477 0
2022-08-17 11:27:36 GMT 43.538773 -1.979136 36,000 16 477 0
2022-08-17 11:27:30 GMT 43.526062 -1.984209 36,000 16 476 64
2022-08-17 11:27:28 GMT 43.521973 -1.985843 36,000 16 476 0
2022-08-17 11:27:25 GMT 43.515060 -1.988653 36,000 16 476 0
2022-08-17 11:27:21 GMT 43.504944 -1.992677 36,000 16 476 0
2022-08-17 11:27:19 GMT 43.500916 -1.994338 36,000 16 476 0
2022-08-17 11:27:14 GMT 43.491661 -1.998073 36,000 16 476 0
2022-08-17 11:27:11 GMT 43.485191 -2.000689 36,000 16 476 0
2022-08-17 11:27:08 GMT 43.479698 -2.002912 36,000 16 476 0
2022-08-17 11:27:04 GMT 43.469734 -2.007032 36,000 16 476 0
2022-08-17 11:26:58 GMT 43.458004 -2.011741 36,000 16 476 -64
2022-08-17 11:26:51 GMT 43.442455 -2.017953 36,000 16 475 -64
2022-08-17 11:26:48 GMT 43.436497 -2.020373 36,000 16 475 -64
2022-08-17 11:26:40 GMT 43.420212 -2.026850 36,025 16 475 -64
2022-08-17 11:26:37 GMT 43.413528 -2.029532 36,025 16 475 -64
2022-08-17 11:26:31 GMT 43.399704 -2.035090 36,025 16 475 0
2022-08-17 11:26:27 GMT 43.393345 -2.037637 36,025 16 475 0
2022-08-17 11:26:21 GMT 43.377365 -2.043968 36,000 16 475 64
2022-08-17 11:26:16 GMT 43.371002 -2.046523 36,000 16 475 64
2022-08-17 11:26:10 GMT 43.355682 -2.052612 36,000 16 475 64
2022-08-17 11:26:07 GMT 43.350327 -2.054770 36,000 16 475 0
2022-08-17 11:26:00 GMT 43.334198 -2.061214 36,000 16 476 0
2022-08-17 11:25:56 GMT 43.327881 -2.063705 36,000 16 476 0
2022-08-17 11:25:46 GMT 43.305405 -2.072623 36,000 16 476 -64
2022-08-17 11:25:39 GMT 43.290649 -2.078509 36,025 16 476 0
2022-08-17 11:25:36 GMT 43.284878 -2.080863 36,025 16 476 0
2022-08-17 11:25:26 GMT 43.263657 -2.089382 36,025 16 476 0
2022-08-17 11:25:16 GMT 43.241776 -2.098197 36,025 16 476 0
2022-08-17 11:25:07 GMT 43.223057 -2.105647 36,025 16 476 0
2022-08-17 11:25:05 GMT 43.219803 -2.106948 36,025 16 476 -64
2022-08-17 11:24:59 GMT 43.205784 -2.112514 36,025 16 476 0
2022-08-17 11:24:55 GMT 43.196732 -2.116082 36,025 16 475 64
2022-08-17 11:24:48 GMT 43.183319 -2.121447 36,025 16 476 0
2022-08-17 11:24:46 GMT 43.178040 -2.123566 36,025 16 476 0
2022-08-17 11:24:39 GMT 43.163979 -2.129190 36,000 16 475 64
2022-08-17 11:24:36 GMT 43.156254 -2.132263 36,025 16 475 64
2022-08-17 11:24:25 GMT 43.135162 -2.140737 36,000 16 475 0
2022-08-17 11:24:18 GMT 43.118820 -2.147252 36,000 16 475 0
2022-08-17 11:24:15 GMT 43.113235 -2.149488 36,000 16 475 0
2022-08-17 11:24:07 GMT 43.095795 -2.156450 36,000 16 475 0
2022-08-17 11:24:04 GMT 43.089386 -2.159005 36,000 16 475 0
2022-08-17 11:23:58 GMT 43.076431 -2.164243 36,000 16 474 0
2022-08-17 11:23:54 GMT 43.068008 -2.167628 36,000 16 474 64
2022-08-17 11:23:50 GMT 43.060730 -2.170566 36,000 16 474 64
2022-08-17 11:23:44 GMT 43.048325 -2.175612 36,000 16 474 0
2022-08-17 11:23:40 GMT 43.039639 -2.179151 36,000 16 473 0
2022-08-17 11:23:31 GMT 43.021484 -2.186606 36,000 16 473 0
2022-08-17 11:23:29 GMT 43.017105 -2.188372 36,000 16 473 0
2022-08-17 11:23:24 GMT 43.005249 -2.193242 36,000 16 473 0
2022-08-17 11:23:17 GMT 42.991318 -2.198900 35,975 16 473 64
2022-08-17 11:23:14 GMT 42.984924 -2.201481 35,975 16 473 64
2022-08-17 11:23:10 GMT 42.976227 -2.204994 35,975 16 473 64
2022-08-17 11:23:07 GMT 42.970184 -2.207422 35,975 16 473 64
2022-08-17 11:23:03 GMT 42.961571 -2.210933 35,975 16 473 0
2022-08-17 11:22:58 GMT 42.947525 -2.216556 35,975 16 473 0
2022-08-17 11:22:53 GMT 42.941692 -2.218911 35,975 16 473 0
2022-08-17 11:22:47 GMT 42.928425 -2.224208 35,975 16 473 0
2022-08-17 11:22:42 GMT 42.919628 -2.227674 35,975 16 473 -64
2022-08-17 11:22:37 GMT 42.907608 -2.232524 35,975 16 472 -64
2022-08-17 11:22:33 GMT 42.898911 -2.235973 36,000 16 472 -64
2022-08-17 11:22:27 GMT 42.885551 -2.241276 36,000 16 472 -64
2022-08-17 11:22:23 GMT 42.877731 -2.244415 36,000 16 472 -64
2022-08-17 11:22:16 GMT 42.862972 -2.250301 36,000 16 471 0
2022-08-17 11:22:13 GMT 42.856876 -2.252786 36,000 16 471 0
2022-08-17 11:22:06 GMT 42.842213 -2.258606 36,000 16 471 0
2022-08-17 11:22:01 GMT 42.830795 -2.263184 36,000 16 471 0
2022-08-17 11:21:56 GMT 42.821182 -2.267016 36,000 16 471 0
2022-08-17 11:21:50 GMT 42.810696 -2.271227 36,000 16 471 0
2022-08-17 11:21:47 GMT 42.801849 -2.274745 36,000 16 470 0
2022-08-17 11:21:43 GMT 42.795845 -2.277172 36,000 16 470 64
2022-08-17 11:21:37 GMT 42.781414 -2.282985 35,975 16 470 64
2022-08-17 11:21:32 GMT 42.771080 -2.287136 35,975 16 470 0
2022-08-17 11:21:26 GMT 42.758045 -2.292374 35,975 16 470 -64
2022-08-17 11:21:16 GMT 42.738510 -2.300387 36,000 16 470 0
2022-08-17 11:21:08 GMT 42.721619 -2.307316 36,000 16 470 0
2022-08-17 11:21:04 GMT 42.708252 -2.312809 36,000 17 470 0
2022-08-17 11:21:01 GMT 42.708252 -2.312809 36,000 17 470 0
2022-08-17 11:20:54 GMT 42.691772 -2.319676 36,000 17 470 0
2022-08-17 11:20:49 GMT 42.682159 -2.323733 36,000 17 470 0
2022-08-17 11:20:45 GMT 42.673462 -2.327354 36,000 17 470 0
2022-08-17 11:20:41 GMT 42.665955 -2.330537 36,000 17 470 0
2022-08-17 11:20:34 GMT 42.650940 -2.336842 36,000 17 471 0
2022-08-17 11:20:26 GMT 42.633797 -2.344048 36,000 17 471 -64
2022-08-17 11:20:24 GMT 42.629333 -2.345956 36,025 17 470 -64
2022-08-17 11:20:20 GMT 42.621460 -2.349264 36,025 17 470 -64
2022-08-17 11:20:13 GMT 42.607040 -2.355319 36,025 17 470 0
2022-08-17 11:20:09 GMT 42.600449 -2.358066 36,025 17 470 0
2022-08-17 11:20:05 GMT 42.589943 -2.362444 36,025 17 470 0
2022-08-17 11:20:02 GMT 42.585289 -2.364360 36,025 17 470 0
2022-08-17 11:19:58 GMT 42.577095 -2.367809 36,025 17 471 0
2022-08-17 11:19:54 GMT 42.566669 -2.372089 36,025 16 471 0
2022-08-17 11:19:51 GMT 42.560211 -2.374732 36,025 16 471 0
2022-08-17 11:19:49 GMT 42.557915 -2.375666 36,025 16 472 -64
2022-08-17 11:19:41 GMT 42.540833 -2.382692 36,025 16 472 -64
2022-08-17 11:19:31 GMT 42.519882 -2.391251 36,025 16 472 64
2022-08-17 11:19:28 GMT 42.512016 -2.394509 36,025 16 472 64
2022-08-17 11:19:25 GMT 42.504501 -2.397579 36,025 16 472 64
2022-08-17 11:19:20 GMT 42.498825 -2.399888 36,025 16 472 64
2022-08-17 11:19:11 GMT 42.478683 -2.408178 36,025 16 473 0
2022-08-17 11:19:01 GMT 42.457176 -2.416864 36,025 16 472 0
2022-08-17 11:18:53 GMT 42.439533 -2.423954 36,025 16 473 0
2022-08-17 11:18:49 GMT 42.433044 -2.426543 36,025 16 473 0
2022-08-17 11:18:42 GMT 42.416306 -2.433280 36,025 16 473 0
2022-08-17 11:18:40 GMT 42.414139 -2.434158 36,025 16 473 0
2022-08-17 11:18:33 GMT 42.399265 -2.440115 36,025 16 473 0
2022-08-17 11:18:31 GMT 42.394657 -2.441903 36,025 16 473 0
2022-08-17 11:18:23 GMT 42.378410 -2.448418 36,025 16 472 64
2022-08-17 11:18:18 GMT 42.366913 -2.453017 36,025 16 472 64
2022-08-17 11:18:14 GMT 42.357277 -2.456913 36,000 16 472 64
2022-08-17 11:18:09 GMT 42.348083 -2.460625 36,000 16 472 64
2022-08-17 11:18:03 GMT 42.335770 -2.465600 36,000 16 473 0
2022-08-17 11:18:00 GMT 42.328785 -2.468411 36,000 16 472 0
2022-08-17 11:17:53 GMT 42.313751 -2.474421 36,025 16 472 0
2022-08-17 11:17:50 GMT 42.308853 -2.476418 36,025 16 472 0
2022-08-17 11:17:43 GMT 42.292328 -2.483035 36,025 16 472 0
2022-08-17 11:17:39 GMT 42.287064 -2.485157 36,000 16 472 0
2022-08-17 11:17:32 GMT 42.270309 -2.491899 36,000 16 472 0
2022-08-17 11:17:29 GMT 42.266190 -2.493584 36,000 16 472 0
2022-08-17 11:17:23 GMT 42.251312 -2.499514 36,000 16 472 0
2022-08-17 11:17:21 GMT 42.246780 -2.501387 36,000 16 472 0
2022-08-17 11:17:18 GMT 42.242805 -2.502967 36,000 16 472 0
2022-08-17 11:17:12 GMT 42.228928 -2.508628 36,000 16 472 64
2022-08-17 11:17:10 GMT 42.224091 -2.510568 36,000 16 472 64
2022-08-17 11:17:02 GMT 42.207748 -2.517210 36,000 16 472 64
2022-08-17 11:17:00 GMT 42.203838 -2.518807 36,000 16 472 64
2022-08-17 11:16:52 GMT 42.186661 -2.525833 36,000 16 472 64
2022-08-17 11:16:50 GMT 42.182373 -2.527542 36,000 16 472 0
2022-08-17 11:16:40 GMT 42.161179 -2.536219 35,975 16 472 0
2022-08-17 11:16:29 GMT 42.139923 -2.544868 36,000 16 471 0
2022-08-17 11:16:21 GMT 42.122002 -2.552213 35,975 16 471 0
2022-08-17 11:16:10 GMT 42.097652 -2.562178 35,975 16 470 0
2022-08-17 11:16:01 GMT 42.079971 -2.569427 35,975 16 469 0
2022-08-17 11:15:59 GMT 42.076630 -2.570801 35,975 16 469 0
2022-08-17 11:15:51 GMT 42.059155 -2.577955 36,000 16 469 0
2022-08-17 11:15:49 GMT 42.054932 -2.579665 36,000 16 469 0
2022-08-17 11:15:39 GMT 42.032154 -2.588941 35,975 16 469 0
2022-08-17 11:15:28 GMT 42.011307 -2.597518 35,975 17 469 0
2022-08-17 11:15:20 GMT 41.995705 -2.603888 35,975 17 469 0
2022-08-17 11:15:17 GMT 41.989380 -2.606506 35,975 17 468 0
2022-08-17 11:15:07 GMT 41.969261 -2.614810 36,000 17 468 0
2022-08-17 11:14:59 GMT 41.952667 -2.621675 36,000 17 468 0
2022-08-17 11:14:57 GMT 41.947895 -2.623688 36,000 17 469 0
2022-08-17 11:14:48 GMT 41.929180 -2.631417 36,000 17 470 0
2022-08-17 11:14:46 GMT 41.925934 -2.632724 36,000 17 470 0
2022-08-17 11:14:39 GMT 41.910980 -2.638954 36,000 17 470 0
2022-08-17 11:14:36 GMT 41.904648 -2.641573 36,000 17 470 0
2022-08-17 11:14:29 GMT 41.889099 -2.648024 36,000 17 470 0
2022-08-17 11:14:26 GMT 41.883049 -2.650516 36,000 17 470 0
2022-08-17 11:14:18 GMT 41.866058 -2.657505 36,000 17 469 0
2022-08-17 11:14:15 GMT 41.861893 -2.659253 36,000 16 470 0
2022-08-17 11:14:09 GMT 41.847702 -2.664996 36,000 16 471 0
2022-08-17 11:14:07 GMT 41.844734 -2.666229 36,000 16 471 0
2022-08-17 11:14:05 GMT 41.839756 -2.668209 36,000 16 471 0
2022-08-17 11:13:58 GMT 41.821972 -2.675363 36,000 16 471 0
2022-08-17 11:13:54 GMT 41.817719 -2.677106 36,000 16 471 0
2022-08-17 11:13:47 GMT 41.797626 -2.685199 36,000 16 472 64
2022-08-17 11:13:45 GMT 41.797626 -2.685199 36,000 16 472 64
2022-08-17 11:13:38 GMT 41.783333 -2.690948 36,000 16 472 0
2022-08-17 11:13:36 GMT 41.780228 -2.692150 36,000 16 472 0
2022-08-17 11:13:34 GMT 41.774815 -2.694269 36,000 16 472 0
2022-08-17 11:13:28 GMT 41.762386 -2.699188 36,000 16 473 0
2022-08-17 11:13:26 GMT 41.758255 -2.700826 36,000 16 473 0
2022-08-17 11:13:23 GMT 41.750187 -2.704042 36,000 16 473 0
2022-08-17 11:13:16 GMT 41.736923 -2.709253 36,000 16 472 0
2022-08-17 11:13:14 GMT 41.732895 -2.710814 36,000 16 472 0
2022-08-17 11:13:05 GMT 41.714447 -2.718117 36,000 16 472 64
2022-08-17 11:13:03 GMT 41.711269 -2.719372 36,000 16 472 0
2022-08-17 11:12:56 GMT 41.688694 -2.728314 36,000 16 470 0
2022-08-17 11:12:54 GMT 41.688694 -2.728314 36,000 16 470 0
2022-08-17 11:12:48 GMT 41.678192 -2.732475 36,000 16 468 0
2022-08-17 11:12:45 GMT 41.672726 -2.734638 36,000 16 468 -64
2022-08-17 11:12:43 GMT 41.667652 -2.736682 36,000 16 467 -64
2022-08-17 11:12:36 GMT 41.653404 -2.742430 36,000 16 464 -64
2022-08-17 11:12:33 GMT 41.646935 -2.744985 36,025 16 463 -64
2022-08-17 11:12:26 GMT 41.633762 -2.750287 36,025 16 461 0
2022-08-17 11:12:23 GMT 41.625549 -2.753636 36,025 16 460 0
2022-08-17 11:12:16 GMT 41.608841 -2.760315 36,025 16 460 0
2022-08-17 11:12:11 GMT 41.603851 -2.762312 36,025 16 460 0
2022-08-17 11:12:06 GMT 41.592178 -2.766994 36,025 16 460 0
2022-08-17 11:12:04 GMT 41.589111 -2.768243 36,025 16 460 0
2022-08-17 11:12:00 GMT 41.581062 -2.771493 36,025 16 460 0
2022-08-17 11:11:55 GMT 41.568680 -2.776475 36,025 16 460 -64
2022-08-17 11:11:52 GMT 41.562630 -2.778902 36,025 16 460 -64
2022-08-17 11:11:46 GMT 41.551117 -2.783536 36,025 16 460 -64
2022-08-17 11:11:44 GMT 41.548103 -2.784715 36,050 16 460 -64
2022-08-17 11:11:41 GMT 41.541542 -2.787334 36,050 16 460 0
2022-08-17 11:11:35 GMT 41.530369 -2.791869 36,050 16 461 0
2022-08-17 11:11:33 GMT 41.525387 -2.793849 36,050 16 461 0
2022-08-17 11:11:30 GMT 41.520264 -2.795896 36,050 16 461 -64
2022-08-17 11:11:25 GMT 41.508255 -2.800683 36,050 16 461 0
2022-08-17 11:11:21 GMT 41.499298 -2.804260 36,050 16 461 0
2022-08-17 11:11:15 GMT 41.484562 -2.810201 36,025 16 461 64
2022-08-17 11:11:10 GMT 41.478104 -2.812812 36,025 16 461 64
2022-08-17 11:11:05 GMT 41.464508 -2.818243 36,025 16 461 64
2022-08-17 11:10:59 GMT 41.457001 -2.821239 36,025 16 461 64
2022-08-17 11:10:55 GMT 41.447784 -2.824892 36,025 16 461 64
2022-08-17 11:10:53 GMT 41.444275 -2.826295 36,025 16 461 64
2022-08-17 11:10:50 GMT 41.436008 -2.829618 36,000 16 461 64
2022-08-17 11:10:45 GMT 41.427292 -2.833099 36,000 16 462 64
2022-08-17 11:10:43 GMT 41.423264 -2.834660 36,000 16 462 64
2022-08-17 11:10:39 GMT 41.414406 -2.838177 36,000 16 462 0
2022-08-17 11:10:34 GMT 41.406166 -2.841435 36,000 16 462 0
2022-08-17 11:10:32 GMT 41.401199 -2.843399 36,000 16 461 0
2022-08-17 11:10:28 GMT 41.393509 -2.846458 36,000 16 461 0
2022-08-17 11:10:24 GMT 41.383713 -2.850281 36,000 16 461 64
2022-08-17 11:10:22 GMT 41.380554 -2.851501 36,000 16 461 64
2022-08-17 11:10:19 GMT 41.372326 -2.854760 36,000 16 461 64
2022-08-17 11:10:15 GMT 41.365768 -2.857361 35,975 16 461 64
2022-08-17 11:10:12 GMT 41.359707 -2.859754 35,975 16 461 64
2022-08-17 11:10:10 GMT 41.355099 -2.861564 35,975 16 460 0
2022-08-17 11:10:07 GMT 41.348862 -2.863998 35,975 16 460 0
2022-08-17 11:10:04 GMT 41.343842 -2.865967 35,975 16 460 0
2022-08-17 11:10:02 GMT 41.338573 -2.867993 36,000 16 460 0
2022-08-17 11:09:59 GMT 41.332214 -2.870422 35,975 16 460 0
2022-08-17 11:09:55 GMT 41.325073 -2.873237 36,000 16 460 0
2022-08-17 11:09:52 GMT 41.319160 -2.875484 36,000 16 459 0
2022-08-17 11:09:50 GMT 41.314274 -2.877419 36,000 16 459 0
2022-08-17 11:09:45 GMT 41.304062 -2.881348 36,000 16 459 -64
2022-08-17 11:09:43 GMT 41.298981 -2.883301 36,000 16 459 -64
2022-08-17 11:09:35 GMT 41.283970 -2.889092 36,000 16 458 -64
2022-08-17 11:09:31 GMT 41.276752 -2.891901 36,000 16 458 -64
2022-08-17 11:09:28 GMT 41.268631 -2.895081 36,025 16 457 0
2022-08-17 11:09:25 GMT 41.263065 -2.897270 36,025 16 457 0
2022-08-17 11:09:22 GMT 41.257851 -2.899329 36,025 16 457 0
2022-08-17 11:09:19 GMT 41.252792 -2.901306 36,000 16 458 0
2022-08-17 11:09:15 GMT 41.243004 -2.905197 36,000 16 458 64
2022-08-17 11:09:11 GMT 41.237869 -2.907227 36,000 16 458 0
2022-08-17 11:09:09 GMT 41.232666 -2.909255 36,000 16 458 0
2022-08-17 11:09:04 GMT 41.221985 -2.913513 36,000 16 458 0
2022-08-17 11:09:02 GMT 41.217258 -2.915434 36,000 16 458 0
2022-08-17 11:08:59 GMT 41.211365 -2.917786 36,000 16 458 0
2022-08-17 11:08:54 GMT 41.200882 -2.921936 36,000 16 458 0
2022-08-17 11:08:52 GMT 41.196404 -2.923737 36,000 16 458 64
2022-08-17 11:08:49 GMT 41.190994 -2.925842 36,000 16 458 64
2022-08-17 11:08:45 GMT 41.182114 -2.929321 36,000 16 457 64
2022-08-17 11:08:42 GMT 41.171219 -2.933599 36,000 16 457 0
2022-08-17 11:08:39 GMT 41.171219 -2.933599 36,000 16 457 0
2022-08-17 11:08:34 GMT 41.160278 -2.937866 36,000 16 457 0
2022-08-17 11:08:31 GMT 41.154877 -2.940002 36,000 16 456 0
2022-08-17 11:08:28 GMT 41.148685 -2.942401 36,000 16 456 0
2022-08-17 11:08:23 GMT 41.138073 -2.946583 36,000 16 456 0
2022-08-17 11:08:20 GMT 41.133091 -2.948518 36,000 16 457 0
2022-08-17 11:08:13 GMT 41.120178 -2.953613 36,000 16 457 0
2022-08-17 11:08:11 GMT 41.113728 -2.956134 36,000 16 457 0
2022-08-17 11:08:07 GMT 41.106651 -2.958943 36,000 16 457 0
2022-08-17 11:08:04 GMT 41.100178 -2.961502 36,000 16 456 0
2022-08-17 11:07:59 GMT 41.089333 -2.965747 36,000 16 456 0
2022-08-17 11:07:54 GMT 41.079277 -2.969679 36,000 16 456 0
2022-08-17 11:07:50 GMT 41.071152 -2.972839 36,000 16 456 0
2022-08-17 11:07:48 GMT 41.066757 -2.974548 36,000 16 456 0
2022-08-17 11:07:44 GMT 41.058098 -2.977919 36,000 16 455 0
2022-08-17 11:07:41 GMT 41.048035 -2.981873 35,975 16 455 0
2022-08-17 11:07:34 GMT 41.038452 -2.985597 36,000 16 455 0
2022-08-17 11:07:30 GMT 41.031235 -2.988406 36,000 16 455 0
2022-08-17 11:07:23 GMT 41.016384 -2.994149 36,000 16 455 0
2022-08-17 11:07:20 GMT 41.010567 -2.996459 36,000 16 455 -64
2022-08-17 11:07:17 GMT 41.004501 -2.998840 36,000 16 455 -64
2022-08-17 11:07:13 GMT 40.994877 -3.002701 36,000 17 455 0
2022-08-17 11:07:10 GMT 40.990585 -3.004456 36,000 17 455 0
2022-08-17 11:07:03 GMT 40.976166 -3.010803 36,000 19 455 0
2022-08-17 11:07:00 GMT 40.970261 -3.013550 36,000 19 456 64
2022-08-17 11:06:52 GMT 40.953960 -3.021677 35,975 21 456 0
2022-08-17 11:06:49 GMT 40.948559 -3.024486 36,000 21 456 0
2022-08-17 11:06:43 GMT 40.937943 -3.030090 36,000 21 456 -64
2022-08-17 11:06:40 GMT 40.929886 -3.034363 36,000 21 456 0
2022-08-17 11:06:33 GMT 40.918159 -3.040529 35,975 21 456 0
2022-08-17 11:06:29 GMT 40.910618 -3.044524 35,975 21 456 0
2022-08-17 11:06:23 GMT 40.898529 -3.050842 35,975 21 457 0
2022-08-17 11:06:21 GMT 40.893402 -3.053528 36,000 21 457 0
2022-08-17 11:06:17 GMT 40.885620 -3.057632 36,000 21 457 0
2022-08-17 11:06:13 GMT 40.878799 -3.061218 36,000 21 457 0
2022-08-17 11:06:11 GMT 40.873627 -3.063965 36,000 21 457 -64
2022-08-17 11:06:07 GMT 40.867813 -3.066956 36,000 21 456 0
2022-08-17 11:06:03 GMT 40.858932 -3.071655 36,000 21 457 0
2022-08-17 11:05:59 GMT 40.838837 -3.082352 36,000 22 457 64
2022-08-17 11:05:53 GMT 40.838837 -3.082352 36,000 22 457 64
2022-08-17 11:05:49 GMT 40.832317 -3.085847 36,000 22 457 64
2022-08-17 11:05:46 GMT 40.825150 -3.089655 36,000 22 457 64
2022-08-17 11:05:43 GMT 40.820114 -3.092346 36,000 22 457 0
2022-08-17 11:05:38 GMT 40.810410 -3.097595 35,975 22 457 -64
2022-08-17 11:05:36 GMT 40.806290 -3.099792 36,000 22 458 -64
2022-08-17 11:05:33 GMT 40.798508 -3.103943 36,000 22 458 -64
2022-08-17 11:05:29 GMT 40.785954 -3.110629 36,000 22 458 -64
2022-08-17 11:05:26 GMT 40.785954 -3.110629 36,000 22 458 0
2022-08-17 11:05:22 GMT 40.778362 -3.114686 36,000 22 458 0
2022-08-17 11:05:20 GMT 40.774292 -3.116821 36,000 22 458 0
2022-08-17 11:05:16 GMT 40.766052 -3.121216 36,000 22 458 0
2022-08-17 11:05:12 GMT 40.758392 -3.125298 36,000 22 458 0
2022-08-17 11:05:08 GMT 40.750580 -3.129456 36,000 22 458 -64
2022-08-17 11:05:05 GMT 40.745640 -3.132102 36,000 22 458 0
2022-08-17 11:05:02 GMT 40.738266 -3.136047 36,000 22 458 -64
2022-08-17 11:04:57 GMT 40.728882 -3.141113 36,000 22 458 0
2022-08-17 11:04:55 GMT 40.725998 -3.142639 36,000 22 458 64
2022-08-17 11:04:52 GMT 40.719105 -3.146335 36,000 22 458 64
2022-08-17 11:04:50 GMT 40.712959 -3.149581 36,000 22 458 0
2022-08-17 11:04:46 GMT 40.706268 -3.153137 36,000 22 459 0
2022-08-17 11:04:42 GMT 40.699409 -3.156822 36,000 22 459 -64
2022-08-17 11:04:38 GMT 40.690750 -3.161441 36,000 22 460 0
2022-08-17 11:04:35 GMT 40.686050 -3.164000 36,000 22 460 0
2022-08-17 11:04:32 GMT 40.678883 -3.167870 36,000 22 460 0
2022-08-17 11:04:29 GMT 40.674320 -3.170305 36,000 22 459 64
2022-08-17 11:04:26 GMT 40.666718 -3.174377 36,000 22 459 0
2022-08-17 11:04:23 GMT 40.661545 -3.177124 36,000 22 459 0
2022-08-17 11:04:21 GMT 40.657562 -3.179231 36,000 22 459 0
2022-08-17 11:04:16 GMT 40.649460 -3.183538 36,000 22 459 0
2022-08-17 11:04:13 GMT 40.641548 -3.187783 36,000 22 459 0
2022-08-17 11:04:11 GMT 40.638840 -3.189209 36,000 22 459 64
2022-08-17 11:04:07 GMT 40.628128 -3.194946 36,000 22 459 64
2022-08-17 11:04:02 GMT 40.620178 -3.199144 36,000 22 459 0
2022-08-17 11:03:59 GMT 40.613941 -3.202452 35,975 22 459 0
2022-08-17 11:03:55 GMT 40.606819 -3.206260 35,975 21 460 0
2022-08-17 11:03:51 GMT 40.598557 -3.210632 36,000 21 460 0
2022-08-17 11:03:48 GMT 40.585739 -3.217407 35,975 21 460 0
2022-08-17 11:03:45 GMT 40.585739 -3.217407 35,975 21 460 -64
2022-08-17 11:03:41 GMT 40.579788 -3.220581 36,000 21 461 -64
2022-08-17 11:03:38 GMT 40.572922 -3.224182 36,000 22 461 -64
2022-08-17 11:03:34 GMT 40.565323 -3.228210 36,000 22 461 0
2022-08-17 11:03:31 GMT 40.559097 -3.231506 36,000 22 461 0
2022-08-17 11:03:27 GMT 40.550163 -3.236223 36,000 21 461 0
2022-08-17 11:03:24 GMT 40.539040 -3.242090 36,000 21 461 0
2022-08-17 11:03:21 GMT 40.539040 -3.242090 36,000 21 461 0
2022-08-17 11:03:16 GMT 40.529205 -3.247253 36,000 21 462 0
2022-08-17 11:03:14 GMT 40.526237 -3.248832 36,000 21 462 0
2022-08-17 11:03:11 GMT 40.520279 -3.251953 36,000 21 462 -64
2022-08-17 11:03:08 GMT 40.512634 -3.255981 36,000 21 462 -64
2022-08-17 11:03:04 GMT 40.505894 -3.259506 36,000 21 462 -64
2022-08-17 11:03:01 GMT 40.500687 -3.262268 36,000 21 462 -64
2022-08-17 11:02:58 GMT 40.494488 -3.265561 36,025 21 462 0
2022-08-17 11:02:54 GMT 40.486759 -3.269619 36,025 21 462 0
2022-08-17 11:02:52 GMT 40.481594 -3.272365 36,025 21 462 -64
2022-08-17 11:02:50 GMT 40.478439 -3.274048 36,025 21 462 -64
2022-08-17 11:02:47 GMT 40.472260 -3.277283 36,025 21 462 0
2022-08-17 11:02:44 GMT 40.465813 -3.280730 36,025 21 462 -64
2022-08-17 11:02:41 GMT 40.460785 -3.283414 36,025 21 462 -64
2022-08-17 11:02:38 GMT 40.454636 -3.286621 36,025 21 462 0
2022-08-17 11:02:34 GMT 40.445160 -3.291626 36,025 22 462 0
2022-08-17 11:02:31 GMT 40.440491 -3.294128 36,025 22 462 0
2022-08-17 11:02:29 GMT 40.437275 -3.295836 36,025 22 462 0
2022-08-17 11:02:26 GMT 40.428131 -3.300720 36,025 22 463 0
2022-08-17 11:02:22 GMT 40.422180 -3.303894 36,025 22 463 0
2022-08-17 11:02:17 GMT 40.407532 -3.311707 36,025 22 464 0
2022-08-17 11:02:11 GMT 40.400452 -3.315499 36,025 22 464 -64
2022-08-17 11:02:09 GMT 40.397568 -3.317060 36,025 22 464 -64
2022-08-17 11:02:05 GMT 40.389561 -3.321304 36,025 22 463 0
2022-08-17 11:02:02 GMT 40.377960 -3.327454 36,025 22 463 0
2022-08-17 11:02:00 GMT 40.377960 -3.327454 36,025 21 464 0
2022-08-17 11:01:56 GMT 40.362652 -3.335474 36,025 21 464 64
2022-08-17 11:01:52 GMT 40.362652 -3.335474 36,025 21 464 64
2022-08-17 11:01:47 GMT 40.354366 -3.339781 36,025 21 464 64
2022-08-17 11:01:44 GMT 40.347103 -3.343402 36,025 20 464 64
2022-08-17 11:01:41 GMT 40.340260 -3.346648 36,025 19 464 64
2022-08-17 11:01:38 GMT 40.334351 -3.349207 36,000 17 463 0
2022-08-17 11:01:35 GMT 40.330112 -3.350893 36,025 15 462 0
2022-08-17 11:01:32 GMT 40.321335 -3.354065 36,025 13 462 0
2022-08-17 11:01:28 GMT 40.313828 -3.356323 36,025 12 461 -64
2022-08-17 11:01:24 GMT 40.306091 -3.358398 36,025 10 460 -64
2022-08-17 11:01:20 GMT 40.298035 -3.360168 36,025 9 459 0
2022-08-17 11:01:18 GMT 40.294315 -3.360942 36,025 8 459 64
2022-08-17 11:01:15 GMT 40.287098 -3.362378 36,000 8 459 64
2022-08-17 11:01:11 GMT 40.278160 -3.364188 36,000 8 459 64
2022-08-17 11:01:09 GMT 40.273819 -3.365112 36,000 8 459 64
2022-08-17 11:01:05 GMT 40.265823 -3.366685 36,000 8 460 0
2022-08-17 11:01:01 GMT 40.254929 -3.368933 36,000 8 460 0
2022-08-17 11:00:57 GMT 40.250229 -3.369869 36,000 8 460 0
2022-08-17 11:00:53 GMT 40.242130 -3.371492 36,000 8 460 0
2022-08-17 11:00:50 GMT 40.234352 -3.373052 36,000 8 460 0
2022-08-17 11:00:47 GMT 40.228271 -3.374268 36,000 8 460 0
2022-08-17 11:00:44 GMT 40.223137 -3.375300 36,025 8 460 -64
2022-08-17 11:00:41 GMT 40.215733 -3.376798 36,025 8 461 0
2022-08-17 11:00:37 GMT 40.206757 -3.378601 36,025 8 461 0
2022-08-17 11:00:33 GMT 40.199532 -3.380044 36,025 8 461 -64
2022-08-17 11:00:30 GMT 40.190598 -3.381836 36,025 8 461 -64
2022-08-17 11:00:27 GMT 40.187336 -3.382478 36,025 8 461 -64
2022-08-17 11:00:24 GMT 40.176956 -3.384538 36,025 8 461 -128
2022-08-17 11:00:21 GMT 40.173523 -3.385254 36,025 8 461 -64
2022-08-17 11:00:18 GMT 40.166203 -3.386723 36,025 8 461 0
2022-08-17 11:00:14 GMT 40.159126 -3.388159 36,025 8 461 0
2022-08-17 11:00:11 GMT 40.151642 -3.389709 36,025 8 461 0
2022-08-17 11:00:08 GMT 40.145370 -3.390930 36,025 8 461 64
2022-08-17 11:00:04 GMT 40.137634 -3.392517 36,025 8 461 64
2022-08-17 11:00:01 GMT 40.130814 -3.393921 36,025 8 461 64
2022-08-17 10:59:59 GMT 40.121696 -3.395774 36,025 8 462 64
2022-08-17 10:59:51 GMT 40.108990 -3.398396 36,000 8 462 128
2022-08-17 10:59:47 GMT 40.099228 -3.400391 36,000 8 463 64
2022-08-17 10:59:41 GMT 40.088196 -3.402588 36,000 8 463 0
2022-08-17 10:59:36 GMT 40.078545 -3.404576 36,000 8 463 0
2022-08-17 10:59:30 GMT 40.066223 -3.407043 36,000 8 463 0
2022-08-17 10:59:26 GMT 40.056839 -3.408936 36,000 8 463 0
2022-08-17 10:59:23 GMT 40.049606 -3.410339 36,000 8 463 -64
2022-08-17 10:59:20 GMT 40.044468 -3.411380 36,000 8 463 -64
2022-08-17 10:59:16 GMT 40.035919 -3.413086 36,000 8 463 0
2022-08-17 10:59:13 GMT 40.029510 -3.414368 36,000 8 463 -64
2022-08-17 10:59:10 GMT 40.023239 -3.415624 36,025 8 463 -128
2022-08-17 10:59:06 GMT 40.014347 -3.417372 36,025 8 463 -128
2022-08-17 10:59:02 GMT 40.006573 -3.418933 36,025 8 463 -64
2022-08-17 10:58:59 GMT 40.001312 -3.419994 36,025 8 462 -64
2022-08-17 10:58:56 GMT 39.993576 -3.421570 36,025 8 462 0
2022-08-17 10:58:50 GMT 39.978973 -3.424500 36,025 8 462 64
2022-08-17 10:58:46 GMT 39.971985 -3.425924 36,025 8 462 64
2022-08-17 10:58:42 GMT 39.963455 -3.427612 36,025 8 462 64
2022-08-17 10:58:39 GMT 39.957138 -3.428894 36,000 8 463 64
2022-08-17 10:58:35 GMT 39.950294 -3.430231 36,000 8 463 0
2022-08-17 10:58:29 GMT 39.937866 -3.432739 36,025 8 463 0
2022-08-17 10:58:26 GMT 39.928528 -3.434631 36,025 8 463 0
2022-08-17 10:58:20 GMT 39.916496 -3.437012 36,025 8 463 64
2022-08-17 10:58:14 GMT 39.905319 -3.439258 36,000 8 463 64
2022-08-17 10:58:10 GMT 39.896572 -3.440979 36,000 8 464 64
2022-08-17 10:58:04 GMT 39.883446 -3.443542 36,000 8 464 64
2022-08-17 10:57:59 GMT 39.870827 -3.446045 36,000 8 464 64
2022-08-17 10:57:53 GMT 39.857758 -3.448632 36,000 8 464 0
2022-08-17 10:57:50 GMT 39.853649 -3.449463 36,000 8 464 0
2022-08-17 10:57:48 GMT 39.849792 -3.450185 36,000 8 464 0
2022-08-17 10:57:44 GMT 39.840912 -3.451976 36,000 8 464 0
2022-08-17 10:57:41 GMT 39.834915 -3.453170 35,975 8 463 64
2022-08-17 10:57:38 GMT 39.828510 -3.454468 35,975 8 463 64
2022-08-17 10:57:34 GMT 39.811249 -3.457947 35,975 8 463 64
2022-08-17 10:57:30 GMT 39.811249 -3.457947 35,975 8 463 64
2022-08-17 10:57:28 GMT 39.807007 -3.458801 35,975 8 463 64
2022-08-17 10:57:24 GMT 39.798672 -3.460449 35,975 8 463 0
2022-08-17 10:57:20 GMT 39.789780 -3.462126 35,975 7 463 64
2022-08-17 10:57:17 GMT 39.784149 -3.463074 35,975 6 461 0
2022-08-17 10:57:14 GMT 39.777306 -3.464111 35,975 6 461 0
2022-08-17 10:57:10 GMT 39.768585 -3.465291 35,975 5 460 0
2022-08-17 10:57:08 GMT 39.762592 -3.465942 35,975 4 460 0
2022-08-17 10:57:05 GMT 39.757195 -3.466553 35,975 4 460 64
2022-08-17 10:56:59 GMT 39.741646 -3.468140 35,975 4 460 0
2022-08-17 10:56:57 GMT 39.741646 -3.468140 35,975 4 460 0
2022-08-17 10:56:53 GMT 39.732376 -3.469053 35,975 4 460 0
2022-08-17 10:56:48 GMT 39.724422 -3.469849 35,950 4 460 64
2022-08-17 10:56:46 GMT 39.718781 -3.470426 35,950 4 460 64
2022-08-17 10:56:43 GMT 39.713203 -3.471008 35,975 4 460 64
2022-08-17 10:56:39 GMT 39.701286 -3.472168 35,950 4 460 0
2022-08-17 10:56:36 GMT 39.697933 -3.472534 35,950 4 460 0
2022-08-17 10:56:33 GMT 39.691509 -3.473145 35,975 4 460 0
2022-08-17 10:56:29 GMT 39.681564 -3.474187 35,975 4 460 0
2022-08-17 10:56:26 GMT 39.675659 -3.474785 35,975 4 460 0
2022-08-17 10:56:23 GMT 39.668198 -3.475501 35,975 4 460 0
2022-08-17 10:56:17 GMT 39.654831 -3.476874 35,975 4 460 -64
2022-08-17 10:56:14 GMT 39.649475 -3.477412 35,975 4 460 0
2022-08-17 10:56:08 GMT 39.636612 -3.478725 35,975 4 460 -64
2022-08-17 10:56:02 GMT 39.616470 -3.480815 35,975 4 460 0
2022-08-17 10:55:59 GMT 39.612045 -3.481262 35,975 4 460 -64
2022-08-17 10:55:56 GMT 39.612045 -3.481262 35,975 4 460 -64
2022-08-17 10:55:52 GMT 39.604294 -3.482069 36,000 4 461 -64
2022-08-17 10:55:48 GMT 39.594913 -3.483032 36,000 4 461 -64
2022-08-17 10:55:45 GMT 39.588722 -3.483643 36,000 4 462 0
2022-08-17 10:55:41 GMT 39.581039 -3.484398 36,000 4 461 0
2022-08-17 10:55:37 GMT 39.571472 -3.485413 36,000 4 461 -64
2022-08-17 10:55:33 GMT 39.560837 -3.486450 36,000 4 461 -64
2022-08-17 10:55:28 GMT 39.550270 -3.487488 36,000 4 461 -64
2022-08-17 10:55:22 GMT 39.540939 -3.488398 36,000 4 461 0
2022-08-17 10:55:19 GMT 39.532997 -3.489197 36,000 4 461 0
2022-08-17 10:55:17 GMT 39.529449 -3.489532 36,000 4 461 0
2022-08-17 10:55:12 GMT 39.518242 -3.490662 36,000 4 461 0
2022-08-17 10:55:09 GMT 39.511677 -3.491272 36,000 4 462 0
2022-08-17 10:55:07 GMT 39.507568 -3.491682 36,000 4 462 0
2022-08-17 10:55:02 GMT 39.496502 -3.492798 36,000 4 462 0
2022-08-17 10:54:59 GMT 39.482071 -3.494263 36,000 4 462 0
2022-08-17 10:54:55 GMT 39.482071 -3.494263 36,000 4 463 0
2022-08-17 10:54:51 GMT 39.474388 -3.495056 36,000 4 463 0
2022-08-17 10:54:48 GMT 39.467453 -3.495728 36,000 4 463 -64
2022-08-17 10:54:46 GMT 39.463440 -3.496160 36,025 4 463 0
2022-08-17 10:54:42 GMT 39.451950 -3.497253 36,000 4 464 0
2022-08-17 10:54:38 GMT 39.446594 -3.497832 36,000 4 464 0
2022-08-17 10:54:36 GMT 39.441990 -3.498291 36,000 4 464 0
2022-08-17 10:54:33 GMT 39.433189 -3.499146 36,025 4 464 0
2022-08-17 10:54:29 GMT 39.425835 -3.499939 36,000 4 464 0
2022-08-17 10:54:27 GMT 39.420670 -3.500427 36,000 4 465 0
2022-08-17 10:54:21 GMT 39.409058 -3.501594 36,000 4 465 0
2022-08-17 10:54:18 GMT 39.402603 -3.502250 36,000 4 465 0
2022-08-17 10:54:16 GMT 39.398209 -3.502728 36,000 4 465 0
2022-08-17 10:54:12 GMT 39.389339 -3.503601 36,000 4 466 0
2022-08-17 10:54:09 GMT 39.380585 -3.504460 36,000 4 466 0
2022-08-17 10:54:03 GMT 39.370625 -3.505432 36,000 4 467 0
2022-08-17 10:53:59 GMT 39.354584 -3.507027 36,000 4 467 0
2022-08-17 10:53:56 GMT 39.354584 -3.507027 36,000 4 467 0
2022-08-17 10:53:51 GMT 39.343460 -3.508161 36,000 4 468 0
2022-08-17 10:53:47 GMT 39.338242 -3.508699 36,000 4 468 0
2022-08-17 10:53:45 GMT 39.331879 -3.509296 36,000 4 468 0
2022-08-17 10:53:39 GMT 39.318924 -3.510550 36,000 4 468 0
2022-08-17 10:53:35 GMT 39.310135 -3.511445 36,000 4 468 0
2022-08-17 10:53:30 GMT 39.300701 -3.512390 36,000 4 469 0
2022-08-17 10:53:27 GMT 39.293289 -3.513177 36,000 4 469 0
2022-08-17 10:53:24 GMT 39.287621 -3.513733 36,000 4 469 0
2022-08-17 10:53:20 GMT 39.277130 -3.514789 36,000 4 469 0
2022-08-17 10:53:17 GMT 39.272141 -3.515267 36,000 4 469 64
2022-08-17 10:53:15 GMT 39.265274 -3.515983 36,000 4 469 64
2022-08-17 10:53:10 GMT 39.255066 -3.516998 36,000 4 468 64
2022-08-17 10:53:06 GMT 39.243488 -3.518127 36,000 4 468 64
2022-08-17 10:53:04 GMT 39.243488 -3.518127 36,000 4 467 0
2022-08-17 10:53:00 GMT 39.221611 -3.520325 36,000 4 468 0
2022-08-17 10:52:54 GMT 39.221611 -3.520325 36,000 4 468 0
2022-08-17 10:52:47 GMT 39.204254 -3.522073 36,000 4 467 0
2022-08-17 10:52:43 GMT 39.199265 -3.522583 36,000 4 467 -64
2022-08-17 10:52:39 GMT 39.188652 -3.523621 36,000 4 467 0
2022-08-17 10:52:34 GMT 39.176456 -3.524841 36,000 4 467 0
2022-08-17 10:52:30 GMT 39.170589 -3.525452 36,000 4 467 0
2022-08-17 10:52:26 GMT 39.161091 -3.526367 36,000 4 467 0
2022-08-17 10:52:23 GMT 39.154762 -3.527039 36,000 4 469 0
2022-08-17 10:52:19 GMT 39.145309 -3.527954 36,000 4 469 0
2022-08-17 10:52:16 GMT 39.138840 -3.528582 36,000 4 470 0
2022-08-17 10:52:13 GMT 39.133022 -3.529175 36,000 4 470 0
2022-08-17 10:52:10 GMT 39.120872 -3.530396 36,000 4 471 0
2022-08-17 10:52:07 GMT 39.120872 -3.530396 36,000 4 471 0
2022-08-17 10:52:03 GMT 39.110870 -3.531388 36,000 4 472 0
2022-08-17 10:51:58 GMT 39.100433 -3.532471 36,000 4 473 0
2022-08-17 10:51:51 GMT 39.084419 -3.534058 36,000 4 473 -64
2022-08-17 10:51:48 GMT 39.078049 -3.534672 36,000 4 473 0
2022-08-17 10:51:41 GMT 39.062962 -3.536194 36,000 9 479 64
2022-08-17 10:51:38 GMT 39.056396 -3.536804 36,000 5 474 0
2022-08-17 10:51:33 GMT 39.045036 -3.537964 36,000 5 474 0
2022-08-17 10:51:31 GMT 39.040558 -3.538434 36,000 5 474 0
2022-08-17 10:51:28 GMT 39.033508 -3.539329 36,025 6 476 0
2022-08-17 10:51:24 GMT 39.025673 -3.540344 36,025 6 477 0
2022-08-17 10:51:20 GMT 39.018631 -3.541419 36,025 6 477 0
2022-08-17 10:51:17 GMT 39.012077 -3.542480 36,025 7 477 0
2022-08-17 10:51:13 GMT 39.002747 -3.544166 36,025 8 478 64
2022-08-17 10:51:10 GMT 38.995831 -3.545532 36,000 9 479 64
2022-08-17 10:51:07 GMT 38.989334 -3.546912 36,000 9 479 64
2022-08-17 10:51:04 GMT 38.983566 -3.548166 36,000 10 480 0
2022-08-17 10:51:01 GMT 38.959991 -3.554197 36,000 11 481 0
2022-08-17 10:50:55 GMT 38.959991 -3.554197 36,000 12 482 0
2022-08-17 10:50:52 GMT 38.954586 -3.555725 36,000 12 482 0
2022-08-17 10:50:49 GMT 38.950302 -3.557007 36,000 13 483 0
2022-08-17 10:50:44 GMT 38.938293 -3.560547 36,000 13 483 0
2022-08-17 10:50:41 GMT 38.932068 -3.562377 36,000 13 483 0
2022-08-17 10:50:37 GMT 38.921722 -3.565422 36,000 13 483 0
2022-08-17 10:50:33 GMT 38.914261 -3.567631 36,000 13 483 0
2022-08-17 10:50:29 GMT 38.905701 -3.570198 36,000 13 483 0
2022-08-17 10:50:26 GMT 38.898926 -3.572169 36,000 13 483 0
2022-08-17 10:50:23 GMT 38.892487 -3.574097 36,000 13 483 0
2022-08-17 10:50:20 GMT 38.887299 -3.575632 36,000 13 483 0
2022-08-17 10:50:16 GMT 38.878326 -3.578259 36,000 13 483 0
2022-08-17 10:50:13 GMT 38.872238 -3.580050 36,000 13 484 0
2022-08-17 10:50:10 GMT 38.865021 -3.582214 36,000 13 484 0
2022-08-17 10:50:05 GMT 38.853756 -3.585571 36,000 13 484 0
2022-08-17 10:50:02 GMT 38.847610 -3.587394 36,000 13 484 0
2022-08-17 10:49:57 GMT 38.836250 -3.590698 36,000 13 484 0
2022-08-17 10:49:53 GMT 38.828663 -3.592957 36,000 13 484 0
2022-08-17 10:49:48 GMT 38.817444 -3.596231 36,000 12 484 0
2022-08-17 10:49:44 GMT 38.805992 -3.599609 36,000 12 484 0
2022-08-17 10:49:39 GMT 38.797054 -3.602234 36,000 12 484 0
2022-08-17 10:49:36 GMT 38.782379 -3.606501 36,000 12 484 0
2022-08-17 10:49:32 GMT 38.782379 -3.606501 36,000 12 485 0
2022-08-17 10:49:29 GMT 38.774616 -3.608826 36,000 12 485 0
2022-08-17 10:49:26 GMT 38.769123 -3.610413 36,000 12 485 0
2022-08-17 10:49:23 GMT 38.761322 -3.612711 36,000 12 485 -64
2022-08-17 10:49:18 GMT 38.752396 -3.615338 36,000 13 484 0
2022-08-17 10:49:15 GMT 38.744339 -3.617666 36,000 13 484 0
2022-08-17 10:49:11 GMT 38.735596 -3.620234 36,025 13 484 0
2022-08-17 10:49:08 GMT 38.728111 -3.622437 36,000 12 484 0
2022-08-17 10:49:03 GMT 38.718006 -3.625427 36,000 12 484 0
2022-08-17 10:48:59 GMT 38.699715 -3.630737 36,000 12 484 0
2022-08-17 10:48:55 GMT 38.699715 -3.630737 36,000 12 484 0
2022-08-17 10:48:52 GMT 38.695618 -3.631958 36,000 12 484 0
2022-08-17 10:48:49 GMT 38.688034 -3.634146 36,000 12 484 0
2022-08-17 10:48:45 GMT 38.678997 -3.636780 36,000 13 484 0
2022-08-17 10:48:41 GMT 38.669861 -3.639520 36,000 13 484 0
2022-08-17 10:48:37 GMT 38.662994 -3.641550 36,000 13 484 0
2022-08-17 10:48:33 GMT 38.654140 -3.644165 36,000 13 484 64
2022-08-17 10:48:29 GMT 38.644592 -3.646983 36,000 13 484 0
2022-08-17 10:48:25 GMT 38.636627 -3.649312 36,000 12 484 0
2022-08-17 10:48:22 GMT 38.628906 -3.651550 36,000 12 484 0
2022-08-17 10:48:18 GMT 38.618572 -3.654541 36,000 12 484 0
2022-08-17 10:48:14 GMT 38.609528 -3.657193 36,000 12 484 0
2022-08-17 10:48:10 GMT 38.601536 -3.659485 36,000 12 484 -64
2022-08-17 10:48:07 GMT 38.596321 -3.661011 36,000 12 484 -64
2022-08-17 10:48:03 GMT 38.587830 -3.663463 36,000 12 483 0
2022-08-17 10:47:57 GMT 38.574257 -3.667419 36,000 12 484 0
2022-08-17 10:47:52 GMT 38.563705 -3.670449 36,000 12 484 0
2022-08-17 10:47:49 GMT 38.557114 -3.672419 36,000 13 484 0
2022-08-17 10:47:44 GMT 38.545952 -3.675659 36,000 13 484 0
2022-08-17 10:47:41 GMT 38.540783 -3.677185 36,000 13 484 0
2022-08-17 10:47:37 GMT 38.528820 -3.680725 36,000 13 484 0
2022-08-17 10:47:34 GMT 38.523422 -3.682331 36,000 13 484 0
2022-08-17 10:47:31 GMT 38.515778 -3.684540 36,000 13 484 0
2022-08-17 10:47:26 GMT 38.506485 -3.687286 36,000 13 484 0
2022-08-17 10:47:23 GMT 38.498383 -3.689675 36,000 13 483 0
2022-08-17 10:47:20 GMT 38.493904 -3.691040 36,000 13 483 0
2022-08-17 10:47:14 GMT 38.479843 -3.695168 36,000 13 483 0
2022-08-17 10:47:11 GMT 38.473747 -3.696899 36,000 12 483 64
2022-08-17 10:47:05 GMT 38.461899 -3.700362 36,000 12 483 0
2022-08-17 10:47:02 GMT 38.454803 -3.702454 36,000 12 483 0
2022-08-17 10:46:59 GMT 38.448853 -3.704184 36,000 12 483 64
2022-08-17 10:46:56 GMT 38.439442 -3.706909 36,000 12 483 64
2022-08-17 10:46:53 GMT 38.436127 -3.707886 36,000 12 483 64
2022-08-17 10:46:50 GMT 38.429214 -3.709916 36,000 12 483 0
2022-08-17 10:46:43 GMT 38.413696 -3.714394 36,000 12 483 0
2022-08-17 10:46:39 GMT 38.405361 -3.716782 36,000 12 483 0
2022-08-17 10:46:34 GMT 38.393784 -3.720158 36,000 12 483 0
2022-08-17 10:46:31 GMT 38.385681 -3.722495 36,000 12 482 0
2022-08-17 10:46:22 GMT 38.365189 -3.728366 36,000 12 482 0
2022-08-17 10:46:15 GMT 38.350021 -3.732722 36,000 12 482 0
2022-08-17 10:46:12 GMT 38.344849 -3.734241 36,000 12 482 0
2022-08-17 10:46:09 GMT 38.328224 -3.739053 36,000 12 482 0
2022-08-17 10:46:04 GMT 38.328224 -3.739053 36,000 12 482 0
2022-08-17 10:46:00 GMT 38.318916 -3.741800 36,000 12 482 64
2022-08-17 10:45:53 GMT 38.304020 -3.746099 36,000 12 482 64
2022-08-17 10:45:50 GMT 38.298523 -3.747682 36,000 12 481 64
2022-08-17 10:45:43 GMT 38.283768 -3.751950 36,000 12 481 64
2022-08-17 10:45:40 GMT 38.261703 -3.758399 36,000 12 481 0
2022-08-17 10:45:34 GMT 38.261703 -3.758399 36,000 12 481 0
2022-08-17 10:45:31 GMT 38.255081 -3.760305 36,000 12 480 0
2022-08-17 10:45:28 GMT 38.250111 -3.761743 36,000 12 480 0
2022-08-17 10:45:23 GMT 38.239243 -3.764921 36,000 12 478 0
2022-08-17 10:45:20 GMT 38.231277 -3.767200 36,000 12 477 0
2022-08-17 10:45:13 GMT 38.217293 -3.771236 36,000 12 476 0
2022-08-17 10:45:08 GMT 38.207096 -3.774162 36,000 12 476 0
2022-08-17 10:45:04 GMT 38.198486 -3.776610 36,000 12 475 -64
2022-08-17 10:45:01 GMT 38.191223 -3.778640 36,000 12 475 -64
2022-08-17 10:44:58 GMT 38.184540 -3.780583 36,025 12 475 -64
2022-08-17 10:44:54 GMT 38.176651 -3.782879 36,025 12 474 -64
2022-08-17 10:44:52 GMT 38.166183 -3.785900 36,025 12 474 -64
2022-08-17 10:44:49 GMT 38.166183 -3.785900 36,025 12 474 -64
2022-08-17 10:44:45 GMT 38.156342 -3.788705 36,025 12 474 -64
2022-08-17 10:44:43 GMT 38.151077 -3.790283 36,025 12 474 -64
2022-08-17 10:44:40 GMT 38.144623 -3.792153 36,025 12 474 -64
2022-08-17 10:44:35 GMT 38.134918 -3.794958 36,025 12 474 0
2022-08-17 10:44:32 GMT 38.129471 -3.796536 36,025 12 475 0
2022-08-17 10:44:29 GMT 38.123024 -3.798404 36,000 12 476 64
2022-08-17 10:44:24 GMT 38.113037 -3.801270 36,000 12 477 128
2022-08-17 10:44:20 GMT 38.104076 -3.803837 35,975 12 479 256
2022-08-17 10:44:17 GMT 38.098118 -3.805569 35,950 12 480 320
2022-08-17 10:44:14 GMT 38.091183 -3.807539 35,925 12 482 576
2022-08-17 10:44:10 GMT 38.081917 -3.810226 35,900 12 483 832
2022-08-17 10:44:07 GMT 38.075726 -3.812017 35,850 12 483 1024
2022-08-17 10:44:04 GMT 38.069534 -3.813808 35,800 12 484 1344
2022-08-17 10:44:02 GMT 38.063187 -3.815587 35,725 12 485 1280
2022-08-17 10:43:58 GMT 38.056686 -3.817457 35,400 12 486 960
2022-08-17 10:43:54 GMT 38.047256 -3.820203 35,600 12 486 1024
2022-08-17 10:43:49 GMT 38.034203 -3.823959 35,450 12 487 896
2022-08-17 10:43:44 GMT 38.025356 -3.826526 35,450 12 487 832
2022-08-17 10:43:40 GMT 38.017677 -3.828735 35,400 12 487 832
2022-08-17 10:43:37 GMT 38.009575 -3.831124 35,325 12 486 640
2022-08-17 10:43:34 GMT 38.003662 -3.832796 35,325 12 486 576
2022-08-17 10:43:32 GMT 37.989441 -3.836975 35,300 12 486 448
2022-08-17 10:43:28 GMT 37.989441 -3.836975 35,275 12 486 384
2022-08-17 10:43:23 GMT 37.980530 -3.839543 35,250 12 485 384
2022-08-17 10:43:20 GMT 37.972687 -3.841825 35,225 12 485 512
2022-08-17 10:43:17 GMT 37.966843 -3.843483 35,200 12 484 576
2022-08-17 10:43:14 GMT 37.958954 -3.845741 35,150 12 484 704
2022-08-17 10:43:10 GMT 37.950966 -3.848081 35,100 12 484 832
2022-08-17 10:43:07 GMT 37.945404 -3.849656 35,075 12 484 832
2022-08-17 10:43:04 GMT 37.936863 -3.852141 35,025 12 485 896
2022-08-17 10:42:58 GMT 37.922897 -3.856141 34,925 12 485 896
2022-08-17 10:42:53 GMT 37.914143 -3.858649 34,875 12 485 960
2022-08-17 10:42:50 GMT 37.906311 -3.860935 34,800 12 485 1024
2022-08-17 10:42:47 GMT 37.900681 -3.862571 34,725 12 484 576
2022-08-17 10:42:44 GMT 37.893494 -3.864616 34,725 12 485 704
2022-08-17 10:42:40 GMT 37.882954 -3.867605 34,675 12 484 448
2022-08-17 10:42:37 GMT 37.878250 -3.868941 34,650 12 483 384
2022-08-17 10:42:33 GMT 37.870434 -3.871188 34,625 12 483 448
2022-08-17 10:42:29 GMT 37.860947 -3.873849 34,575 12 483 704
2022-08-17 10:42:26 GMT 37.855637 -3.875369 34,550 12 483 704
2022-08-17 10:42:23 GMT 37.848862 -3.877297 34,525 12 483 704
2022-08-17 10:42:17 GMT 37.835083 -3.881271 34,425 12 481 704
2022-08-17 10:42:14 GMT 37.827885 -3.883309 34,400 12 481 640
2022-08-17 10:42:07 GMT 37.811821 -3.887906 34,325 12 481 960
2022-08-17 10:42:04 GMT 37.805511 -3.889686 34,275 12 481 960
2022-08-17 10:41:57 GMT 37.784637 -3.895705 34,075 12 481 1152
2022-08-17 10:41:54 GMT 37.784637 -3.895705 34,100 12 481 1152
2022-08-17 10:41:47 GMT 37.769321 -3.900087 33,950 12 482 1216
2022-08-17 10:41:44 GMT 37.762390 -3.902016 33,900 12 482 1280
2022-08-17 10:41:38 GMT 37.750000 -3.905640 33,775 12 483 1408
2022-08-17 10:41:34 GMT 37.740459 -3.908386 33,675 12 483 1280
2022-08-17 10:41:31 GMT 37.734833 -3.910022 33,625 12 484 1216
2022-08-17 10:41:27 GMT 37.727325 -3.912185 33,550 12 484 960
2022-08-17 10:41:23 GMT 37.717758 -3.914931 33,500 12 483 896
2022-08-17 10:41:21 GMT 37.712402 -3.916451 33,450 12 483 896
2022-08-17 10:41:18 GMT 37.704800 -3.918596 33,400 12 483 960
2022-08-17 10:41:14 GMT 37.696701 -3.920892 33,350 12 483 1152
2022-08-17 10:41:08 GMT 37.684643 -3.924388 33,225 12 484 1280
2022-08-17 10:41:04 GMT 37.675095 -3.927086 33,150 12 484 1024
2022-08-17 10:40:57 GMT 37.660854 -3.931195 33,025 12 483 768
2022-08-17 10:40:54 GMT 37.653313 -3.933344 33,000 12 483 768
2022-08-17 10:40:47 GMT 37.631760 -3.939494 32,875 12 483 1088
2022-08-17 10:40:44 GMT 37.631760 -3.939494 32,850 12 483 1152
2022-08-17 10:40:37 GMT 37.609909 -3.945728 32,675 12 483 768
2022-08-17 10:40:34 GMT 37.609909 -3.945728 32,675 12 483 768
2022-08-17 10:40:27 GMT 37.596222 -3.949643 32,575 13 482 576
2022-08-17 10:40:24 GMT 37.587616 -3.952215 32,550 13 481 576
2022-08-17 10:40:17 GMT 37.573334 -3.956929 32,450 16 482 1024
2022-08-17 10:40:14 GMT 37.565918 -3.959636 32,425 16 482 1088
2022-08-17 10:40:08 GMT 37.554203 -3.964273 32,300 18 483 1280
2022-08-17 10:40:04 GMT 37.544567 -3.968453 32,200 19 484 1344
2022-08-17 10:39:57 GMT 37.530788 -3.974961 31,550 23 484 640
2022-08-17 10:39:53 GMT 37.522499 -3.979141 31,975 22 486 1216
2022-08-17 10:39:47 GMT 37.502251 -3.990187 31,825 23 487 896
2022-08-17 10:39:44 GMT 37.502251 -3.990187 31,800 23 486 896
2022-08-17 10:39:34 GMT 37.480091 -4.002427 31,675 23 485 704
2022-08-17 10:39:24 GMT 37.462170 -4.012398 31,575 23 484 640
2022-08-17 10:39:16 GMT 37.446442 -4.021171 31,475 23 482 704
2022-08-17 10:39:12 GMT 37.439217 -4.025176 31,450 23 482 704
2022-08-17 10:39:06 GMT 37.426483 -4.032216 31,350 23 480 768
2022-08-17 10:39:03 GMT 37.418968 -4.036401 31,325 23 480 832
2022-08-17 10:38:55 GMT 37.405334 -4.044021 31,150 23 478 960
2022-08-17 10:38:52 GMT 37.398205 -4.047984 31,200 23 479 896
2022-08-17 10:38:45 GMT 37.384781 -4.055416 31,075 23 478 1024
2022-08-17 10:38:42 GMT 37.377491 -4.059448 31,025 23 478 1088
2022-08-17 10:38:33 GMT 37.359894 -4.069240 30,850 23 477 1024
2022-08-17 10:38:23 GMT 37.339272 -4.080704 30,700 23 476 896
2022-08-17 10:38:21 GMT 37.336338 -4.082317 30,675 23 476 896
2022-08-17 10:38:15 GMT 37.322937 -4.089778 30,575 23 475 1088
2022-08-17 10:38:12 GMT 37.315979 -4.093634 30,500 23 475 1152
2022-08-17 10:38:03 GMT 37.294209 -4.105722 30,300 23 475 1280
2022-08-17 10:37:52 GMT 37.277031 -4.115276 30,100 23 475 1216
2022-08-17 10:37:50 GMT 37.274002 -4.116951 30,075 23 475 1088
2022-08-17 10:37:43 GMT 37.257980 -4.125775 29,950 23 475 960
2022-08-17 10:37:40 GMT 37.253754 -4.128113 29,900 23 474 1024
2022-08-17 10:37:33 GMT 37.237602 -4.137009 29,775 23 474 1024
2022-08-17 10:37:30 GMT 37.233505 -4.139278 29,725 23 474 960
2022-08-17 10:37:23 GMT 37.217834 -4.147923 29,600 23 473 1152
2022-08-17 10:37:21 GMT 37.212879 -4.150623 29,550 23 472 1280
2022-08-17 10:37:12 GMT 37.197239 -4.159281 29,375 23 473 1152
2022-08-17 10:37:10 GMT 37.192165 -4.162087 29,325 23 473 1152
2022-08-17 10:37:03 GMT 37.177876 -4.169968 29,200 23 472 1152
2022-08-17 10:37:00 GMT 37.171963 -4.173252 29,150 23 471 1088
2022-08-17 10:36:53 GMT 37.157959 -4.180941 29,025 23 471 1024
2022-08-17 10:36:49 GMT 37.150875 -4.184836 28,975 23 470 896
2022-08-17 10:36:43 GMT 37.137840 -4.192001 28,875 23 468 768
2022-08-17 10:36:39 GMT 37.131088 -4.195703 28,825 23 467 768
2022-08-17 10:36:33 GMT 37.117916 -4.202987 28,725 23 466 960
2022-08-17 10:36:30 GMT 37.111027 -4.206749 28,675 23 465 1024
2022-08-17 10:36:23 GMT 37.097942 -4.213973 28,550 23 464 1152
2022-08-17 10:36:18 GMT 37.090302 -4.218166 28,475 23 464 1216
2022-08-17 10:36:13 GMT 37.078251 -4.224781 28,350 23 464 1152
2022-08-17 10:36:09 GMT 37.071350 -4.228626 28,275 23 463 1216
2022-08-17 10:36:03 GMT 37.057709 -4.236106 28,000 23 462 1216
2022-08-17 10:35:59 GMT 37.051071 -4.239788 28,075 23 462 1216
2022-08-17 10:35:55 GMT 37.044224 -4.243529 28,000 23 462 1216
2022-08-17 10:35:52 GMT 37.038208 -4.246859 27,925 23 461 1216
2022-08-17 10:35:48 GMT 37.030014 -4.251358 27,850 23 461 1216
2022-08-17 10:35:45 GMT 37.024841 -4.254163 27,800 23 461 1216
2022-08-17 10:35:42 GMT 37.011402 -4.261561 27,725 23 460 1216
2022-08-17 10:35:39 GMT 37.011402 -4.261561 27,650 23 459 1216
2022-08-17 10:35:35 GMT 37.005772 -4.264666 27,600 23 458 1216
2022-08-17 10:35:32 GMT 36.999756 -4.268013 27,375 23 458 1216
2022-08-17 10:35:25 GMT 36.985893 -4.275592 27,375 23 458 1216
2022-08-17 10:35:22 GMT 36.979385 -4.279175 27,325 23 458 1216
2022-08-17 10:35:18 GMT 36.971741 -4.283354 27,225 23 456 1216
2022-08-17 10:35:15 GMT 36.965927 -4.286538 27,175 23 456 1216
2022-08-17 10:35:12 GMT 36.952049 -4.294162 27,050 23 455 1152
2022-08-17 10:35:08 GMT 36.952049 -4.294162 27,025 23 454 1152
2022-08-17 10:35:05 GMT 36.946789 -4.297087 26,975 23 454 1152
2022-08-17 10:35:01 GMT 36.939156 -4.301267 26,900 23 453 1152
2022-08-17 10:34:58 GMT 36.932732 -4.304790 26,850 23 452 1152
2022-08-17 10:34:54 GMT 36.927006 -4.307894 26,800 23 452 1152
2022-08-17 10:34:51 GMT 36.919975 -4.311776 26,725 23 451 1152
2022-08-17 10:34:47 GMT 36.913364 -4.315418 26,650 23 451 1216
2022-08-17 10:34:44 GMT 36.907471 -4.318679 26,600 23 451 1280
2022-08-17 10:34:41 GMT 36.901611 -4.321834 26,525 23 450 1408
2022-08-17 10:34:37 GMT 36.893600 -4.326217 26,425 23 450 1536
2022-08-17 10:34:34 GMT 36.887993 -4.329330 26,350 23 450 1536
2022-08-17 10:34:31 GMT 36.881424 -4.332938 26,250 23 450 1472
2022-08-17 10:34:27 GMT 36.873749 -4.337092 26,175 23 449 1408
2022-08-17 10:34:24 GMT 36.868652 -4.339892 26,100 23 449 1344
2022-08-17 10:34:21 GMT 36.861465 -4.343807 26,075 23 448 1280
2022-08-17 10:34:17 GMT 36.854828 -4.347430 25,950 23 448 1152
2022-08-17 10:34:12 GMT 36.841919 -4.354706 25,825 25 447 1024
2022-08-17 10:34:06 GMT 36.835297 -4.358592 25,775 26 446 960
2022-08-17 10:34:02 GMT 36.827381 -4.363501 25,700 26 446 960
2022-08-17 10:34:00 GMT 36.823658 -4.365897 25,675 27 445 1024
2022-08-17 10:33:56 GMT 36.816742 -4.370327 25,600 28 444 1216
2022-08-17 10:33:52 GMT 36.808914 -4.375648 25,500 29 444 1408
2022-08-17 10:33:50 GMT 36.805038 -4.378344 25,375 29 444 1536
2022-08-17 10:33:46 GMT 36.798286 -4.383136 25,350 30 444 1728
2022-08-17 10:33:42 GMT 36.791260 -4.388220 25,225 31 445 1920
2022-08-17 10:33:39 GMT 36.786091 -4.392135 25,125 31 445 1984
2022-08-17 10:33:35 GMT 36.779160 -4.397507 25,000 32 447 2048
2022-08-17 10:33:32 GMT 36.773300 -4.402142 24,875 32 447 1792
2022-08-17 10:33:29 GMT 36.768913 -4.405634 24,800 32 447 1728
2022-08-17 10:33:25 GMT 36.761559 -4.411478 24,700 32 447 1728
2022-08-17 10:33:22 GMT 36.755539 -4.416275 24,600 32 447 1728
2022-08-17 10:33:19 GMT 36.750961 -4.419880 24,525 32 447 1792
2022-08-17 10:33:15 GMT 36.744053 -4.425386 24,250 32 446 1536
2022-08-17 10:33:12 GMT 36.737907 -4.430295 24,300 32 447 1664
2022-08-17 10:33:09 GMT 36.733429 -4.433842 24,225 32 446 1536
2022-08-17 10:33:05 GMT 36.726929 -4.438992 24,150 32 446 1408
2022-08-17 10:33:01 GMT 36.719940 -4.444613 24,050 32 446 1344
2022-08-17 10:32:59 GMT 36.717178 -4.446774 24,000 32 446 1344
2022-08-17 10:32:55 GMT 36.709167 -4.453125 23,925 32 444 1280
2022-08-17 10:32:52 GMT 36.702950 -4.458112 23,850 32 443 1280
2022-08-17 10:32:49 GMT 36.698639 -4.461479 23,800 32 443 1216
2022-08-17 10:32:45 GMT 36.691170 -4.467403 23,700 32 442 1088
2022-08-17 10:32:41 GMT 36.685074 -4.472254 23,650 32 441 1088
2022-08-17 10:32:39 GMT 36.681427 -4.475155 23,600 32 440 1024
2022-08-17 10:32:35 GMT 36.673901 -4.481078 23,525 32 438 1024
2022-08-17 10:32:32 GMT 36.668839 -4.485168 23,475 32 438 1024
2022-08-17 10:32:29 GMT 36.664124 -4.488888 23,425 32 436 1152
2022-08-17 10:32:25 GMT 36.656071 -4.495220 23,325 32 435 1280
2022-08-17 10:32:22 GMT 36.651169 -4.499130 23,275 32 435 1344
2022-08-17 10:32:18 GMT 36.646637 -4.502735 23,200 32 433 1408
2022-08-17 10:32:12 GMT 36.635029 -4.511875 23,025 32 433 1792
2022-08-17 10:32:08 GMT 36.629059 -4.516640 22,925 32 433 1856
2022-08-17 10:32:02 GMT 36.617798 -4.525566 22,725 32 433 1664
2022-08-17 10:31:58 GMT 36.612808 -4.529514 22,650 32 432 1600
2022-08-17 10:31:51 GMT 36.600494 -4.539299 22,450 32 432 1728
2022-08-17 10:31:48 GMT 36.595505 -4.543314 22,350 32 432 1728
2022-08-17 10:31:44 GMT 36.586166 -4.550686 22,200 32 431 1792
2022-08-17 10:31:41 GMT 36.583694 -4.552631 22,150 32 431 1792
2022-08-17 10:31:37 GMT 36.577118 -4.557865 22,050 32 431 1792
2022-08-17 10:31:31 GMT 36.566940 -4.565964 21,875 32 430 1792
2022-08-17 10:31:27 GMT 36.559296 -4.572029 21,725 32 430 1792
2022-08-17 10:31:24 GMT 36.554169 -4.576092 21,625 32 429 1728
2022-08-17 10:31:21 GMT 36.549683 -4.579582 21,575 32 429 1728
2022-08-17 10:31:18 GMT 36.544670 -4.583578 21,475 32 428 1728
2022-08-17 10:31:15 GMT 36.537315 -4.589422 21,350 32 428 1728
2022-08-17 10:31:11 GMT 36.533661 -4.592228 21,300 32 427 1728
2022-08-17 10:31:08 GMT 36.527447 -4.597136 21,175 32 426 1792
2022-08-17 10:31:00 GMT 36.515484 -4.606544 20,975 32 425 1600
2022-08-17 10:30:57 GMT 36.509949 -4.610939 20,900 32 423 1344
2022-08-17 10:30:53 GMT 36.498772 -4.619693 20,775 32 421 832
2022-08-17 10:30:47 GMT 36.492531 -4.624601 20,725 32 419 896
2022-08-17 10:30:40 GMT 36.482662 -4.632374 20,600 32 416 1408
2022-08-17 10:30:37 GMT 36.476715 -4.637089 20,500 32 415 1664
2022-08-17 10:30:30 GMT 36.466137 -4.645405 20,275 32 415 2176
2022-08-17 10:30:26 GMT 36.459137 -4.650993 20,100 32 415 2496
2022-08-17 10:30:20 GMT 36.450214 -4.658028 19,875 32 416 2624
2022-08-17 10:30:15 GMT 36.441742 -4.664726 19,650 32 417 2304
2022-08-17 10:30:10 GMT 36.433228 -4.671421 19,475 32 417 2048
2022-08-17 10:30:06 GMT 36.426453 -4.676800 19,325 32 417 2112
2022-08-17 10:30:00 GMT 36.416790 -4.684383 19,125 32 417 2368
2022-08-17 10:29:56 GMT 36.410877 -4.689058 18,950 32 417 2624
2022-08-17 10:29:50 GMT 36.399986 -4.697707 18,700 32 418 2688
2022-08-17 10:29:46 GMT 36.394363 -4.702091 18,475 32 419 2880
2022-08-17 10:29:40 GMT 36.384018 -4.710271 18,175 32 420 3200
2022-08-17 10:29:36 GMT 36.376804 -4.715940 17,925 32 423 3200
2022-08-17 10:29:30 GMT 36.367035 -4.723606 17,700 32 425 2624
2022-08-17 10:29:25 GMT 36.359802 -4.729328 17,500 32 425 2112
2022-08-17 10:29:19 GMT 36.349777 -4.737167 17,325 32 423 1280
2022-08-17 10:29:15 GMT 36.343098 -4.742471 17,275 32 420 896
2022-08-17 10:29:09 GMT 36.332951 -4.750360 17,200 32 417 640
2022-08-17 10:29:06 GMT 36.327225 -4.754859 17,150 32 412 576
2022-08-17 10:28:59 GMT 36.316956 -4.762917 17,075 32 407 704
2022-08-17 10:28:54 GMT 36.309628 -4.768709 17,025 32 405 1024
2022-08-17 10:28:48 GMT 36.299881 -4.776306 16,875 32 401 1600
2022-08-17 10:28:44 GMT 36.293427 -4.781390 16,750 32 399 2048
2022-08-17 10:28:39 GMT 36.284821 -4.788208 16,550 32 398 1856
2022-08-17 10:28:35 GMT 36.278393 -4.793253 16,425 32 396 1792
2022-08-17 10:28:28 GMT 36.268894 -4.800675 16,250 32 395 1792
2022-08-17 10:28:24 GMT 36.261887 -4.806175 16,100 32 394 1856
2022-08-17 10:28:18 GMT 36.253391 -4.812830 15,925 32 391 1920
2022-08-17 10:28:12 GMT 36.244221 -4.820018 15,750 32 391 1984
2022-08-17 10:28:08 GMT 36.237984 -4.824926 15,600 32 388 1920
2022-08-17 10:28:03 GMT 36.230209 -4.831009 15,450 32 388 1856
2022-08-17 10:27:58 GMT 36.222885 -4.836845 15,275 32 386 1920
2022-08-17 10:27:54 GMT 36.216110 -4.842167 15,125 32 385 2048
2022-08-17 10:27:48 GMT 36.207092 -4.849205 14,925 32 384 2112
2022-08-17 10:27:44 GMT 36.201160 -4.853853 14,775 32 383 2368
2022-08-17 10:27:38 GMT 36.192738 -4.860574 14,450 32 383 2368
2022-08-17 10:27:34 GMT 36.186127 -4.865856 14,375 33 383 2368
2022-08-17 10:27:29 GMT 36.178074 -4.872378 14,175 34 382 2240
2022-08-17 10:27:24 GMT 36.171276 -4.878339 14,025 38 383 1984
2022-08-17 10:27:17 GMT 36.163055 -4.887371 13,825 45 385 1792
2022-08-17 10:27:13 GMT 36.157700 -4.894867 13,675 51 386 1728
2022-08-17 10:27:07 GMT 36.152050 -4.904811 13,525 59 385 1792
2022-08-17 10:27:03 GMT 36.148087 -4.913692 13,375 66 385 1856
2022-08-17 10:26:57 GMT 36.144043 -4.925089 13,200 69 385 1856
2022-08-17 10:26:53 GMT 36.141712 -4.933446 13,075 73 384 2048
2022-08-17 10:26:47 GMT 36.138737 -4.946770 12,850 74 383 2368
2022-08-17 10:26:43 GMT 36.136871 -4.955126 12,675 75 383 2560
2022-08-17 10:26:37 GMT 36.134125 -4.967749 12,425 74 382 2560
2022-08-17 10:26:33 GMT 36.132202 -4.976749 12,250 74 382 2432
2022-08-17 10:26:27 GMT 36.129364 -4.989624 12,000 74 380 2240
2022-08-17 10:26:22 GMT 36.127518 -4.998078 11,850 75 378 2304
2022-08-17 10:26:17 GMT 36.124878 -5.010223 11,625 74 377 2560
2022-08-17 10:26:12 GMT 36.122814 -5.019817 11,425 75 376 2496
2022-08-17 10:26:06 GMT 36.120117 -5.032082 11,200 75 375 2176
2022-08-17 10:26:02 GMT 36.118286 -5.040550 11,075 75 372 1792
2022-08-17 10:25:56 GMT 36.115768 -5.052338 10,925 75 367 1344
2022-08-17 10:25:52 GMT 36.113754 -5.061436 10,850 75 363 1024
2022-08-17 10:25:46 GMT 36.111328 -5.072708 10,750 74 356 1024
2022-08-17 10:25:41 GMT 36.108940 -5.083514 10,650 74 350 1024
2022-08-17 10:25:36 GMT 36.106846 -5.092923 10,575 74 343 960
2022-08-17 10:25:30 GMT 36.104599 -5.103207 10,500 74 337 960
2022-08-17 10:25:26 GMT 36.102722 -5.111504 10,425 74 330 896
2022-08-17 10:25:21 GMT 36.100937 -5.119629 10,350 74 325 960
2022-08-17 10:25:15 GMT 36.098656 -5.130206 10,225 74 318 1280
2022-08-17 10:25:11 GMT 36.097073 -5.137277 10,125 74 312 1728
2022-08-17 10:25:06 GMT 36.094711 -5.148125 9,950 74 309 1984
2022-08-17 10:25:00 GMT 36.092880 -5.156562 9,750 74 305 2432
2022-08-17 10:24:55 GMT 36.090866 -5.165691 9,525 74 304 2816
2022-08-17 10:24:51 GMT 36.089539 -5.171700 9,350 74 303 3136
2022-08-17 10:24:44 GMT 36.086967 -5.183560 8,950 74 304 3456
2022-08-17 10:24:40 GMT 36.085510 -5.190182 8,725 74 304 3264
2022-08-17 10:24:34 GMT 36.083340 -5.200039 8,425 74 305 2944
2022-08-17 10:24:29 GMT 36.081390 -5.208893 8,200 74 306 2496
2022-08-17 10:24:24 GMT 36.079651 -5.216618 8,025 74 307 2048
2022-08-17 10:24:20 GMT 36.078140 -5.223370 7,900 74 307 1536
2022-08-17 10:24:14 GMT 36.075577 -5.234585 7,750 74 304 1472
2022-08-17 10:24:09 GMT 36.073795 -5.242290 7,625 74 304 1408
2022-08-17 10:24:04 GMT 36.071838 -5.250588 7,500 73 302 1408
2022-08-17 10:23:54 GMT 36.067703 -5.267429 7,250 72 296 1472
2022-08-17 10:23:48 GMT 36.065323 -5.276527 7,100 71 291 1472
2022-08-17 10:23:43 GMT 36.062897 -5.285568 6,950 71 291 1600
2022-08-17 10:23:39 GMT 36.061615 -5.290146 6,850 71 288 2112
2022-08-17 10:23:33 GMT 36.058758 -5.300377 6,600 70 284 2816
2022-08-17 10:23:24 GMT 36.055069 -5.313778 6,100 72 281 3776
2022-08-17 10:23:13 GMT 36.051544 -5.330200 5,350 79 285 4480
2022-08-17 10:23:03 GMT 36.050720 -5.346737 4,725 96 292 3520
2022-08-17 10:22:53 GMT 36.054707 -5.363198 4,150 121 292 2816
2022-08-17 10:22:33 GMT 36.073151 -5.383930 3,375 164 264 2560

Making use of Plane Finder data

You are free to use the raw flight data, aircraft information and images provided in this report for your own purposes provided the data is correctly attributed to Plane Finder. We ask that you please credit Plane Finder and link to planefinder.net in close proximity to the content.

Optionally one of the following logos (no smaller then 150x24px) can be used and must link to planefinder.net

Embedding the Plane Finder map

You are welcome to embed the Plane Finder playback map on your website to offer visitors a more interactive experience. We suggest using the following HTML code:

<iframe src="//planefinder.net/data/report/BA493-G-EUYJ-7700-squawk-2022-08-17/map" width="800" height="600" seamless="seamless"></iframe>

Where our data comes from

Plane Finder has a global network of data feeds and antenna radars that receive data broadcast directly from aircraft. The primary technologies used are ADS-B and MLAT. We also show feeds from the FAA and a FLARM glider feed.

Click here to find out more about the Plane Finder network.

How we collect our data